<?xml version="1.0" encoding="UTF-8" standalone="no" ?>
<gpx xmlns="http://www.topografix.com/GPX/1/1" xmlns:xsi="http://www.w3.org/2001/XMLSchema-instance" xsi:schemaLocation="http://www.topografix.com/GPX/1/1 http://www.topografix.com/GPX/1/1/gpx.xsd" version="1.1" creator="VisuGPX - https://www.visugpx.com">
  <metadata>
    <name>Tête des Fournèos</name>
    <desc><![CDATA[Monginevro - Tête des Fournèos]]></desc>
  </metadata>
  <trk>
    <name><![CDATA[Tete_Fourneous_2017-04-16]]></name>
    <trkseg>
      <trkpt lat="44.93383" lon="6.73277">
        <ele>1853.08</ele>
        <time>2017-04-16T05:53:54Z</time>
      </trkpt>
      <trkpt lat="44.93383" lon="6.73277">
        <ele>1853.08</ele>
        <time>2017-04-16T05:53:55Z</time>
      </trkpt>
      <trkpt lat="44.93379" lon="6.73282">
        <ele>1851.64</ele>
        <time>2017-04-16T05:54:19Z</time>
      </trkpt>
      <trkpt lat="44.93388" lon="6.73281">
        <ele>1852.6</ele>
        <time>2017-04-16T05:54:50Z</time>
      </trkpt>
      <trkpt lat="44.93386" lon="6.73281">
        <ele>1852.12</ele>
        <time>2017-04-16T05:55:09Z</time>
      </trkpt>
      <trkpt lat="44.93381" lon="6.73283">
        <ele>1852.12</ele>
        <time>2017-04-16T05:55:41Z</time>
      </trkpt>
      <trkpt lat="44.9338" lon="6.7328">
        <ele>1852.12</ele>
        <time>2017-04-16T05:56:00Z</time>
      </trkpt>
      <trkpt lat="44.9338" lon="6.73281">
        <ele>1852.12</ele>
        <time>2017-04-16T05:56:35Z</time>
      </trkpt>
      <trkpt lat="44.9338" lon="6.73282">
        <ele>1852.12</ele>
        <time>2017-04-16T05:57:08Z</time>
      </trkpt>
      <trkpt lat="44.93381" lon="6.7328">
        <ele>1852.12</ele>
        <time>2017-04-16T05:57:24Z</time>
      </trkpt>
      <trkpt lat="44.93379" lon="6.73282">
        <ele>1852.6</ele>
        <time>2017-04-16T05:57:34Z</time>
      </trkpt>
      <trkpt lat="44.93369" lon="6.7328">
        <ele>1852.6</ele>
        <time>2017-04-16T05:57:47Z</time>
      </trkpt>
      <trkpt lat="44.9337" lon="6.73278">
        <ele>1852.6</ele>
        <time>2017-04-16T05:58:04Z</time>
      </trkpt>
      <trkpt lat="44.93369" lon="6.7328">
        <ele>1852.12</ele>
        <time>2017-04-16T05:58:19Z</time>
      </trkpt>
      <trkpt lat="44.9337" lon="6.73279">
        <ele>1853.08</ele>
        <time>2017-04-16T05:58:32Z</time>
      </trkpt>
      <trkpt lat="44.9337" lon="6.73279">
        <ele>1852.12</ele>
        <time>2017-04-16T05:58:47Z</time>
      </trkpt>
      <trkpt lat="44.93371" lon="6.73278">
        <ele>1852.6</ele>
        <time>2017-04-16T05:59:05Z</time>
      </trkpt>
      <trkpt lat="44.93368" lon="6.73277">
        <ele>1852.6</ele>
        <time>2017-04-16T05:59:23Z</time>
      </trkpt>
      <trkpt lat="44.9337" lon="6.73274">
        <ele>1852.6</ele>
        <time>2017-04-16T05:59:37Z</time>
      </trkpt>
      <trkpt lat="44.93368" lon="6.73274">
        <ele>1853.08</ele>
        <time>2017-04-16T05:59:54Z</time>
      </trkpt>
      <trkpt lat="44.93369" lon="6.73263">
        <ele>1853.56</ele>
        <time>2017-04-16T06:00:06Z</time>
      </trkpt>
      <trkpt lat="44.93369" lon="6.73258">
        <ele>1853.56</ele>
        <time>2017-04-16T06:00:12Z</time>
      </trkpt>
      <trkpt lat="44.93369" lon="6.73239">
        <ele>1853.56</ele>
        <time>2017-04-16T06:00:28Z</time>
      </trkpt>
      <trkpt lat="44.93372" lon="6.73222">
        <ele>1855</ele>
        <time>2017-04-16T06:00:44Z</time>
      </trkpt>
      <trkpt lat="44.93376" lon="6.73208">
        <ele>1855.96</ele>
        <time>2017-04-16T06:00:56Z</time>
      </trkpt>
      <trkpt lat="44.9338" lon="6.73195">
        <ele>1856.92</ele>
        <time>2017-04-16T06:01:08Z</time>
      </trkpt>
      <trkpt lat="44.93385" lon="6.73182">
        <ele>1857.89</ele>
        <time>2017-04-16T06:01:21Z</time>
      </trkpt>
      <trkpt lat="44.93391" lon="6.73171">
        <ele>1859.33</ele>
        <time>2017-04-16T06:01:35Z</time>
      </trkpt>
      <trkpt lat="44.93398" lon="6.7316">
        <ele>1860.77</ele>
        <time>2017-04-16T06:01:49Z</time>
      </trkpt>
      <trkpt lat="44.93409" lon="6.73151">
        <ele>1861.73</ele>
        <time>2017-04-16T06:02:03Z</time>
      </trkpt>
      <trkpt lat="44.93415" lon="6.73147">
        <ele>1862.21</ele>
        <time>2017-04-16T06:02:18Z</time>
      </trkpt>
      <trkpt lat="44.93416" lon="6.73146">
        <ele>1862.21</ele>
        <time>2017-04-16T06:02:19Z</time>
      </trkpt>
      <trkpt lat="44.93423" lon="6.73143">
        <ele>1862.69</ele>
        <time>2017-04-16T06:02:26Z</time>
      </trkpt>
      <trkpt lat="44.93437" lon="6.73138">
        <ele>1863.17</ele>
        <time>2017-04-16T06:02:41Z</time>
      </trkpt>
      <trkpt lat="44.93448" lon="6.73138">
        <ele>1864.61</ele>
        <time>2017-04-16T06:02:55Z</time>
      </trkpt>
      <trkpt lat="44.93459" lon="6.7314">
        <ele>1866.54</ele>
        <time>2017-04-16T06:03:11Z</time>
      </trkpt>
      <trkpt lat="44.93469" lon="6.73143">
        <ele>1868.46</ele>
        <time>2017-04-16T06:03:25Z</time>
      </trkpt>
      <trkpt lat="44.93473" lon="6.73148">
        <ele>1870.38</ele>
        <time>2017-04-16T06:03:39Z</time>
      </trkpt>
      <trkpt lat="44.93481" lon="6.73148">
        <ele>1874.23</ele>
        <time>2017-04-16T06:03:53Z</time>
      </trkpt>
      <trkpt lat="44.93487" lon="6.7315">
        <ele>1874.23</ele>
        <time>2017-04-16T06:04:05Z</time>
      </trkpt>
      <trkpt lat="44.93495" lon="6.73151">
        <ele>1876.15</ele>
        <time>2017-04-16T06:04:19Z</time>
      </trkpt>
      <trkpt lat="44.93503" lon="6.7315">
        <ele>1878.07</ele>
        <time>2017-04-16T06:04:34Z</time>
      </trkpt>
      <trkpt lat="44.93512" lon="6.73151">
        <ele>1880.48</ele>
        <time>2017-04-16T06:04:50Z</time>
      </trkpt>
      <trkpt lat="44.9352" lon="6.73148">
        <ele>1882.88</ele>
        <time>2017-04-16T06:05:06Z</time>
      </trkpt>
      <trkpt lat="44.93529" lon="6.73147">
        <ele>1884.8</ele>
        <time>2017-04-16T06:05:21Z</time>
      </trkpt>
      <trkpt lat="44.93532" lon="6.73144">
        <ele>1886.24</ele>
        <time>2017-04-16T06:05:38Z</time>
      </trkpt>
      <trkpt lat="44.93539" lon="6.7314">
        <ele>1888.17</ele>
        <time>2017-04-16T06:05:55Z</time>
      </trkpt>
      <trkpt lat="44.93547" lon="6.73135">
        <ele>1890.09</ele>
        <time>2017-04-16T06:06:11Z</time>
      </trkpt>
      <trkpt lat="44.93552" lon="6.73129">
        <ele>1892.01</ele>
        <time>2017-04-16T06:06:27Z</time>
      </trkpt>
      <trkpt lat="44.93559" lon="6.73119">
        <ele>1893.45</ele>
        <time>2017-04-16T06:06:44Z</time>
      </trkpt>
      <trkpt lat="44.93565" lon="6.73112">
        <ele>1895.38</ele>
        <time>2017-04-16T06:06:58Z</time>
      </trkpt>
      <trkpt lat="44.93573" lon="6.73103">
        <ele>1897.78</ele>
        <time>2017-04-16T06:07:15Z</time>
      </trkpt>
      <trkpt lat="44.9358" lon="6.73095">
        <ele>1898.74</ele>
        <time>2017-04-16T06:07:27Z</time>
      </trkpt>
      <trkpt lat="44.93585" lon="6.73088">
        <ele>1899.7</ele>
        <time>2017-04-16T06:07:35Z</time>
      </trkpt>
      <trkpt lat="44.93587" lon="6.73088">
        <ele>1900.18</ele>
        <time>2017-04-16T06:07:37Z</time>
      </trkpt>
      <trkpt lat="44.93591" lon="6.73077">
        <ele>1901.63</ele>
        <time>2017-04-16T06:07:51Z</time>
      </trkpt>
      <trkpt lat="44.93594" lon="6.73067">
        <ele>1902.59</ele>
        <time>2017-04-16T06:08:04Z</time>
      </trkpt>
      <trkpt lat="44.93597" lon="6.73056">
        <ele>1903.55</ele>
        <time>2017-04-16T06:08:17Z</time>
      </trkpt>
      <trkpt lat="44.93601" lon="6.73041">
        <ele>1904.99</ele>
        <time>2017-04-16T06:08:31Z</time>
      </trkpt>
      <trkpt lat="44.93604" lon="6.73026">
        <ele>1906.91</ele>
        <time>2017-04-16T06:08:46Z</time>
      </trkpt>
      <trkpt lat="44.93608" lon="6.7301">
        <ele>1908.35</ele>
        <time>2017-04-16T06:09:03Z</time>
      </trkpt>
      <trkpt lat="44.93613" lon="6.72998">
        <ele>1910.28</ele>
        <time>2017-04-16T06:09:19Z</time>
      </trkpt>
      <trkpt lat="44.93613" lon="6.72997">
        <ele>1910.76</ele>
        <time>2017-04-16T06:09:20Z</time>
      </trkpt>
      <trkpt lat="44.93618" lon="6.7298">
        <ele>1912.2</ele>
        <time>2017-04-16T06:09:36Z</time>
      </trkpt>
      <trkpt lat="44.93623" lon="6.72966">
        <ele>1914.12</ele>
        <time>2017-04-16T06:09:50Z</time>
      </trkpt>
      <trkpt lat="44.93626" lon="6.72953">
        <ele>1915.08</ele>
        <time>2017-04-16T06:10:04Z</time>
      </trkpt>
      <trkpt lat="44.93629" lon="6.72939">
        <ele>1916.53</ele>
        <time>2017-04-16T06:10:18Z</time>
      </trkpt>
      <trkpt lat="44.93634" lon="6.72926">
        <ele>1918.45</ele>
        <time>2017-04-16T06:10:33Z</time>
      </trkpt>
      <trkpt lat="44.93639" lon="6.72911">
        <ele>1919.41</ele>
        <time>2017-04-16T06:10:47Z</time>
      </trkpt>
      <trkpt lat="44.93642" lon="6.72898">
        <ele>1920.85</ele>
        <time>2017-04-16T06:11:01Z</time>
      </trkpt>
      <trkpt lat="44.93646" lon="6.72883">
        <ele>1922.29</ele>
        <time>2017-04-16T06:11:15Z</time>
      </trkpt>
      <trkpt lat="44.93649" lon="6.72871">
        <ele>1923.74</ele>
        <time>2017-04-16T06:11:28Z</time>
      </trkpt>
      <trkpt lat="44.93654" lon="6.72858">
        <ele>1925.18</ele>
        <time>2017-04-16T06:11:43Z</time>
      </trkpt>
      <trkpt lat="44.9366" lon="6.72845">
        <ele>1928.06</ele>
        <time>2017-04-16T06:11:57Z</time>
      </trkpt>
      <trkpt lat="44.93665" lon="6.7283">
        <ele>1928.54</ele>
        <time>2017-04-16T06:12:12Z</time>
      </trkpt>
      <trkpt lat="44.93669" lon="6.72823">
        <ele>1929.02</ele>
        <time>2017-04-16T06:12:26Z</time>
      </trkpt>
      <trkpt lat="44.93667" lon="6.7282">
        <ele>1929.02</ele>
        <time>2017-04-16T06:12:46Z</time>
      </trkpt>
      <trkpt lat="44.93671" lon="6.72813">
        <ele>1929.5</ele>
        <time>2017-04-16T06:13:01Z</time>
      </trkpt>
      <trkpt lat="44.93671" lon="6.72809">
        <ele>1929.5</ele>
        <time>2017-04-16T06:13:04Z</time>
      </trkpt>
      <trkpt lat="44.93675" lon="6.72798">
        <ele>1929.5</ele>
        <time>2017-04-16T06:13:18Z</time>
      </trkpt>
      <trkpt lat="44.93675" lon="6.72795">
        <ele>1929.5</ele>
        <time>2017-04-16T06:13:21Z</time>
      </trkpt>
      <trkpt lat="44.93681" lon="6.7278">
        <ele>1930.46</ele>
        <time>2017-04-16T06:13:34Z</time>
      </trkpt>
      <trkpt lat="44.93686" lon="6.7277">
        <ele>1931.91</ele>
        <time>2017-04-16T06:13:47Z</time>
      </trkpt>
      <trkpt lat="44.93692" lon="6.72758">
        <ele>1933.35</ele>
        <time>2017-04-16T06:14:02Z</time>
      </trkpt>
      <trkpt lat="44.93699" lon="6.72746">
        <ele>1935.75</ele>
        <time>2017-04-16T06:14:18Z</time>
      </trkpt>
      <trkpt lat="44.93705" lon="6.72737">
        <ele>1937.67</ele>
        <time>2017-04-16T06:14:33Z</time>
      </trkpt>
      <trkpt lat="44.93714" lon="6.72735">
        <ele>1940.08</ele>
        <time>2017-04-16T06:14:49Z</time>
      </trkpt>
      <trkpt lat="44.93722" lon="6.72737">
        <ele>1942.96</ele>
        <time>2017-04-16T06:15:07Z</time>
      </trkpt>
      <trkpt lat="44.9373" lon="6.7274">
        <ele>1945.36</ele>
        <time>2017-04-16T06:15:25Z</time>
      </trkpt>
      <trkpt lat="44.93736" lon="6.72745">
        <ele>1947.77</ele>
        <time>2017-04-16T06:15:42Z</time>
      </trkpt>
      <trkpt lat="44.93742" lon="6.72749">
        <ele>1951.61</ele>
        <time>2017-04-16T06:15:59Z</time>
      </trkpt>
      <trkpt lat="44.93749" lon="6.72753">
        <ele>1952.57</ele>
        <time>2017-04-16T06:16:14Z</time>
      </trkpt>
      <trkpt lat="44.93752" lon="6.72752">
        <ele>1954.02</ele>
        <time>2017-04-16T06:16:30Z</time>
      </trkpt>
      <trkpt lat="44.93762" lon="6.72756">
        <ele>1956.42</ele>
        <time>2017-04-16T06:16:47Z</time>
      </trkpt>
      <trkpt lat="44.93768" lon="6.72759">
        <ele>1958.34</ele>
        <time>2017-04-16T06:17:00Z</time>
      </trkpt>
      <trkpt lat="44.93777" lon="6.7276">
        <ele>1960.27</ele>
        <time>2017-04-16T06:17:16Z</time>
      </trkpt>
      <trkpt lat="44.93786" lon="6.7276">
        <ele>1962.19</ele>
        <time>2017-04-16T06:17:33Z</time>
      </trkpt>
      <trkpt lat="44.93791" lon="6.7276">
        <ele>1963.63</ele>
        <time>2017-04-16T06:17:45Z</time>
      </trkpt>
      <trkpt lat="44.93796" lon="6.72757">
        <ele>1966.99</ele>
        <time>2017-04-16T06:17:59Z</time>
      </trkpt>
      <trkpt lat="44.93805" lon="6.72756">
        <ele>1967.96</ele>
        <time>2017-04-16T06:18:17Z</time>
      </trkpt>
      <trkpt lat="44.9381" lon="6.72755">
        <ele>1969.88</ele>
        <time>2017-04-16T06:18:32Z</time>
      </trkpt>
      <trkpt lat="44.93817" lon="6.72753">
        <ele>1972.76</ele>
        <time>2017-04-16T06:18:52Z</time>
      </trkpt>
      <trkpt lat="44.93824" lon="6.72753">
        <ele>1974.69</ele>
        <time>2017-04-16T06:19:08Z</time>
      </trkpt>
      <trkpt lat="44.93829" lon="6.72752">
        <ele>1976.13</ele>
        <time>2017-04-16T06:19:21Z</time>
      </trkpt>
      <trkpt lat="44.93831" lon="6.72751">
        <ele>1977.57</ele>
        <time>2017-04-16T06:19:36Z</time>
      </trkpt>
      <trkpt lat="44.93835" lon="6.72749">
        <ele>1979.49</ele>
        <time>2017-04-16T06:19:48Z</time>
      </trkpt>
      <trkpt lat="44.93842" lon="6.72749">
        <ele>1980.45</ele>
        <time>2017-04-16T06:19:59Z</time>
      </trkpt>
      <trkpt lat="44.93847" lon="6.72745">
        <ele>1982.38</ele>
        <time>2017-04-16T06:20:15Z</time>
      </trkpt>
      <trkpt lat="44.93852" lon="6.72743">
        <ele>1984.78</ele>
        <time>2017-04-16T06:20:34Z</time>
      </trkpt>
      <trkpt lat="44.9386" lon="6.72741">
        <ele>1986.7</ele>
        <time>2017-04-16T06:20:51Z</time>
      </trkpt>
      <trkpt lat="44.93866" lon="6.72736">
        <ele>1988.62</ele>
        <time>2017-04-16T06:21:09Z</time>
      </trkpt>
      <trkpt lat="44.9387" lon="6.7273">
        <ele>1990.55</ele>
        <time>2017-04-16T06:21:28Z</time>
      </trkpt>
      <trkpt lat="44.93875" lon="6.72722">
        <ele>1992.95</ele>
        <time>2017-04-16T06:21:47Z</time>
      </trkpt>
      <trkpt lat="44.93881" lon="6.72715">
        <ele>1995.35</ele>
        <time>2017-04-16T06:22:06Z</time>
      </trkpt>
      <trkpt lat="44.93885" lon="6.72709">
        <ele>1997.28</ele>
        <time>2017-04-16T06:22:23Z</time>
      </trkpt>
      <trkpt lat="44.93886" lon="6.72701">
        <ele>1999.2</ele>
        <time>2017-04-16T06:22:36Z</time>
      </trkpt>
      <trkpt lat="44.93886" lon="6.72698">
        <ele>2000.64</ele>
        <time>2017-04-16T06:22:46Z</time>
      </trkpt>
      <trkpt lat="44.93892" lon="6.72694">
        <ele>2002.56</ele>
        <time>2017-04-16T06:22:59Z</time>
      </trkpt>
      <trkpt lat="44.93896" lon="6.72689">
        <ele>2004.01</ele>
        <time>2017-04-16T06:23:14Z</time>
      </trkpt>
      <trkpt lat="44.93903" lon="6.72688">
        <ele>2005.93</ele>
        <time>2017-04-16T06:23:30Z</time>
      </trkpt>
      <trkpt lat="44.93909" lon="6.72685">
        <ele>2008.33</ele>
        <time>2017-04-16T06:23:48Z</time>
      </trkpt>
      <trkpt lat="44.93909" lon="6.72679">
        <ele>2009.77</ele>
        <time>2017-04-16T06:24:02Z</time>
      </trkpt>
      <trkpt lat="44.93913" lon="6.72678">
        <ele>2011.7</ele>
        <time>2017-04-16T06:24:15Z</time>
      </trkpt>
      <trkpt lat="44.93911" lon="6.72683">
        <ele>2012.66</ele>
        <time>2017-04-16T06:24:34Z</time>
      </trkpt>
      <trkpt lat="44.93904" lon="6.72691">
        <ele>2012.66</ele>
        <time>2017-04-16T06:24:52Z</time>
      </trkpt>
      <trkpt lat="44.93899" lon="6.72694">
        <ele>2012.18</ele>
        <time>2017-04-16T06:25:10Z</time>
      </trkpt>
      <trkpt lat="44.93903" lon="6.72689">
        <ele>2012.66</ele>
        <time>2017-04-16T06:25:25Z</time>
      </trkpt>
      <trkpt lat="44.93904" lon="6.7268">
        <ele>2011.22</ele>
        <time>2017-04-16T06:25:42Z</time>
      </trkpt>
      <trkpt lat="44.93906" lon="6.7268">
        <ele>2013.14</ele>
        <time>2017-04-16T06:26:15Z</time>
      </trkpt>
      <trkpt lat="44.93904" lon="6.72685">
        <ele>2012.18</ele>
        <time>2017-04-16T06:26:34Z</time>
      </trkpt>
      <trkpt lat="44.93903" lon="6.72688">
        <ele>2013.14</ele>
        <time>2017-04-16T06:26:53Z</time>
      </trkpt>
      <trkpt lat="44.93899" lon="6.72695">
        <ele>2013.14</ele>
        <time>2017-04-16T06:27:10Z</time>
      </trkpt>
      <trkpt lat="44.93909" lon="6.72689">
        <ele>2014.58</ele>
        <time>2017-04-16T06:27:23Z</time>
      </trkpt>
      <trkpt lat="44.93919" lon="6.7269">
        <ele>2016.02</ele>
        <time>2017-04-16T06:27:37Z</time>
      </trkpt>
      <trkpt lat="44.93927" lon="6.7269">
        <ele>2017.46</ele>
        <time>2017-04-16T06:27:50Z</time>
      </trkpt>
      <trkpt lat="44.93929" lon="6.72692">
        <ele>2017.94</ele>
        <time>2017-04-16T06:27:53Z</time>
      </trkpt>
      <trkpt lat="44.93927" lon="6.72682">
        <ele>2018.43</ele>
        <time>2017-04-16T06:28:05Z</time>
      </trkpt>
      <trkpt lat="44.93925" lon="6.72678">
        <ele>2019.87</ele>
        <time>2017-04-16T06:28:19Z</time>
      </trkpt>
      <trkpt lat="44.93923" lon="6.72676">
        <ele>2019.87</ele>
        <time>2017-04-16T06:28:39Z</time>
      </trkpt>
      <trkpt lat="44.93922" lon="6.72674">
        <ele>2019.87</ele>
        <time>2017-04-16T06:29:10Z</time>
      </trkpt>
      <trkpt lat="44.93924" lon="6.72676">
        <ele>2019.87</ele>
        <time>2017-04-16T06:29:35Z</time>
      </trkpt>
      <trkpt lat="44.93924" lon="6.72668">
        <ele>2021.31</ele>
        <time>2017-04-16T06:29:53Z</time>
      </trkpt>
      <trkpt lat="44.93929" lon="6.72672">
        <ele>2022.27</ele>
        <time>2017-04-16T06:30:04Z</time>
      </trkpt>
      <trkpt lat="44.9394" lon="6.72673">
        <ele>2024.19</ele>
        <time>2017-04-16T06:30:19Z</time>
      </trkpt>
      <trkpt lat="44.93949" lon="6.72675">
        <ele>2025.15</ele>
        <time>2017-04-16T06:30:32Z</time>
      </trkpt>
      <trkpt lat="44.93954" lon="6.7267">
        <ele>2026.6</ele>
        <time>2017-04-16T06:30:45Z</time>
      </trkpt>
      <trkpt lat="44.93949" lon="6.72662">
        <ele>2028.04</ele>
        <time>2017-04-16T06:31:02Z</time>
      </trkpt>
      <trkpt lat="44.93947" lon="6.72658">
        <ele>2029</ele>
        <time>2017-04-16T06:31:13Z</time>
      </trkpt>
      <trkpt lat="44.93943" lon="6.72653">
        <ele>2030.44</ele>
        <time>2017-04-16T06:31:27Z</time>
      </trkpt>
      <trkpt lat="44.93939" lon="6.72647">
        <ele>2032.36</ele>
        <time>2017-04-16T06:31:43Z</time>
      </trkpt>
      <trkpt lat="44.93937" lon="6.72641">
        <ele>2033.33</ele>
        <time>2017-04-16T06:31:58Z</time>
      </trkpt>
      <trkpt lat="44.93935" lon="6.72642">
        <ele>2033.81</ele>
        <time>2017-04-16T06:32:15Z</time>
      </trkpt>
      <trkpt lat="44.93934" lon="6.72642">
        <ele>2034.29</ele>
        <time>2017-04-16T06:32:38Z</time>
      </trkpt>
      <trkpt lat="44.93934" lon="6.72644">
        <ele>2034.29</ele>
        <time>2017-04-16T06:33:08Z</time>
      </trkpt>
      <trkpt lat="44.93933" lon="6.72643">
        <ele>2033.81</ele>
        <time>2017-04-16T06:33:37Z</time>
      </trkpt>
      <trkpt lat="44.93931" lon="6.72637">
        <ele>2035.25</ele>
        <time>2017-04-16T06:33:50Z</time>
      </trkpt>
      <trkpt lat="44.93927" lon="6.7263">
        <ele>2037.17</ele>
        <time>2017-04-16T06:34:03Z</time>
      </trkpt>
      <trkpt lat="44.93923" lon="6.72624">
        <ele>2038.13</ele>
        <time>2017-04-16T06:34:15Z</time>
      </trkpt>
      <trkpt lat="44.93921" lon="6.72618">
        <ele>2039.57</ele>
        <time>2017-04-16T06:34:31Z</time>
      </trkpt>
      <trkpt lat="44.9392" lon="6.72612">
        <ele>2041.02</ele>
        <time>2017-04-16T06:34:48Z</time>
      </trkpt>
      <trkpt lat="44.93918" lon="6.72604">
        <ele>2042.46</ele>
        <time>2017-04-16T06:35:04Z</time>
      </trkpt>
      <trkpt lat="44.93916" lon="6.72599">
        <ele>2042.94</ele>
        <time>2017-04-16T06:35:22Z</time>
      </trkpt>
      <trkpt lat="44.93915" lon="6.72592">
        <ele>2045.34</ele>
        <time>2017-04-16T06:35:34Z</time>
      </trkpt>
      <trkpt lat="44.93915" lon="6.72585">
        <ele>2047.26</ele>
        <time>2017-04-16T06:35:48Z</time>
      </trkpt>
      <trkpt lat="44.93914" lon="6.72578">
        <ele>2048.71</ele>
        <time>2017-04-16T06:36:02Z</time>
      </trkpt>
      <trkpt lat="44.93914" lon="6.72569">
        <ele>2049.19</ele>
        <time>2017-04-16T06:36:16Z</time>
      </trkpt>
      <trkpt lat="44.93915" lon="6.72564">
        <ele>2051.11</ele>
        <time>2017-04-16T06:36:29Z</time>
      </trkpt>
      <trkpt lat="44.93916" lon="6.72557">
        <ele>2052.55</ele>
        <time>2017-04-16T06:36:44Z</time>
      </trkpt>
      <trkpt lat="44.93918" lon="6.7255">
        <ele>2053.99</ele>
        <time>2017-04-16T06:36:59Z</time>
      </trkpt>
      <trkpt lat="44.93918" lon="6.72543">
        <ele>2055.92</ele>
        <time>2017-04-16T06:37:16Z</time>
      </trkpt>
      <trkpt lat="44.9392" lon="6.72535">
        <ele>2057.84</ele>
        <time>2017-04-16T06:37:33Z</time>
      </trkpt>
      <trkpt lat="44.93922" lon="6.72527">
        <ele>2059.76</ele>
        <time>2017-04-16T06:37:51Z</time>
      </trkpt>
      <trkpt lat="44.93925" lon="6.72521">
        <ele>2061.68</ele>
        <time>2017-04-16T06:38:06Z</time>
      </trkpt>
      <trkpt lat="44.93929" lon="6.72514">
        <ele>2063.13</ele>
        <time>2017-04-16T06:38:23Z</time>
      </trkpt>
      <trkpt lat="44.9393" lon="6.72507">
        <ele>2064.09</ele>
        <time>2017-04-16T06:38:40Z</time>
      </trkpt>
      <trkpt lat="44.93934" lon="6.72502">
        <ele>2066.01</ele>
        <time>2017-04-16T06:38:55Z</time>
      </trkpt>
      <trkpt lat="44.93938" lon="6.72496">
        <ele>2067.45</ele>
        <time>2017-04-16T06:39:13Z</time>
      </trkpt>
      <trkpt lat="44.93942" lon="6.7249">
        <ele>2068.89</ele>
        <time>2017-04-16T06:39:28Z</time>
      </trkpt>
      <trkpt lat="44.93943" lon="6.72485">
        <ele>2070.34</ele>
        <time>2017-04-16T06:39:41Z</time>
      </trkpt>
      <trkpt lat="44.93949" lon="6.7248">
        <ele>2072.26</ele>
        <time>2017-04-16T06:39:56Z</time>
      </trkpt>
      <trkpt lat="44.93954" lon="6.72477">
        <ele>2073.22</ele>
        <time>2017-04-16T06:40:13Z</time>
      </trkpt>
      <trkpt lat="44.9396" lon="6.72475">
        <ele>2074.66</ele>
        <time>2017-04-16T06:40:30Z</time>
      </trkpt>
      <trkpt lat="44.93965" lon="6.72474">
        <ele>2076.59</ele>
        <time>2017-04-16T06:40:46Z</time>
      </trkpt>
      <trkpt lat="44.93971" lon="6.72474">
        <ele>2078.03</ele>
        <time>2017-04-16T06:41:02Z</time>
      </trkpt>
      <trkpt lat="44.93976" lon="6.72472">
        <ele>2079.95</ele>
        <time>2017-04-16T06:41:17Z</time>
      </trkpt>
      <trkpt lat="44.93975" lon="6.72471">
        <ele>2079.47</ele>
        <time>2017-04-16T06:41:34Z</time>
      </trkpt>
      <trkpt lat="44.93974" lon="6.7247">
        <ele>2079.95</ele>
        <time>2017-04-16T06:41:54Z</time>
      </trkpt>
      <trkpt lat="44.93977" lon="6.72472">
        <ele>2080.91</ele>
        <time>2017-04-16T06:42:10Z</time>
      </trkpt>
      <trkpt lat="44.93983" lon="6.72466">
        <ele>2082.35</ele>
        <time>2017-04-16T06:42:24Z</time>
      </trkpt>
      <trkpt lat="44.93985" lon="6.72466">
        <ele>2083.79</ele>
        <time>2017-04-16T06:42:39Z</time>
      </trkpt>
      <trkpt lat="44.93985" lon="6.72469">
        <ele>2083.79</ele>
        <time>2017-04-16T06:42:58Z</time>
      </trkpt>
      <trkpt lat="44.93986" lon="6.72468">
        <ele>2084.28</ele>
        <time>2017-04-16T06:43:25Z</time>
      </trkpt>
      <trkpt lat="44.93991" lon="6.72462">
        <ele>2085.24</ele>
        <time>2017-04-16T06:43:45Z</time>
      </trkpt>
      <trkpt lat="44.93992" lon="6.72467">
        <ele>2085.72</ele>
        <time>2017-04-16T06:43:59Z</time>
      </trkpt>
      <trkpt lat="44.93993" lon="6.72465">
        <ele>2086.2</ele>
        <time>2017-04-16T06:44:11Z</time>
      </trkpt>
      <trkpt lat="44.93995" lon="6.72464">
        <ele>2086.68</ele>
        <time>2017-04-16T06:44:14Z</time>
      </trkpt>
      <trkpt lat="44.94" lon="6.72456">
        <ele>2088.6</ele>
        <time>2017-04-16T06:44:26Z</time>
      </trkpt>
      <trkpt lat="44.94005" lon="6.72455">
        <ele>2090.52</ele>
        <time>2017-04-16T06:44:39Z</time>
      </trkpt>
      <trkpt lat="44.9401" lon="6.72452">
        <ele>2092.45</ele>
        <time>2017-04-16T06:44:56Z</time>
      </trkpt>
      <trkpt lat="44.94014" lon="6.72446">
        <ele>2094.37</ele>
        <time>2017-04-16T06:45:11Z</time>
      </trkpt>
      <trkpt lat="44.94018" lon="6.72444">
        <ele>2096.29</ele>
        <time>2017-04-16T06:45:27Z</time>
      </trkpt>
      <trkpt lat="44.94022" lon="6.72441">
        <ele>2097.73</ele>
        <time>2017-04-16T06:45:42Z</time>
      </trkpt>
      <trkpt lat="44.94026" lon="6.72441">
        <ele>2098.7</ele>
        <time>2017-04-16T06:45:54Z</time>
      </trkpt>
      <trkpt lat="44.94038" lon="6.72441">
        <ele>2100.14</ele>
        <time>2017-04-16T06:46:15Z</time>
      </trkpt>
      <trkpt lat="44.94048" lon="6.72439">
        <ele>2103.02</ele>
        <time>2017-04-16T06:46:37Z</time>
      </trkpt>
      <trkpt lat="44.94057" lon="6.72431">
        <ele>2105.42</ele>
        <time>2017-04-16T06:46:56Z</time>
      </trkpt>
      <trkpt lat="44.94065" lon="6.72421">
        <ele>2106.39</ele>
        <time>2017-04-16T06:47:14Z</time>
      </trkpt>
      <trkpt lat="44.94073" lon="6.72412">
        <ele>2107.83</ele>
        <time>2017-04-16T06:47:30Z</time>
      </trkpt>
      <trkpt lat="44.94082" lon="6.72401">
        <ele>2108.79</ele>
        <time>2017-04-16T06:47:48Z</time>
      </trkpt>
      <trkpt lat="44.9409" lon="6.72389">
        <ele>2111.67</ele>
        <time>2017-04-16T06:48:07Z</time>
      </trkpt>
      <trkpt lat="44.94096" lon="6.72381">
        <ele>2112.15</ele>
        <time>2017-04-16T06:48:23Z</time>
      </trkpt>
      <trkpt lat="44.94101" lon="6.72376">
        <ele>2113.6</ele>
        <time>2017-04-16T06:48:35Z</time>
      </trkpt>
      <trkpt lat="44.94101" lon="6.72374">
        <ele>2113.6</ele>
        <time>2017-04-16T06:48:39Z</time>
      </trkpt>
      <trkpt lat="44.94101" lon="6.72376">
        <ele>2113.12</ele>
        <time>2017-04-16T06:48:56Z</time>
      </trkpt>
      <trkpt lat="44.94104" lon="6.7237">
        <ele>2114.56</ele>
        <time>2017-04-16T06:49:10Z</time>
      </trkpt>
      <trkpt lat="44.94105" lon="6.72369">
        <ele>2113.12</ele>
        <time>2017-04-16T06:49:30Z</time>
      </trkpt>
      <trkpt lat="44.94113" lon="6.72363">
        <ele>2115.52</ele>
        <time>2017-04-16T06:49:44Z</time>
      </trkpt>
      <trkpt lat="44.94121" lon="6.72355">
        <ele>2116.48</ele>
        <time>2017-04-16T06:49:58Z</time>
      </trkpt>
      <trkpt lat="44.94124" lon="6.72355">
        <ele>2116.48</ele>
        <time>2017-04-16T06:50:03Z</time>
      </trkpt>
      <trkpt lat="44.94127" lon="6.72353">
        <ele>2116</ele>
        <time>2017-04-16T06:50:11Z</time>
      </trkpt>
      <trkpt lat="44.94128" lon="6.72351">
        <ele>2117.44</ele>
        <time>2017-04-16T06:50:15Z</time>
      </trkpt>
      <trkpt lat="44.94132" lon="6.72344">
        <ele>2118.4</ele>
        <time>2017-04-16T06:50:26Z</time>
      </trkpt>
      <trkpt lat="44.94141" lon="6.72337">
        <ele>2119.84</ele>
        <time>2017-04-16T06:50:43Z</time>
      </trkpt>
      <trkpt lat="44.94148" lon="6.72332">
        <ele>2120.81</ele>
        <time>2017-04-16T06:50:56Z</time>
      </trkpt>
      <trkpt lat="44.94153" lon="6.72328">
        <ele>2122.25</ele>
        <time>2017-04-16T06:51:10Z</time>
      </trkpt>
      <trkpt lat="44.94163" lon="6.72321">
        <ele>2123.69</ele>
        <time>2017-04-16T06:51:28Z</time>
      </trkpt>
      <trkpt lat="44.94172" lon="6.72314">
        <ele>2125.61</ele>
        <time>2017-04-16T06:51:48Z</time>
      </trkpt>
      <trkpt lat="44.94181" lon="6.72309">
        <ele>2127.53</ele>
        <time>2017-04-16T06:52:07Z</time>
      </trkpt>
      <trkpt lat="44.9419" lon="6.72297">
        <ele>2130.42</ele>
        <time>2017-04-16T06:52:27Z</time>
      </trkpt>
      <trkpt lat="44.94195" lon="6.72292">
        <ele>2132.34</ele>
        <time>2017-04-16T06:52:45Z</time>
      </trkpt>
      <trkpt lat="44.94201" lon="6.72286">
        <ele>2134.26</ele>
        <time>2017-04-16T06:52:59Z</time>
      </trkpt>
      <trkpt lat="44.94208" lon="6.72282">
        <ele>2136.67</ele>
        <time>2017-04-16T06:53:16Z</time>
      </trkpt>
      <trkpt lat="44.94212" lon="6.7228">
        <ele>2138.11</ele>
        <time>2017-04-16T06:53:31Z</time>
      </trkpt>
      <trkpt lat="44.94217" lon="6.72272">
        <ele>2139.55</ele>
        <time>2017-04-16T06:53:51Z</time>
      </trkpt>
      <trkpt lat="44.94221" lon="6.72262">
        <ele>2140.03</ele>
        <time>2017-04-16T06:54:06Z</time>
      </trkpt>
      <trkpt lat="44.94223" lon="6.72256">
        <ele>2140.99</ele>
        <time>2017-04-16T06:54:19Z</time>
      </trkpt>
      <trkpt lat="44.9423" lon="6.72249">
        <ele>2142.44</ele>
        <time>2017-04-16T06:54:32Z</time>
      </trkpt>
      <trkpt lat="44.94236" lon="6.72244">
        <ele>2144.36</ele>
        <time>2017-04-16T06:54:47Z</time>
      </trkpt>
      <trkpt lat="44.9424" lon="6.72239">
        <ele>2145.8</ele>
        <time>2017-04-16T06:55:01Z</time>
      </trkpt>
      <trkpt lat="44.94244" lon="6.72236">
        <ele>2147.24</ele>
        <time>2017-04-16T06:55:14Z</time>
      </trkpt>
      <trkpt lat="44.94247" lon="6.72232">
        <ele>2149.16</ele>
        <time>2017-04-16T06:55:28Z</time>
      </trkpt>
      <trkpt lat="44.94248" lon="6.72229">
        <ele>2149.65</ele>
        <time>2017-04-16T06:55:48Z</time>
      </trkpt>
      <trkpt lat="44.9425" lon="6.72228">
        <ele>2150.61</ele>
        <time>2017-04-16T06:56:16Z</time>
      </trkpt>
      <trkpt lat="44.9425" lon="6.72233">
        <ele>2150.61</ele>
        <time>2017-04-16T06:56:31Z</time>
      </trkpt>
      <trkpt lat="44.94249" lon="6.72233">
        <ele>2150.61</ele>
        <time>2017-04-16T06:56:53Z</time>
      </trkpt>
      <trkpt lat="44.94256" lon="6.72225">
        <ele>2151.57</ele>
        <time>2017-04-16T06:57:15Z</time>
      </trkpt>
      <trkpt lat="44.94262" lon="6.72217">
        <ele>2153.49</ele>
        <time>2017-04-16T06:57:30Z</time>
      </trkpt>
      <trkpt lat="44.94268" lon="6.72211">
        <ele>2155.89</ele>
        <time>2017-04-16T06:57:45Z</time>
      </trkpt>
      <trkpt lat="44.94271" lon="6.72209">
        <ele>2155.41</ele>
        <time>2017-04-16T06:58:01Z</time>
      </trkpt>
      <trkpt lat="44.94274" lon="6.72204">
        <ele>2155.41</ele>
        <time>2017-04-16T06:58:16Z</time>
      </trkpt>
      <trkpt lat="44.94274" lon="6.72203">
        <ele>2158.78</ele>
        <time>2017-04-16T06:58:19Z</time>
      </trkpt>
      <trkpt lat="44.94274" lon="6.72202">
        <ele>2158.78</ele>
        <time>2017-04-16T06:58:20Z</time>
      </trkpt>
      <trkpt lat="44.94277" lon="6.72196">
        <ele>2160.22</ele>
        <time>2017-04-16T06:58:33Z</time>
      </trkpt>
      <trkpt lat="44.94279" lon="6.72189">
        <ele>2161.18</ele>
        <time>2017-04-16T06:58:49Z</time>
      </trkpt>
      <trkpt lat="44.94281" lon="6.72181">
        <ele>2163.1</ele>
        <time>2017-04-16T06:59:05Z</time>
      </trkpt>
      <trkpt lat="44.94284" lon="6.72172">
        <ele>2165.51</ele>
        <time>2017-04-16T06:59:22Z</time>
      </trkpt>
      <trkpt lat="44.94289" lon="6.72161">
        <ele>2166.95</ele>
        <time>2017-04-16T06:59:42Z</time>
      </trkpt>
      <trkpt lat="44.94294" lon="6.72156">
        <ele>2167.91</ele>
        <time>2017-04-16T06:59:56Z</time>
      </trkpt>
      <trkpt lat="44.94299" lon="6.72151">
        <ele>2168.87</ele>
        <time>2017-04-16T07:00:11Z</time>
      </trkpt>
      <trkpt lat="44.943" lon="6.72151">
        <ele>2172.24</ele>
        <time>2017-04-16T07:00:13Z</time>
      </trkpt>
      <trkpt lat="44.943" lon="6.72151">
        <ele>2172.24</ele>
        <time>2017-04-16T07:00:14Z</time>
      </trkpt>
      <trkpt lat="44.94302" lon="6.72145">
        <ele>2171.76</ele>
        <time>2017-04-16T07:00:30Z</time>
      </trkpt>
      <trkpt lat="44.94303" lon="6.72144">
        <ele>2172.24</ele>
        <time>2017-04-16T07:00:46Z</time>
      </trkpt>
      <trkpt lat="44.94303" lon="6.72144">
        <ele>2172.24</ele>
        <time>2017-04-16T07:00:47Z</time>
      </trkpt>
      <trkpt lat="44.94305" lon="6.72141">
        <ele>2171.27</ele>
        <time>2017-04-16T07:00:59Z</time>
      </trkpt>
      <trkpt lat="44.94305" lon="6.72141">
        <ele>2173.68</ele>
        <time>2017-04-16T07:01:01Z</time>
      </trkpt>
      <trkpt lat="44.94307" lon="6.72139">
        <ele>2171.76</ele>
        <time>2017-04-16T07:01:12Z</time>
      </trkpt>
      <trkpt lat="44.94307" lon="6.72143">
        <ele>2172.24</ele>
        <time>2017-04-16T07:01:31Z</time>
      </trkpt>
      <trkpt lat="44.94307" lon="6.72144">
        <ele>2172.24</ele>
        <time>2017-04-16T07:02:16Z</time>
      </trkpt>
      <trkpt lat="44.94306" lon="6.72144">
        <ele>2171.76</ele>
        <time>2017-04-16T07:03:08Z</time>
      </trkpt>
      <trkpt lat="44.94308" lon="6.72146">
        <ele>2172.24</ele>
        <time>2017-04-16T07:03:58Z</time>
      </trkpt>
      <trkpt lat="44.94307" lon="6.72144">
        <ele>2172.24</ele>
        <time>2017-04-16T07:04:47Z</time>
      </trkpt>
      <trkpt lat="44.9431" lon="6.72141">
        <ele>2173.68</ele>
        <time>2017-04-16T07:04:58Z</time>
      </trkpt>
      <trkpt lat="44.9432" lon="6.72135">
        <ele>2174.64</ele>
        <time>2017-04-16T07:05:12Z</time>
      </trkpt>
      <trkpt lat="44.94327" lon="6.72133">
        <ele>2175.12</ele>
        <time>2017-04-16T07:05:24Z</time>
      </trkpt>
      <trkpt lat="44.9433" lon="6.7213">
        <ele>2175.12</ele>
        <time>2017-04-16T07:05:31Z</time>
      </trkpt>
      <trkpt lat="44.94337" lon="6.72126">
        <ele>2176.56</ele>
        <time>2017-04-16T07:05:45Z</time>
      </trkpt>
      <trkpt lat="44.94345" lon="6.72122">
        <ele>2177.52</ele>
        <time>2017-04-16T07:06:01Z</time>
      </trkpt>
      <trkpt lat="44.94354" lon="6.72118">
        <ele>2178.48</ele>
        <time>2017-04-16T07:06:14Z</time>
      </trkpt>
      <trkpt lat="44.94363" lon="6.72114">
        <ele>2179.45</ele>
        <time>2017-04-16T07:06:28Z</time>
      </trkpt>
      <trkpt lat="44.94374" lon="6.72108">
        <ele>2180.41</ele>
        <time>2017-04-16T07:06:44Z</time>
      </trkpt>
      <trkpt lat="44.94383" lon="6.72102">
        <ele>2181.85</ele>
        <time>2017-04-16T07:07:00Z</time>
      </trkpt>
      <trkpt lat="44.94391" lon="6.72098">
        <ele>2183.77</ele>
        <time>2017-04-16T07:07:14Z</time>
      </trkpt>
      <trkpt lat="44.94399" lon="6.72094">
        <ele>2184.73</ele>
        <time>2017-04-16T07:07:28Z</time>
      </trkpt>
      <trkpt lat="44.94407" lon="6.72086">
        <ele>2187.14</ele>
        <time>2017-04-16T07:07:48Z</time>
      </trkpt>
      <trkpt lat="44.94418" lon="6.7208">
        <ele>2190.02</ele>
        <time>2017-04-16T07:08:06Z</time>
      </trkpt>
      <trkpt lat="44.94425" lon="6.72076">
        <ele>2191.46</ele>
        <time>2017-04-16T07:08:26Z</time>
      </trkpt>
      <trkpt lat="44.94435" lon="6.72071">
        <ele>2192.9</ele>
        <time>2017-04-16T07:08:45Z</time>
      </trkpt>
      <trkpt lat="44.94442" lon="6.72067">
        <ele>2195.31</ele>
        <time>2017-04-16T07:09:01Z</time>
      </trkpt>
      <trkpt lat="44.94449" lon="6.72064">
        <ele>2197.23</ele>
        <time>2017-04-16T07:09:21Z</time>
      </trkpt>
      <trkpt lat="44.94457" lon="6.72059">
        <ele>2199.15</ele>
        <time>2017-04-16T07:09:37Z</time>
      </trkpt>
      <trkpt lat="44.94464" lon="6.72054">
        <ele>2200.59</ele>
        <time>2017-04-16T07:09:54Z</time>
      </trkpt>
      <trkpt lat="44.94468" lon="6.72048">
        <ele>2203</ele>
        <time>2017-04-16T07:10:07Z</time>
      </trkpt>
      <trkpt lat="44.94471" lon="6.72042">
        <ele>2203.96</ele>
        <time>2017-04-16T07:10:21Z</time>
      </trkpt>
      <trkpt lat="44.94479" lon="6.72039">
        <ele>2205.88</ele>
        <time>2017-04-16T07:10:37Z</time>
      </trkpt>
      <trkpt lat="44.94486" lon="6.72035">
        <ele>2208.77</ele>
        <time>2017-04-16T07:10:54Z</time>
      </trkpt>
      <trkpt lat="44.94489" lon="6.72034">
        <ele>2209.25</ele>
        <time>2017-04-16T07:11:03Z</time>
      </trkpt>
      <trkpt lat="44.94498" lon="6.72029">
        <ele>2212.13</ele>
        <time>2017-04-16T07:11:23Z</time>
      </trkpt>
      <trkpt lat="44.94508" lon="6.72027">
        <ele>2214.05</ele>
        <time>2017-04-16T07:11:44Z</time>
      </trkpt>
      <trkpt lat="44.94518" lon="6.72028">
        <ele>2215.98</ele>
        <time>2017-04-16T07:11:59Z</time>
      </trkpt>
      <trkpt lat="44.94522" lon="6.72027">
        <ele>2215.98</ele>
        <time>2017-04-16T07:12:12Z</time>
      </trkpt>
      <trkpt lat="44.94522" lon="6.72027">
        <ele>2217.42</ele>
        <time>2017-04-16T07:12:16Z</time>
      </trkpt>
      <trkpt lat="44.94522" lon="6.72026">
        <ele>2215.01</ele>
        <time>2017-04-16T07:12:23Z</time>
      </trkpt>
      <trkpt lat="44.94522" lon="6.72026">
        <ele>2214.53</ele>
        <time>2017-04-16T07:12:48Z</time>
      </trkpt>
      <trkpt lat="44.94524" lon="6.72029">
        <ele>2217.9</ele>
        <time>2017-04-16T07:13:12Z</time>
      </trkpt>
      <trkpt lat="44.9453" lon="6.7203">
        <ele>2218.38</ele>
        <time>2017-04-16T07:13:27Z</time>
      </trkpt>
      <trkpt lat="44.94534" lon="6.72026">
        <ele>2219.82</ele>
        <time>2017-04-16T07:13:42Z</time>
      </trkpt>
      <trkpt lat="44.9454" lon="6.72028">
        <ele>2221.26</ele>
        <time>2017-04-16T07:13:55Z</time>
      </trkpt>
      <trkpt lat="44.94546" lon="6.72025">
        <ele>2221.26</ele>
        <time>2017-04-16T07:14:09Z</time>
      </trkpt>
      <trkpt lat="44.94552" lon="6.72025">
        <ele>2222.71</ele>
        <time>2017-04-16T07:14:23Z</time>
      </trkpt>
      <trkpt lat="44.94562" lon="6.72021">
        <ele>2224.15</ele>
        <time>2017-04-16T07:14:35Z</time>
      </trkpt>
      <trkpt lat="44.94568" lon="6.72022">
        <ele>2225.11</ele>
        <time>2017-04-16T07:14:47Z</time>
      </trkpt>
      <trkpt lat="44.94569" lon="6.72021">
        <ele>2226.07</ele>
        <time>2017-04-16T07:14:49Z</time>
      </trkpt>
      <trkpt lat="44.94577" lon="6.72021">
        <ele>2227.03</ele>
        <time>2017-04-16T07:15:03Z</time>
      </trkpt>
      <trkpt lat="44.94585" lon="6.72022">
        <ele>2228.47</ele>
        <time>2017-04-16T07:15:19Z</time>
      </trkpt>
      <trkpt lat="44.94592" lon="6.7202">
        <ele>2229.92</ele>
        <time>2017-04-16T07:15:34Z</time>
      </trkpt>
      <trkpt lat="44.94595" lon="6.72017">
        <ele>2230.88</ele>
        <time>2017-04-16T07:15:46Z</time>
      </trkpt>
      <trkpt lat="44.94602" lon="6.72014">
        <ele>2231.84</ele>
        <time>2017-04-16T07:16:00Z</time>
      </trkpt>
      <trkpt lat="44.94607" lon="6.7201">
        <ele>2231.84</ele>
        <time>2017-04-16T07:16:12Z</time>
      </trkpt>
      <trkpt lat="44.94616" lon="6.72008">
        <ele>2233.76</ele>
        <time>2017-04-16T07:16:28Z</time>
      </trkpt>
      <trkpt lat="44.94621" lon="6.72003">
        <ele>2235.2</ele>
        <time>2017-04-16T07:16:44Z</time>
      </trkpt>
      <trkpt lat="44.94631" lon="6.72001">
        <ele>2236.64</ele>
        <time>2017-04-16T07:17:02Z</time>
      </trkpt>
      <trkpt lat="44.94633" lon="6.72001">
        <ele>2237.61</ele>
        <time>2017-04-16T07:17:07Z</time>
      </trkpt>
      <trkpt lat="44.94641" lon="6.71995">
        <ele>2239.53</ele>
        <time>2017-04-16T07:17:24Z</time>
      </trkpt>
      <trkpt lat="44.94645" lon="6.71992">
        <ele>2240.97</ele>
        <time>2017-04-16T07:17:36Z</time>
      </trkpt>
      <trkpt lat="44.94654" lon="6.71988">
        <ele>2243.37</ele>
        <time>2017-04-16T07:17:55Z</time>
      </trkpt>
      <trkpt lat="44.94662" lon="6.71984">
        <ele>2244.82</ele>
        <time>2017-04-16T07:18:10Z</time>
      </trkpt>
      <trkpt lat="44.94666" lon="6.7198">
        <ele>2247.22</ele>
        <time>2017-04-16T07:18:28Z</time>
      </trkpt>
      <trkpt lat="44.94676" lon="6.71976">
        <ele>2248.66</ele>
        <time>2017-04-16T07:18:42Z</time>
      </trkpt>
      <trkpt lat="44.94682" lon="6.71972">
        <ele>2250.58</ele>
        <time>2017-04-16T07:18:57Z</time>
      </trkpt>
      <trkpt lat="44.94685" lon="6.71971">
        <ele>2252.51</ele>
        <time>2017-04-16T07:19:11Z</time>
      </trkpt>
      <trkpt lat="44.94694" lon="6.71967">
        <ele>2252.99</ele>
        <time>2017-04-16T07:19:24Z</time>
      </trkpt>
      <trkpt lat="44.94701" lon="6.71965">
        <ele>2254.91</ele>
        <time>2017-04-16T07:19:41Z</time>
      </trkpt>
      <trkpt lat="44.94704" lon="6.71956">
        <ele>2257.31</ele>
        <time>2017-04-16T07:19:57Z</time>
      </trkpt>
      <trkpt lat="44.94712" lon="6.71949">
        <ele>2258.75</ele>
        <time>2017-04-16T07:20:17Z</time>
      </trkpt>
      <trkpt lat="44.94716" lon="6.71946">
        <ele>2261.16</ele>
        <time>2017-04-16T07:20:32Z</time>
      </trkpt>
      <trkpt lat="44.94724" lon="6.71942">
        <ele>2262.12</ele>
        <time>2017-04-16T07:20:44Z</time>
      </trkpt>
      <trkpt lat="44.94726" lon="6.71939">
        <ele>2261.64</ele>
        <time>2017-04-16T07:20:52Z</time>
      </trkpt>
      <trkpt lat="44.94732" lon="6.71934">
        <ele>2264.52</ele>
        <time>2017-04-16T07:21:09Z</time>
      </trkpt>
      <trkpt lat="44.94738" lon="6.71929">
        <ele>2265.48</ele>
        <time>2017-04-16T07:21:27Z</time>
      </trkpt>
      <trkpt lat="44.94739" lon="6.71924">
        <ele>2266.45</ele>
        <time>2017-04-16T07:21:47Z</time>
      </trkpt>
      <trkpt lat="44.94752" lon="6.71924">
        <ele>2267.41</ele>
        <time>2017-04-16T07:22:00Z</time>
      </trkpt>
      <trkpt lat="44.9476" lon="6.71919">
        <ele>2269.33</ele>
        <time>2017-04-16T07:22:14Z</time>
      </trkpt>
      <trkpt lat="44.94766" lon="6.71918">
        <ele>2272.69</ele>
        <time>2017-04-16T07:22:22Z</time>
      </trkpt>
      <trkpt lat="44.94766" lon="6.71918">
        <ele>2271.73</ele>
        <time>2017-04-16T07:22:23Z</time>
      </trkpt>
      <trkpt lat="44.94772" lon="6.71915">
        <ele>2271.73</ele>
        <time>2017-04-16T07:22:36Z</time>
      </trkpt>
      <trkpt lat="44.94781" lon="6.71913">
        <ele>2272.69</ele>
        <time>2017-04-16T07:22:48Z</time>
      </trkpt>
      <trkpt lat="44.94788" lon="6.7191">
        <ele>2273.17</ele>
        <time>2017-04-16T07:23:02Z</time>
      </trkpt>
      <trkpt lat="44.94796" lon="6.71907">
        <ele>2273.17</ele>
        <time>2017-04-16T07:23:16Z</time>
      </trkpt>
      <trkpt lat="44.94803" lon="6.71904">
        <ele>2274.14</ele>
        <time>2017-04-16T07:23:30Z</time>
      </trkpt>
      <trkpt lat="44.94811" lon="6.71904">
        <ele>2275.1</ele>
        <time>2017-04-16T07:23:42Z</time>
      </trkpt>
      <trkpt lat="44.94817" lon="6.71901">
        <ele>2274.14</ele>
        <time>2017-04-16T07:23:54Z</time>
      </trkpt>
      <trkpt lat="44.94829" lon="6.71899">
        <ele>2275.58</ele>
        <time>2017-04-16T07:24:09Z</time>
      </trkpt>
      <trkpt lat="44.9484" lon="6.71896">
        <ele>2277.98</ele>
        <time>2017-04-16T07:24:23Z</time>
      </trkpt>
      <trkpt lat="44.94847" lon="6.71887">
        <ele>2277.5</ele>
        <time>2017-04-16T07:24:40Z</time>
      </trkpt>
      <trkpt lat="44.94857" lon="6.71881">
        <ele>2278.94</ele>
        <time>2017-04-16T07:24:54Z</time>
      </trkpt>
      <trkpt lat="44.94864" lon="6.71878">
        <ele>2277.98</ele>
        <time>2017-04-16T07:25:05Z</time>
      </trkpt>
      <trkpt lat="44.94867" lon="6.71871">
        <ele>2279.42</ele>
        <time>2017-04-16T07:25:20Z</time>
      </trkpt>
      <trkpt lat="44.94866" lon="6.71866">
        <ele>2279.9</ele>
        <time>2017-04-16T07:25:36Z</time>
      </trkpt>
      <trkpt lat="44.94885" lon="6.71863">
        <ele>2280.38</ele>
        <time>2017-04-16T07:25:50Z</time>
      </trkpt>
      <trkpt lat="44.94893" lon="6.71861">
        <ele>2281.83</ele>
        <time>2017-04-16T07:25:59Z</time>
      </trkpt>
      <trkpt lat="44.94903" lon="6.71859">
        <ele>2282.79</ele>
        <time>2017-04-16T07:26:09Z</time>
      </trkpt>
      <trkpt lat="44.94914" lon="6.71857">
        <ele>2283.75</ele>
        <time>2017-04-16T07:26:23Z</time>
      </trkpt>
      <trkpt lat="44.9492" lon="6.71853">
        <ele>2284.23</ele>
        <time>2017-04-16T07:26:36Z</time>
      </trkpt>
      <trkpt lat="44.94924" lon="6.71848">
        <ele>2285.67</ele>
        <time>2017-04-16T07:26:47Z</time>
      </trkpt>
      <trkpt lat="44.94933" lon="6.71844">
        <ele>2286.15</ele>
        <time>2017-04-16T07:27:02Z</time>
      </trkpt>
      <trkpt lat="44.94936" lon="6.71845">
        <ele>2286.63</ele>
        <time>2017-04-16T07:27:05Z</time>
      </trkpt>
      <trkpt lat="44.94946" lon="6.71843">
        <ele>2287.59</ele>
        <time>2017-04-16T07:27:19Z</time>
      </trkpt>
      <trkpt lat="44.94952" lon="6.71842">
        <ele>2288.56</ele>
        <time>2017-04-16T07:27:33Z</time>
      </trkpt>
      <trkpt lat="44.94956" lon="6.71841">
        <ele>2290</ele>
        <time>2017-04-16T07:27:40Z</time>
      </trkpt>
      <trkpt lat="44.94961" lon="6.71837">
        <ele>2290</ele>
        <time>2017-04-16T07:27:50Z</time>
      </trkpt>
      <trkpt lat="44.94972" lon="6.71837">
        <ele>2291.44</ele>
        <time>2017-04-16T07:28:04Z</time>
      </trkpt>
      <trkpt lat="44.94978" lon="6.71837">
        <ele>2292.4</ele>
        <time>2017-04-16T07:28:18Z</time>
      </trkpt>
      <trkpt lat="44.94983" lon="6.71835">
        <ele>2292.88</ele>
        <time>2017-04-16T07:28:24Z</time>
      </trkpt>
      <trkpt lat="44.94991" lon="6.71834">
        <ele>2292.88</ele>
        <time>2017-04-16T07:28:37Z</time>
      </trkpt>
      <trkpt lat="44.94992" lon="6.71832">
        <ele>2293.36</ele>
        <time>2017-04-16T07:28:43Z</time>
      </trkpt>
      <trkpt lat="44.95005" lon="6.71834">
        <ele>2294.8</ele>
        <time>2017-04-16T07:28:58Z</time>
      </trkpt>
      <trkpt lat="44.95015" lon="6.71831">
        <ele>2295.77</ele>
        <time>2017-04-16T07:29:14Z</time>
      </trkpt>
      <trkpt lat="44.95025" lon="6.71831">
        <ele>2297.21</ele>
        <time>2017-04-16T07:29:28Z</time>
      </trkpt>
      <trkpt lat="44.95036" lon="6.7183">
        <ele>2299.13</ele>
        <time>2017-04-16T07:29:44Z</time>
      </trkpt>
      <trkpt lat="44.95041" lon="6.7183">
        <ele>2301.05</ele>
        <time>2017-04-16T07:29:59Z</time>
      </trkpt>
      <trkpt lat="44.95046" lon="6.71829">
        <ele>2303.46</ele>
        <time>2017-04-16T07:30:15Z</time>
      </trkpt>
      <trkpt lat="44.95056" lon="6.7183">
        <ele>2305.38</ele>
        <time>2017-04-16T07:30:33Z</time>
      </trkpt>
      <trkpt lat="44.95063" lon="6.71827">
        <ele>2307.3</ele>
        <time>2017-04-16T07:30:51Z</time>
      </trkpt>
      <trkpt lat="44.95069" lon="6.71827">
        <ele>2310.19</ele>
        <time>2017-04-16T07:31:14Z</time>
      </trkpt>
      <trkpt lat="44.95075" lon="6.71826">
        <ele>2312.11</ele>
        <time>2017-04-16T07:31:32Z</time>
      </trkpt>
      <trkpt lat="44.95082" lon="6.71826">
        <ele>2313.55</ele>
        <time>2017-04-16T07:31:48Z</time>
      </trkpt>
      <trkpt lat="44.95089" lon="6.71826">
        <ele>2315.47</ele>
        <time>2017-04-16T07:32:01Z</time>
      </trkpt>
      <trkpt lat="44.95098" lon="6.71826">
        <ele>2317.4</ele>
        <time>2017-04-16T07:32:13Z</time>
      </trkpt>
      <trkpt lat="44.95104" lon="6.71823">
        <ele>2318.36</ele>
        <time>2017-04-16T07:32:25Z</time>
      </trkpt>
      <trkpt lat="44.95112" lon="6.71826">
        <ele>2319.32</ele>
        <time>2017-04-16T07:32:42Z</time>
      </trkpt>
      <trkpt lat="44.9512" lon="6.71823">
        <ele>2319.8</ele>
        <time>2017-04-16T07:32:57Z</time>
      </trkpt>
      <trkpt lat="44.9512" lon="6.71822">
        <ele>2320.28</ele>
        <time>2017-04-16T07:33:02Z</time>
      </trkpt>
      <trkpt lat="44.95129" lon="6.71823">
        <ele>2322.2</ele>
        <time>2017-04-16T07:33:17Z</time>
      </trkpt>
      <trkpt lat="44.95135" lon="6.71826">
        <ele>2322.68</ele>
        <time>2017-04-16T07:33:32Z</time>
      </trkpt>
      <trkpt lat="44.95135" lon="6.71828">
        <ele>2323.64</ele>
        <time>2017-04-16T07:33:35Z</time>
      </trkpt>
      <trkpt lat="44.95143" lon="6.7183">
        <ele>2324.61</ele>
        <time>2017-04-16T07:33:47Z</time>
      </trkpt>
      <trkpt lat="44.95149" lon="6.7183">
        <ele>2325.57</ele>
        <time>2017-04-16T07:33:59Z</time>
      </trkpt>
      <trkpt lat="44.95155" lon="6.71831">
        <ele>2327.49</ele>
        <time>2017-04-16T07:34:14Z</time>
      </trkpt>
      <trkpt lat="44.95161" lon="6.71827">
        <ele>2328.93</ele>
        <time>2017-04-16T07:34:25Z</time>
      </trkpt>
      <trkpt lat="44.95165" lon="6.71827">
        <ele>2330.37</ele>
        <time>2017-04-16T07:34:38Z</time>
      </trkpt>
      <trkpt lat="44.95176" lon="6.71829">
        <ele>2332.78</ele>
        <time>2017-04-16T07:34:56Z</time>
      </trkpt>
      <trkpt lat="44.95184" lon="6.7183">
        <ele>2333.74</ele>
        <time>2017-04-16T07:35:10Z</time>
      </trkpt>
      <trkpt lat="44.95187" lon="6.71832">
        <ele>2334.7</ele>
        <time>2017-04-16T07:35:25Z</time>
      </trkpt>
      <trkpt lat="44.95198" lon="6.71832">
        <ele>2334.7</ele>
        <time>2017-04-16T07:35:44Z</time>
      </trkpt>
      <trkpt lat="44.95207" lon="6.71831">
        <ele>2335.18</ele>
        <time>2017-04-16T07:35:59Z</time>
      </trkpt>
      <trkpt lat="44.95216" lon="6.71833">
        <ele>2336.62</ele>
        <time>2017-04-16T07:36:16Z</time>
      </trkpt>
      <trkpt lat="44.95228" lon="6.71835">
        <ele>2337.58</ele>
        <time>2017-04-16T07:36:32Z</time>
      </trkpt>
      <trkpt lat="44.95235" lon="6.71833">
        <ele>2339.51</ele>
        <time>2017-04-16T07:36:45Z</time>
      </trkpt>
      <trkpt lat="44.95242" lon="6.71834">
        <ele>2340.95</ele>
        <time>2017-04-16T07:36:59Z</time>
      </trkpt>
      <trkpt lat="44.95248" lon="6.71835">
        <ele>2342.87</ele>
        <time>2017-04-16T07:37:13Z</time>
      </trkpt>
      <trkpt lat="44.95255" lon="6.71835">
        <ele>2344.31</ele>
        <time>2017-04-16T07:37:30Z</time>
      </trkpt>
      <trkpt lat="44.95263" lon="6.71834">
        <ele>2345.75</ele>
        <time>2017-04-16T07:37:46Z</time>
      </trkpt>
      <trkpt lat="44.9527" lon="6.71833">
        <ele>2346.72</ele>
        <time>2017-04-16T07:38:00Z</time>
      </trkpt>
      <trkpt lat="44.95277" lon="6.71833">
        <ele>2347.68</ele>
        <time>2017-04-16T07:38:11Z</time>
      </trkpt>
      <trkpt lat="44.95284" lon="6.71831">
        <ele>2349.12</ele>
        <time>2017-04-16T07:38:28Z</time>
      </trkpt>
      <trkpt lat="44.95288" lon="6.71831">
        <ele>2350.56</ele>
        <time>2017-04-16T07:38:42Z</time>
      </trkpt>
      <trkpt lat="44.95294" lon="6.71834">
        <ele>2351.52</ele>
        <time>2017-04-16T07:38:56Z</time>
      </trkpt>
      <trkpt lat="44.95302" lon="6.71829">
        <ele>2353.44</ele>
        <time>2017-04-16T07:39:11Z</time>
      </trkpt>
      <trkpt lat="44.9531" lon="6.71827">
        <ele>2355.37</ele>
        <time>2017-04-16T07:39:24Z</time>
      </trkpt>
      <trkpt lat="44.9532" lon="6.71826">
        <ele>2357.77</ele>
        <time>2017-04-16T07:39:43Z</time>
      </trkpt>
      <trkpt lat="44.95323" lon="6.71825">
        <ele>2359.69</ele>
        <time>2017-04-16T07:39:55Z</time>
      </trkpt>
      <trkpt lat="44.95333" lon="6.71821">
        <ele>2361.62</ele>
        <time>2017-04-16T07:40:11Z</time>
      </trkpt>
      <trkpt lat="44.95338" lon="6.7182">
        <ele>2361.14</ele>
        <time>2017-04-16T07:40:27Z</time>
      </trkpt>
      <trkpt lat="44.95341" lon="6.71819">
        <ele>2364.98</ele>
        <time>2017-04-16T07:40:32Z</time>
      </trkpt>
      <trkpt lat="44.95341" lon="6.71819">
        <ele>2364.02</ele>
        <time>2017-04-16T07:40:33Z</time>
      </trkpt>
      <trkpt lat="44.95346" lon="6.71817">
        <ele>2364.98</ele>
        <time>2017-04-16T07:40:49Z</time>
      </trkpt>
      <trkpt lat="44.9535" lon="6.71818">
        <ele>2364.98</ele>
        <time>2017-04-16T07:41:04Z</time>
      </trkpt>
      <trkpt lat="44.95353" lon="6.71816">
        <ele>2367.86</ele>
        <time>2017-04-16T07:41:18Z</time>
      </trkpt>
      <trkpt lat="44.95363" lon="6.71815">
        <ele>2368.35</ele>
        <time>2017-04-16T07:41:33Z</time>
      </trkpt>
      <trkpt lat="44.95363" lon="6.71814">
        <ele>2367.86</ele>
        <time>2017-04-16T07:41:45Z</time>
      </trkpt>
      <trkpt lat="44.95369" lon="6.71813">
        <ele>2370.75</ele>
        <time>2017-04-16T07:42:01Z</time>
      </trkpt>
      <trkpt lat="44.95377" lon="6.71811">
        <ele>2372.19</ele>
        <time>2017-04-16T07:42:15Z</time>
      </trkpt>
      <trkpt lat="44.95383" lon="6.71808">
        <ele>2374.11</ele>
        <time>2017-04-16T07:42:29Z</time>
      </trkpt>
      <trkpt lat="44.95392" lon="6.71806">
        <ele>2376.04</ele>
        <time>2017-04-16T07:42:47Z</time>
      </trkpt>
      <trkpt lat="44.95399" lon="6.71807">
        <ele>2377.96</ele>
        <time>2017-04-16T07:43:04Z</time>
      </trkpt>
      <trkpt lat="44.95408" lon="6.71808">
        <ele>2380.36</ele>
        <time>2017-04-16T07:43:20Z</time>
      </trkpt>
      <trkpt lat="44.95416" lon="6.71809">
        <ele>2381.32</ele>
        <time>2017-04-16T07:43:36Z</time>
      </trkpt>
      <trkpt lat="44.95421" lon="6.71811">
        <ele>2383.73</ele>
        <time>2017-04-16T07:43:54Z</time>
      </trkpt>
      <trkpt lat="44.95429" lon="6.71812">
        <ele>2383.73</ele>
        <time>2017-04-16T07:44:08Z</time>
      </trkpt>
      <trkpt lat="44.95438" lon="6.71813">
        <ele>2386.61</ele>
        <time>2017-04-16T07:44:24Z</time>
      </trkpt>
      <trkpt lat="44.95445" lon="6.71813">
        <ele>2386.13</ele>
        <time>2017-04-16T07:44:37Z</time>
      </trkpt>
      <trkpt lat="44.95455" lon="6.71813">
        <ele>2387.57</ele>
        <time>2017-04-16T07:44:54Z</time>
      </trkpt>
      <trkpt lat="44.95466" lon="6.71814">
        <ele>2388.53</ele>
        <time>2017-04-16T07:45:07Z</time>
      </trkpt>
      <trkpt lat="44.95475" lon="6.71815">
        <ele>2388.05</ele>
        <time>2017-04-16T07:45:23Z</time>
      </trkpt>
      <trkpt lat="44.95485" lon="6.71816">
        <ele>2389.01</ele>
        <time>2017-04-16T07:45:37Z</time>
      </trkpt>
      <trkpt lat="44.95496" lon="6.71819">
        <ele>2388.53</ele>
        <time>2017-04-16T07:45:52Z</time>
      </trkpt>
      <trkpt lat="44.95507" lon="6.71819">
        <ele>2388.53</ele>
        <time>2017-04-16T07:46:08Z</time>
      </trkpt>
      <trkpt lat="44.95515" lon="6.71819">
        <ele>2389.01</ele>
        <time>2017-04-16T07:46:21Z</time>
      </trkpt>
      <trkpt lat="44.95524" lon="6.7182">
        <ele>2389.97</ele>
        <time>2017-04-16T07:46:35Z</time>
      </trkpt>
      <trkpt lat="44.95531" lon="6.71819">
        <ele>2390.94</ele>
        <time>2017-04-16T07:46:50Z</time>
      </trkpt>
      <trkpt lat="44.9554" lon="6.71819">
        <ele>2392.86</ele>
        <time>2017-04-16T07:47:07Z</time>
      </trkpt>
      <trkpt lat="44.95546" lon="6.71819">
        <ele>2394.3</ele>
        <time>2017-04-16T07:47:21Z</time>
      </trkpt>
      <trkpt lat="44.95554" lon="6.71819">
        <ele>2395.26</ele>
        <time>2017-04-16T07:47:35Z</time>
      </trkpt>
      <trkpt lat="44.9556" lon="6.71819">
        <ele>2397.18</ele>
        <time>2017-04-16T07:47:49Z</time>
      </trkpt>
      <trkpt lat="44.95565" lon="6.71822">
        <ele>2399.11</ele>
        <time>2017-04-16T07:48:06Z</time>
      </trkpt>
      <trkpt lat="44.95574" lon="6.71824">
        <ele>2400.55</ele>
        <time>2017-04-16T07:48:21Z</time>
      </trkpt>
      <trkpt lat="44.95581" lon="6.71825">
        <ele>2403.91</ele>
        <time>2017-04-16T07:48:37Z</time>
      </trkpt>
      <trkpt lat="44.9559" lon="6.71826">
        <ele>2404.39</ele>
        <time>2017-04-16T07:48:51Z</time>
      </trkpt>
      <trkpt lat="44.95597" lon="6.71826">
        <ele>2405.84</ele>
        <time>2017-04-16T07:49:04Z</time>
      </trkpt>
      <trkpt lat="44.95603" lon="6.71826">
        <ele>2407.28</ele>
        <time>2017-04-16T07:49:17Z</time>
      </trkpt>
      <trkpt lat="44.95614" lon="6.71826">
        <ele>2409.2</ele>
        <time>2017-04-16T07:49:33Z</time>
      </trkpt>
      <trkpt lat="44.95618" lon="6.71825">
        <ele>2410.64</ele>
        <time>2017-04-16T07:49:48Z</time>
      </trkpt>
      <trkpt lat="44.95623" lon="6.71822">
        <ele>2412.09</ele>
        <time>2017-04-16T07:50:01Z</time>
      </trkpt>
      <trkpt lat="44.95615" lon="6.71826">
        <ele>2414.01</ele>
        <time>2017-04-16T07:50:17Z</time>
      </trkpt>
      <trkpt lat="44.95616" lon="6.71826">
        <ele>2415.45</ele>
        <time>2017-04-16T07:50:31Z</time>
      </trkpt>
      <trkpt lat="44.95621" lon="6.71826">
        <ele>2416.89</ele>
        <time>2017-04-16T07:50:45Z</time>
      </trkpt>
      <trkpt lat="44.95626" lon="6.71827">
        <ele>2418.33</ele>
        <time>2017-04-16T07:50:59Z</time>
      </trkpt>
      <trkpt lat="44.95634" lon="6.71828">
        <ele>2419.78</ele>
        <time>2017-04-16T07:51:15Z</time>
      </trkpt>
      <trkpt lat="44.95639" lon="6.71827">
        <ele>2421.22</ele>
        <time>2017-04-16T07:51:29Z</time>
      </trkpt>
      <trkpt lat="44.95646" lon="6.71829">
        <ele>2423.14</ele>
        <time>2017-04-16T07:51:45Z</time>
      </trkpt>
      <trkpt lat="44.95651" lon="6.71829">
        <ele>2425.06</ele>
        <time>2017-04-16T07:52:01Z</time>
      </trkpt>
      <trkpt lat="44.95657" lon="6.71828">
        <ele>2426.5</ele>
        <time>2017-04-16T07:52:16Z</time>
      </trkpt>
      <trkpt lat="44.95661" lon="6.7183">
        <ele>2427.95</ele>
        <time>2017-04-16T07:52:31Z</time>
      </trkpt>
      <trkpt lat="44.95666" lon="6.71831">
        <ele>2429.87</ele>
        <time>2017-04-16T07:52:46Z</time>
      </trkpt>
      <trkpt lat="44.95671" lon="6.71832">
        <ele>2431.79</ele>
        <time>2017-04-16T07:53:01Z</time>
      </trkpt>
      <trkpt lat="44.95677" lon="6.71833">
        <ele>2432.75</ele>
        <time>2017-04-16T07:53:14Z</time>
      </trkpt>
      <trkpt lat="44.95681" lon="6.71834">
        <ele>2433.71</ele>
        <time>2017-04-16T07:53:29Z</time>
      </trkpt>
      <trkpt lat="44.95686" lon="6.71832">
        <ele>2435.16</ele>
        <time>2017-04-16T07:53:43Z</time>
      </trkpt>
      <trkpt lat="44.95685" lon="6.71834">
        <ele>2433.71</ele>
        <time>2017-04-16T07:54:08Z</time>
      </trkpt>
      <trkpt lat="44.9569" lon="6.71837">
        <ele>2434.2</ele>
        <time>2017-04-16T07:54:22Z</time>
      </trkpt>
      <trkpt lat="44.9569" lon="6.71838">
        <ele>2436.12</ele>
        <time>2017-04-16T07:54:40Z</time>
      </trkpt>
      <trkpt lat="44.95692" lon="6.71839">
        <ele>2434.68</ele>
        <time>2017-04-16T07:55:00Z</time>
      </trkpt>
      <trkpt lat="44.95693" lon="6.71839">
        <ele>2434.2</ele>
        <time>2017-04-16T07:55:31Z</time>
      </trkpt>
      <trkpt lat="44.9569" lon="6.71836">
        <ele>2434.2</ele>
        <time>2017-04-16T07:55:50Z</time>
      </trkpt>
      <trkpt lat="44.9569" lon="6.71838">
        <ele>2433.71</ele>
        <time>2017-04-16T07:56:16Z</time>
      </trkpt>
      <trkpt lat="44.95694" lon="6.7184">
        <ele>2433.23</ele>
        <time>2017-04-16T07:56:29Z</time>
      </trkpt>
      <trkpt lat="44.95701" lon="6.71841">
        <ele>2435.16</ele>
        <time>2017-04-16T07:56:43Z</time>
      </trkpt>
      <trkpt lat="44.95706" lon="6.71844">
        <ele>2435.16</ele>
        <time>2017-04-16T07:56:56Z</time>
      </trkpt>
      <trkpt lat="44.95714" lon="6.71851">
        <ele>2436.6</ele>
        <time>2017-04-16T07:57:11Z</time>
      </trkpt>
      <trkpt lat="44.95722" lon="6.71854">
        <ele>2439</ele>
        <time>2017-04-16T07:57:27Z</time>
      </trkpt>
      <trkpt lat="44.95726" lon="6.71856">
        <ele>2439</ele>
        <time>2017-04-16T07:57:40Z</time>
      </trkpt>
      <trkpt lat="44.95726" lon="6.71857">
        <ele>2439</ele>
        <time>2017-04-16T07:57:41Z</time>
      </trkpt>
      <trkpt lat="44.9573" lon="6.71859">
        <ele>2440.44</ele>
        <time>2017-04-16T07:57:54Z</time>
      </trkpt>
      <trkpt lat="44.95736" lon="6.71863">
        <ele>2440.92</ele>
        <time>2017-04-16T07:58:12Z</time>
      </trkpt>
      <trkpt lat="44.9574" lon="6.71866">
        <ele>2442.37</ele>
        <time>2017-04-16T07:58:26Z</time>
      </trkpt>
      <trkpt lat="44.95747" lon="6.71869">
        <ele>2443.33</ele>
        <time>2017-04-16T07:58:40Z</time>
      </trkpt>
      <trkpt lat="44.95754" lon="6.71873">
        <ele>2444.29</ele>
        <time>2017-04-16T07:58:53Z</time>
      </trkpt>
      <trkpt lat="44.95765" lon="6.71877">
        <ele>2445.25</ele>
        <time>2017-04-16T07:59:08Z</time>
      </trkpt>
      <trkpt lat="44.95769" lon="6.71881">
        <ele>2444.77</ele>
        <time>2017-04-16T07:59:17Z</time>
      </trkpt>
      <trkpt lat="44.95772" lon="6.71887">
        <ele>2447.17</ele>
        <time>2017-04-16T07:59:28Z</time>
      </trkpt>
      <trkpt lat="44.95777" lon="6.71888">
        <ele>2448.62</ele>
        <time>2017-04-16T07:59:44Z</time>
      </trkpt>
      <trkpt lat="44.95784" lon="6.71894">
        <ele>2450.54</ele>
        <time>2017-04-16T08:00:02Z</time>
      </trkpt>
      <trkpt lat="44.95791" lon="6.719">
        <ele>2451.5</ele>
        <time>2017-04-16T08:00:15Z</time>
      </trkpt>
      <trkpt lat="44.95797" lon="6.71904">
        <ele>2452.94</ele>
        <time>2017-04-16T08:00:32Z</time>
      </trkpt>
      <trkpt lat="44.95806" lon="6.71914">
        <ele>2454.38</ele>
        <time>2017-04-16T08:00:49Z</time>
      </trkpt>
      <trkpt lat="44.95811" lon="6.71921">
        <ele>2454.38</ele>
        <time>2017-04-16T08:01:02Z</time>
      </trkpt>
      <trkpt lat="44.95813" lon="6.71923">
        <ele>2455.34</ele>
        <time>2017-04-16T08:01:15Z</time>
      </trkpt>
      <trkpt lat="44.9582" lon="6.71929">
        <ele>2454.86</ele>
        <time>2017-04-16T08:01:28Z</time>
      </trkpt>
      <trkpt lat="44.95826" lon="6.71941">
        <ele>2455.34</ele>
        <time>2017-04-16T08:01:41Z</time>
      </trkpt>
      <trkpt lat="44.95831" lon="6.71946">
        <ele>2455.82</ele>
        <time>2017-04-16T08:01:52Z</time>
      </trkpt>
      <trkpt lat="44.9583" lon="6.71954">
        <ele>2456.79</ele>
        <time>2017-04-16T08:02:04Z</time>
      </trkpt>
      <trkpt lat="44.9583" lon="6.7196">
        <ele>2457.75</ele>
        <time>2017-04-16T08:02:16Z</time>
      </trkpt>
      <trkpt lat="44.95828" lon="6.71966">
        <ele>2457.75</ele>
        <time>2017-04-16T08:02:30Z</time>
      </trkpt>
      <trkpt lat="44.95827" lon="6.71968">
        <ele>2458.23</ele>
        <time>2017-04-16T08:02:47Z</time>
      </trkpt>
      <trkpt lat="44.95827" lon="6.71967">
        <ele>2459.19</ele>
        <time>2017-04-16T08:03:06Z</time>
      </trkpt>
      <trkpt lat="44.95825" lon="6.71969">
        <ele>2458.23</ele>
        <time>2017-04-16T08:03:21Z</time>
      </trkpt>
      <trkpt lat="44.95826" lon="6.71975">
        <ele>2459.19</ele>
        <time>2017-04-16T08:03:34Z</time>
      </trkpt>
      <trkpt lat="44.95826" lon="6.71979">
        <ele>2459.67</ele>
        <time>2017-04-16T08:03:47Z</time>
      </trkpt>
      <trkpt lat="44.95825" lon="6.71983">
        <ele>2460.15</ele>
        <time>2017-04-16T08:04:09Z</time>
      </trkpt>
      <trkpt lat="44.95825" lon="6.71986">
        <ele>2461.59</ele>
        <time>2017-04-16T08:04:26Z</time>
      </trkpt>
      <trkpt lat="44.95824" lon="6.71985">
        <ele>2457.75</ele>
        <time>2017-04-16T08:04:42Z</time>
      </trkpt>
      <trkpt lat="44.95825" lon="6.71982">
        <ele>2458.71</ele>
        <time>2017-04-16T08:04:43Z</time>
      </trkpt>
      <trkpt lat="44.95823" lon="6.71984">
        <ele>2458.71</ele>
        <time>2017-04-16T08:05:09Z</time>
      </trkpt>
      <trkpt lat="44.95824" lon="6.71985">
        <ele>2458.71</ele>
        <time>2017-04-16T08:05:32Z</time>
      </trkpt>
      <trkpt lat="44.95826" lon="6.71979">
        <ele>2458.23</ele>
        <time>2017-04-16T08:05:46Z</time>
      </trkpt>
      <trkpt lat="44.95826" lon="6.71966">
        <ele>2456.79</ele>
        <time>2017-04-16T08:05:59Z</time>
      </trkpt>
      <trkpt lat="44.95825" lon="6.71968">
        <ele>2457.27</ele>
        <time>2017-04-16T08:06:13Z</time>
      </trkpt>
      <trkpt lat="44.95822" lon="6.71969">
        <ele>2456.31</ele>
        <time>2017-04-16T08:06:29Z</time>
      </trkpt>
      <trkpt lat="44.95825" lon="6.71966">
        <ele>2456.31</ele>
        <time>2017-04-16T08:07:11Z</time>
      </trkpt>
      <trkpt lat="44.95827" lon="6.71966">
        <ele>2456.31</ele>
        <time>2017-04-16T08:07:54Z</time>
      </trkpt>
      <trkpt lat="44.95826" lon="6.71965">
        <ele>2456.31</ele>
        <time>2017-04-16T08:08:27Z</time>
      </trkpt>
      <trkpt lat="44.95828" lon="6.71965">
        <ele>2456.79</ele>
        <time>2017-04-16T08:09:13Z</time>
      </trkpt>
      <trkpt lat="44.95827" lon="6.71967">
        <ele>2457.27</ele>
        <time>2017-04-16T08:09:50Z</time>
      </trkpt>
      <trkpt lat="44.95828" lon="6.71966">
        <ele>2456.79</ele>
        <time>2017-04-16T08:10:24Z</time>
      </trkpt>
      <trkpt lat="44.95827" lon="6.71965">
        <ele>2457.75</ele>
        <time>2017-04-16T08:10:30Z</time>
      </trkpt>
      <trkpt lat="44.95827" lon="6.71965">
        <ele>2458.23</ele>
        <time>2017-04-16T08:10:45Z</time>
      </trkpt>
      <trkpt lat="44.95824" lon="6.7197">
        <ele>2458.23</ele>
        <time>2017-04-16T08:11:00Z</time>
      </trkpt>
      <trkpt lat="44.95822" lon="6.71969">
        <ele>2458.71</ele>
        <time>2017-04-16T08:11:13Z</time>
      </trkpt>
      <trkpt lat="44.95823" lon="6.71966">
        <ele>2458.71</ele>
        <time>2017-04-16T08:11:29Z</time>
      </trkpt>
      <trkpt lat="44.95823" lon="6.71964">
        <ele>2456.79</ele>
        <time>2017-04-16T08:11:37Z</time>
      </trkpt>
      <trkpt lat="44.95825" lon="6.71954">
        <ele>2457.27</ele>
        <time>2017-04-16T08:11:51Z</time>
      </trkpt>
      <trkpt lat="44.95823" lon="6.71948">
        <ele>2456.31</ele>
        <time>2017-04-16T08:12:08Z</time>
      </trkpt>
      <trkpt lat="44.95822" lon="6.71939">
        <ele>2455.82</ele>
        <time>2017-04-16T08:12:25Z</time>
      </trkpt>
      <trkpt lat="44.95823" lon="6.71927">
        <ele>2454.86</ele>
        <time>2017-04-16T08:12:40Z</time>
      </trkpt>
      <trkpt lat="44.9583" lon="6.71917">
        <ele>2454.38</ele>
        <time>2017-04-16T08:12:53Z</time>
      </trkpt>
      <trkpt lat="44.95834" lon="6.71904">
        <ele>2453.9</ele>
        <time>2017-04-16T08:13:07Z</time>
      </trkpt>
      <trkpt lat="44.95834" lon="6.719">
        <ele>2453.9</ele>
        <time>2017-04-16T08:13:11Z</time>
      </trkpt>
      <trkpt lat="44.95834" lon="6.7189">
        <ele>2453.9</ele>
        <time>2017-04-16T08:13:20Z</time>
      </trkpt>
      <trkpt lat="44.95838" lon="6.7188">
        <ele>2453.9</ele>
        <time>2017-04-16T08:13:35Z</time>
      </trkpt>
      <trkpt lat="44.95838" lon="6.71873">
        <ele>2453.9</ele>
        <time>2017-04-16T08:13:42Z</time>
      </trkpt>
      <trkpt lat="44.9584" lon="6.71856">
        <ele>2453.9</ele>
        <time>2017-04-16T08:13:56Z</time>
      </trkpt>
      <trkpt lat="44.95843" lon="6.71844">
        <ele>2454.38</ele>
        <time>2017-04-16T08:14:09Z</time>
      </trkpt>
      <trkpt lat="44.95843" lon="6.71838">
        <ele>2455.82</ele>
        <time>2017-04-16T08:14:21Z</time>
      </trkpt>
      <trkpt lat="44.95844" lon="6.71825">
        <ele>2456.31</ele>
        <time>2017-04-16T08:14:35Z</time>
      </trkpt>
      <trkpt lat="44.95848" lon="6.71815">
        <ele>2456.79</ele>
        <time>2017-04-16T08:14:50Z</time>
      </trkpt>
      <trkpt lat="44.95849" lon="6.71801">
        <ele>2457.75</ele>
        <time>2017-04-16T08:15:07Z</time>
      </trkpt>
      <trkpt lat="44.95849" lon="6.71791">
        <ele>2459.67</ele>
        <time>2017-04-16T08:15:22Z</time>
      </trkpt>
      <trkpt lat="44.95849" lon="6.7178">
        <ele>2461.11</ele>
        <time>2017-04-16T08:15:38Z</time>
      </trkpt>
      <trkpt lat="44.9585" lon="6.71776">
        <ele>2461.59</ele>
        <time>2017-04-16T08:15:50Z</time>
      </trkpt>
      <trkpt lat="44.95851" lon="6.71765">
        <ele>2462.55</ele>
        <time>2017-04-16T08:16:05Z</time>
      </trkpt>
      <trkpt lat="44.95851" lon="6.71753">
        <ele>2464.96</ele>
        <time>2017-04-16T08:16:27Z</time>
      </trkpt>
      <trkpt lat="44.9585" lon="6.71744">
        <ele>2466.4</ele>
        <time>2017-04-16T08:16:41Z</time>
      </trkpt>
      <trkpt lat="44.9585" lon="6.71735">
        <ele>2467.36</ele>
        <time>2017-04-16T08:16:56Z</time>
      </trkpt>
      <trkpt lat="44.95851" lon="6.71729">
        <ele>2469.76</ele>
        <time>2017-04-16T08:17:11Z</time>
      </trkpt>
      <trkpt lat="44.95851" lon="6.71716">
        <ele>2472.65</ele>
        <time>2017-04-16T08:17:33Z</time>
      </trkpt>
      <trkpt lat="44.9585" lon="6.71711">
        <ele>2473.61</ele>
        <time>2017-04-16T08:17:46Z</time>
      </trkpt>
      <trkpt lat="44.95851" lon="6.71702">
        <ele>2475.05</ele>
        <time>2017-04-16T08:18:00Z</time>
      </trkpt>
      <trkpt lat="44.95852" lon="6.71694">
        <ele>2476.49</ele>
        <time>2017-04-16T08:18:12Z</time>
      </trkpt>
      <trkpt lat="44.95852" lon="6.71686">
        <ele>2477.45</ele>
        <time>2017-04-16T08:18:24Z</time>
      </trkpt>
      <trkpt lat="44.95856" lon="6.71682">
        <ele>2479.38</ele>
        <time>2017-04-16T08:18:43Z</time>
      </trkpt>
      <trkpt lat="44.95859" lon="6.71681">
        <ele>2480.82</ele>
        <time>2017-04-16T08:18:59Z</time>
      </trkpt>
      <trkpt lat="44.95863" lon="6.71676">
        <ele>2482.74</ele>
        <time>2017-04-16T08:19:16Z</time>
      </trkpt>
      <trkpt lat="44.95864" lon="6.71674">
        <ele>2483.7</ele>
        <time>2017-04-16T08:19:32Z</time>
      </trkpt>
      <trkpt lat="44.95865" lon="6.71675">
        <ele>2482.74</ele>
        <time>2017-04-16T08:20:00Z</time>
      </trkpt>
      <trkpt lat="44.95865" lon="6.71674">
        <ele>2483.7</ele>
        <time>2017-04-16T08:20:20Z</time>
      </trkpt>
      <trkpt lat="44.95866" lon="6.71674">
        <ele>2485.63</ele>
        <time>2017-04-16T08:21:07Z</time>
      </trkpt>
      <trkpt lat="44.95864" lon="6.71673">
        <ele>2483.7</ele>
        <time>2017-04-16T08:21:15Z</time>
      </trkpt>
      <trkpt lat="44.95863" lon="6.71675">
        <ele>2483.22</ele>
        <time>2017-04-16T08:21:37Z</time>
      </trkpt>
      <trkpt lat="44.95864" lon="6.71674">
        <ele>2482.74</ele>
        <time>2017-04-16T08:22:06Z</time>
      </trkpt>
      <trkpt lat="44.95864" lon="6.71674">
        <ele>2482.74</ele>
        <time>2017-04-16T08:22:30Z</time>
      </trkpt>
      <trkpt lat="44.95863" lon="6.71673">
        <ele>2482.74</ele>
        <time>2017-04-16T08:22:55Z</time>
      </trkpt>
      <trkpt lat="44.95863" lon="6.71678">
        <ele>2482.74</ele>
        <time>2017-04-16T08:23:16Z</time>
      </trkpt>
      <trkpt lat="44.95866" lon="6.71675">
        <ele>2484.18</ele>
        <time>2017-04-16T08:23:30Z</time>
      </trkpt>
      <trkpt lat="44.9587" lon="6.71667">
        <ele>2486.11</ele>
        <time>2017-04-16T08:23:43Z</time>
      </trkpt>
      <trkpt lat="44.95874" lon="6.71659">
        <ele>2488.03</ele>
        <time>2017-04-16T08:23:57Z</time>
      </trkpt>
      <trkpt lat="44.95875" lon="6.71652">
        <ele>2489.47</ele>
        <time>2017-04-16T08:24:15Z</time>
      </trkpt>
      <trkpt lat="44.95877" lon="6.71645">
        <ele>2491.39</ele>
        <time>2017-04-16T08:24:31Z</time>
      </trkpt>
      <trkpt lat="44.9588" lon="6.71639">
        <ele>2493.32</ele>
        <time>2017-04-16T08:24:47Z</time>
      </trkpt>
      <trkpt lat="44.95882" lon="6.71632">
        <ele>2494.76</ele>
        <time>2017-04-16T08:25:03Z</time>
      </trkpt>
      <trkpt lat="44.95883" lon="6.71628">
        <ele>2497.16</ele>
        <time>2017-04-16T08:25:18Z</time>
      </trkpt>
      <trkpt lat="44.95883" lon="6.71621">
        <ele>2499.08</ele>
        <time>2017-04-16T08:25:33Z</time>
      </trkpt>
      <trkpt lat="44.95885" lon="6.71616">
        <ele>2500.53</ele>
        <time>2017-04-16T08:25:49Z</time>
      </trkpt>
      <trkpt lat="44.95886" lon="6.71608">
        <ele>2502.45</ele>
        <time>2017-04-16T08:26:03Z</time>
      </trkpt>
      <trkpt lat="44.95888" lon="6.71605">
        <ele>2503.89</ele>
        <time>2017-04-16T08:26:16Z</time>
      </trkpt>
      <trkpt lat="44.95891" lon="6.716">
        <ele>2505.81</ele>
        <time>2017-04-16T08:26:31Z</time>
      </trkpt>
      <trkpt lat="44.95894" lon="6.71598">
        <ele>2507.74</ele>
        <time>2017-04-16T08:26:47Z</time>
      </trkpt>
      <trkpt lat="44.95897" lon="6.71593">
        <ele>2509.66</ele>
        <time>2017-04-16T08:27:02Z</time>
      </trkpt>
      <trkpt lat="44.95899" lon="6.71587">
        <ele>2511.1</ele>
        <time>2017-04-16T08:27:20Z</time>
      </trkpt>
      <trkpt lat="44.959" lon="6.71582">
        <ele>2512.54</ele>
        <time>2017-04-16T08:27:33Z</time>
      </trkpt>
      <trkpt lat="44.959" lon="6.71575">
        <ele>2514.95</ele>
        <time>2017-04-16T08:27:50Z</time>
      </trkpt>
      <trkpt lat="44.95903" lon="6.71568">
        <ele>2516.87</ele>
        <time>2017-04-16T08:28:08Z</time>
      </trkpt>
      <trkpt lat="44.95906" lon="6.71563">
        <ele>2518.79</ele>
        <time>2017-04-16T08:28:25Z</time>
      </trkpt>
      <trkpt lat="44.95908" lon="6.71557">
        <ele>2520.71</ele>
        <time>2017-04-16T08:28:40Z</time>
      </trkpt>
      <trkpt lat="44.95909" lon="6.71551">
        <ele>2523.12</ele>
        <time>2017-04-16T08:28:55Z</time>
      </trkpt>
      <trkpt lat="44.95909" lon="6.71547">
        <ele>2524.56</ele>
        <time>2017-04-16T08:29:08Z</time>
      </trkpt>
      <trkpt lat="44.95909" lon="6.71541">
        <ele>2526</ele>
        <time>2017-04-16T08:29:22Z</time>
      </trkpt>
      <trkpt lat="44.95908" lon="6.71534">
        <ele>2527.44</ele>
        <time>2017-04-16T08:29:39Z</time>
      </trkpt>
      <trkpt lat="44.95913" lon="6.71533">
        <ele>2529.37</ele>
        <time>2017-04-16T08:29:52Z</time>
      </trkpt>
      <trkpt lat="44.95917" lon="6.71534">
        <ele>2530.33</ele>
        <time>2017-04-16T08:30:05Z</time>
      </trkpt>
      <trkpt lat="44.95921" lon="6.71535">
        <ele>2531.77</ele>
        <time>2017-04-16T08:30:19Z</time>
      </trkpt>
      <trkpt lat="44.95925" lon="6.71534">
        <ele>2533.69</ele>
        <time>2017-04-16T08:30:33Z</time>
      </trkpt>
      <trkpt lat="44.95924" lon="6.71529">
        <ele>2535.13</ele>
        <time>2017-04-16T08:30:49Z</time>
      </trkpt>
      <trkpt lat="44.95924" lon="6.71524">
        <ele>2536.1</ele>
        <time>2017-04-16T08:31:01Z</time>
      </trkpt>
      <trkpt lat="44.95925" lon="6.71516">
        <ele>2538.02</ele>
        <time>2017-04-16T08:31:17Z</time>
      </trkpt>
      <trkpt lat="44.95926" lon="6.7151">
        <ele>2538.98</ele>
        <time>2017-04-16T08:31:31Z</time>
      </trkpt>
      <trkpt lat="44.95927" lon="6.71504">
        <ele>2541.38</ele>
        <time>2017-04-16T08:31:45Z</time>
      </trkpt>
      <trkpt lat="44.95933" lon="6.71504">
        <ele>2543.31</ele>
        <time>2017-04-16T08:32:00Z</time>
      </trkpt>
      <trkpt lat="44.95938" lon="6.71505">
        <ele>2545.23</ele>
        <time>2017-04-16T08:32:15Z</time>
      </trkpt>
      <trkpt lat="44.95938" lon="6.71496">
        <ele>2546.67</ele>
        <time>2017-04-16T08:32:32Z</time>
      </trkpt>
      <trkpt lat="44.95938" lon="6.71487">
        <ele>2549.55</ele>
        <time>2017-04-16T08:32:52Z</time>
      </trkpt>
      <trkpt lat="44.95942" lon="6.71487">
        <ele>2550.51</ele>
        <time>2017-04-16T08:33:05Z</time>
      </trkpt>
      <trkpt lat="44.95946" lon="6.71487">
        <ele>2553.4</ele>
        <time>2017-04-16T08:33:14Z</time>
      </trkpt>
      <trkpt lat="44.95949" lon="6.71486">
        <ele>2553.4</ele>
        <time>2017-04-16T08:33:28Z</time>
      </trkpt>
      <trkpt lat="44.95948" lon="6.71479">
        <ele>2554.84</ele>
        <time>2017-04-16T08:33:43Z</time>
      </trkpt>
      <trkpt lat="44.95947" lon="6.71472">
        <ele>2556.28</ele>
        <time>2017-04-16T08:33:58Z</time>
      </trkpt>
      <trkpt lat="44.95948" lon="6.71466">
        <ele>2558.21</ele>
        <time>2017-04-16T08:34:12Z</time>
      </trkpt>
      <trkpt lat="44.95947" lon="6.7146">
        <ele>2559.17</ele>
        <time>2017-04-16T08:34:27Z</time>
      </trkpt>
      <trkpt lat="44.95946" lon="6.71454">
        <ele>2560.61</ele>
        <time>2017-04-16T08:34:41Z</time>
      </trkpt>
      <trkpt lat="44.95946" lon="6.71452">
        <ele>2561.57</ele>
        <time>2017-04-16T08:34:55Z</time>
      </trkpt>
      <trkpt lat="44.95944" lon="6.7145">
        <ele>2562.05</ele>
        <time>2017-04-16T08:35:11Z</time>
      </trkpt>
      <trkpt lat="44.95945" lon="6.71451">
        <ele>2561.57</ele>
        <time>2017-04-16T08:35:35Z</time>
      </trkpt>
      <trkpt lat="44.95948" lon="6.7145">
        <ele>2562.53</ele>
        <time>2017-04-16T08:35:48Z</time>
      </trkpt>
      <trkpt lat="44.95952" lon="6.71449">
        <ele>2563.97</ele>
        <time>2017-04-16T08:36:01Z</time>
      </trkpt>
      <trkpt lat="44.95956" lon="6.7145">
        <ele>2564.45</ele>
        <time>2017-04-16T08:36:16Z</time>
      </trkpt>
      <trkpt lat="44.95957" lon="6.7145">
        <ele>2565.42</ele>
        <time>2017-04-16T08:36:29Z</time>
      </trkpt>
      <trkpt lat="44.95958" lon="6.71451">
        <ele>2565.9</ele>
        <time>2017-04-16T08:36:56Z</time>
      </trkpt>
      <trkpt lat="44.95958" lon="6.71448">
        <ele>2566.38</ele>
        <time>2017-04-16T08:37:07Z</time>
      </trkpt>
      <trkpt lat="44.95956" lon="6.71446">
        <ele>2567.34</ele>
        <time>2017-04-16T08:37:22Z</time>
      </trkpt>
      <trkpt lat="44.95954" lon="6.71439">
        <ele>2568.78</ele>
        <time>2017-04-16T08:37:35Z</time>
      </trkpt>
      <trkpt lat="44.95952" lon="6.71432">
        <ele>2571.18</ele>
        <time>2017-04-16T08:37:49Z</time>
      </trkpt>
      <trkpt lat="44.95949" lon="6.71425">
        <ele>2573.11</ele>
        <time>2017-04-16T08:38:04Z</time>
      </trkpt>
      <trkpt lat="44.95947" lon="6.71419">
        <ele>2575.51</ele>
        <time>2017-04-16T08:38:17Z</time>
      </trkpt>
      <trkpt lat="44.95946" lon="6.71414">
        <ele>2576.95</ele>
        <time>2017-04-16T08:38:31Z</time>
      </trkpt>
      <trkpt lat="44.95946" lon="6.71411">
        <ele>2578.39</ele>
        <time>2017-04-16T08:38:35Z</time>
      </trkpt>
      <trkpt lat="44.95946" lon="6.71411">
        <ele>2577.91</ele>
        <time>2017-04-16T08:38:37Z</time>
      </trkpt>
      <trkpt lat="44.95946" lon="6.71404">
        <ele>2580.8</ele>
        <time>2017-04-16T08:38:52Z</time>
      </trkpt>
      <trkpt lat="44.95945" lon="6.71399">
        <ele>2582.24</ele>
        <time>2017-04-16T08:39:04Z</time>
      </trkpt>
      <trkpt lat="44.95945" lon="6.71392">
        <ele>2585.6</ele>
        <time>2017-04-16T08:39:17Z</time>
      </trkpt>
      <trkpt lat="44.95944" lon="6.71388">
        <ele>2587.04</ele>
        <time>2017-04-16T08:39:31Z</time>
      </trkpt>
      <trkpt lat="44.95944" lon="6.71387">
        <ele>2587.04</ele>
        <time>2017-04-16T08:39:32Z</time>
      </trkpt>
      <trkpt lat="44.95944" lon="6.71381">
        <ele>2588.01</ele>
        <time>2017-04-16T08:39:47Z</time>
      </trkpt>
      <trkpt lat="44.95943" lon="6.71376">
        <ele>2589.45</ele>
        <time>2017-04-16T08:40:01Z</time>
      </trkpt>
      <trkpt lat="44.95941" lon="6.71369">
        <ele>2592.33</ele>
        <time>2017-04-16T08:40:16Z</time>
      </trkpt>
      <trkpt lat="44.95939" lon="6.71364">
        <ele>2593.77</ele>
        <time>2017-04-16T08:40:31Z</time>
      </trkpt>
      <trkpt lat="44.95937" lon="6.71359">
        <ele>2594.74</ele>
        <time>2017-04-16T08:40:45Z</time>
      </trkpt>
      <trkpt lat="44.95934" lon="6.71353">
        <ele>2596.66</ele>
        <time>2017-04-16T08:41:02Z</time>
      </trkpt>
      <trkpt lat="44.95932" lon="6.71349">
        <ele>2597.14</ele>
        <time>2017-04-16T08:41:15Z</time>
      </trkpt>
      <trkpt lat="44.95934" lon="6.71349">
        <ele>2596.66</ele>
        <time>2017-04-16T08:41:28Z</time>
      </trkpt>
      <trkpt lat="44.95931" lon="6.71347">
        <ele>2597.14</ele>
        <time>2017-04-16T08:41:50Z</time>
      </trkpt>
      <trkpt lat="44.95936" lon="6.71348">
        <ele>2598.58</ele>
        <time>2017-04-16T08:42:12Z</time>
      </trkpt>
      <trkpt lat="44.9594" lon="6.71348">
        <ele>2600.02</ele>
        <time>2017-04-16T08:42:27Z</time>
      </trkpt>
      <trkpt lat="44.95939" lon="6.71347">
        <ele>2600.02</ele>
        <time>2017-04-16T08:42:43Z</time>
      </trkpt>
      <trkpt lat="44.95944" lon="6.71347">
        <ele>2600.98</ele>
        <time>2017-04-16T08:43:05Z</time>
      </trkpt>
      <trkpt lat="44.95949" lon="6.71345">
        <ele>2604.83</ele>
        <time>2017-04-16T08:43:18Z</time>
      </trkpt>
      <trkpt lat="44.95951" lon="6.71344">
        <ele>2604.35</ele>
        <time>2017-04-16T08:43:23Z</time>
      </trkpt>
      <trkpt lat="44.95953" lon="6.71345">
        <ele>2606.27</ele>
        <time>2017-04-16T08:43:29Z</time>
      </trkpt>
      <trkpt lat="44.95956" lon="6.71344">
        <ele>2604.35</ele>
        <time>2017-04-16T08:43:34Z</time>
      </trkpt>
      <trkpt lat="44.95957" lon="6.71344">
        <ele>2605.79</ele>
        <time>2017-04-16T08:43:40Z</time>
      </trkpt>
      <trkpt lat="44.95961" lon="6.71342">
        <ele>2607.71</ele>
        <time>2017-04-16T08:43:55Z</time>
      </trkpt>
      <trkpt lat="44.95962" lon="6.71342">
        <ele>2608.67</ele>
        <time>2017-04-16T08:43:58Z</time>
      </trkpt>
      <trkpt lat="44.95963" lon="6.71343">
        <ele>2608.67</ele>
        <time>2017-04-16T08:44:04Z</time>
      </trkpt>
      <trkpt lat="44.95966" lon="6.71342">
        <ele>2612.04</ele>
        <time>2017-04-16T08:44:12Z</time>
      </trkpt>
      <trkpt lat="44.9597" lon="6.71342">
        <ele>2612.52</ele>
        <time>2017-04-16T08:44:27Z</time>
      </trkpt>
      <trkpt lat="44.95975" lon="6.71341">
        <ele>2613.48</ele>
        <time>2017-04-16T08:44:44Z</time>
      </trkpt>
      <trkpt lat="44.95978" lon="6.7134">
        <ele>2614.44</ele>
        <time>2017-04-16T08:44:58Z</time>
      </trkpt>
      <trkpt lat="44.95983" lon="6.71339">
        <ele>2616.37</ele>
        <time>2017-04-16T08:45:12Z</time>
      </trkpt>
      <trkpt lat="44.95987" lon="6.71338">
        <ele>2617.81</ele>
        <time>2017-04-16T08:45:25Z</time>
      </trkpt>
      <trkpt lat="44.95991" lon="6.71337">
        <ele>2619.25</ele>
        <time>2017-04-16T08:45:39Z</time>
      </trkpt>
      <trkpt lat="44.95989" lon="6.71337">
        <ele>2619.73</ele>
        <time>2017-04-16T08:45:56Z</time>
      </trkpt>
      <trkpt lat="44.95989" lon="6.71336">
        <ele>2621.17</ele>
        <time>2017-04-16T08:46:10Z</time>
      </trkpt>
      <trkpt lat="44.95987" lon="6.71331">
        <ele>2622.13</ele>
        <time>2017-04-16T08:46:26Z</time>
      </trkpt>
      <trkpt lat="44.95983" lon="6.71325">
        <ele>2623.09</ele>
        <time>2017-04-16T08:46:41Z</time>
      </trkpt>
      <trkpt lat="44.95978" lon="6.71317">
        <ele>2625.02</ele>
        <time>2017-04-16T08:46:55Z</time>
      </trkpt>
      <trkpt lat="44.95974" lon="6.71311">
        <ele>2625.98</ele>
        <time>2017-04-16T08:47:08Z</time>
      </trkpt>
      <trkpt lat="44.95968" lon="6.71305">
        <ele>2625.5</ele>
        <time>2017-04-16T08:47:23Z</time>
      </trkpt>
      <trkpt lat="44.95964" lon="6.71299">
        <ele>2626.94</ele>
        <time>2017-04-16T08:47:37Z</time>
      </trkpt>
      <trkpt lat="44.95961" lon="6.71293">
        <ele>2629.82</ele>
        <time>2017-04-16T08:47:50Z</time>
      </trkpt>
      <trkpt lat="44.95957" lon="6.7129">
        <ele>2630.79</ele>
        <time>2017-04-16T08:48:04Z</time>
      </trkpt>
      <trkpt lat="44.95957" lon="6.71286">
        <ele>2633.19</ele>
        <time>2017-04-16T08:48:17Z</time>
      </trkpt>
      <trkpt lat="44.95957" lon="6.71283">
        <ele>2631.27</ele>
        <time>2017-04-16T08:48:29Z</time>
      </trkpt>
      <trkpt lat="44.95956" lon="6.71281">
        <ele>2627.42</ele>
        <time>2017-04-16T08:48:33Z</time>
      </trkpt>
      <trkpt lat="44.95954" lon="6.7128">
        <ele>2631.75</ele>
        <time>2017-04-16T08:48:40Z</time>
      </trkpt>
      <trkpt lat="44.95954" lon="6.7128">
        <ele>2631.75</ele>
        <time>2017-04-16T08:48:41Z</time>
      </trkpt>
      <trkpt lat="44.95954" lon="6.7128">
        <ele>2633.67</ele>
        <time>2017-04-16T08:48:44Z</time>
      </trkpt>
      <trkpt lat="44.95954" lon="6.71279">
        <ele>2633.67</ele>
        <time>2017-04-16T08:49:05Z</time>
      </trkpt>
      <trkpt lat="44.95954" lon="6.71278">
        <ele>2628.38</ele>
        <time>2017-04-16T08:49:12Z</time>
      </trkpt>
      <trkpt lat="44.95954" lon="6.71278">
        <ele>2628.86</ele>
        <time>2017-04-16T08:49:13Z</time>
      </trkpt>
      <trkpt lat="44.95952" lon="6.7128">
        <ele>2632.23</ele>
        <time>2017-04-16T08:49:16Z</time>
      </trkpt>
      <trkpt lat="44.95952" lon="6.71281">
        <ele>2634.15</ele>
        <time>2017-04-16T08:49:18Z</time>
      </trkpt>
      <trkpt lat="44.95953" lon="6.71281">
        <ele>2630.3</ele>
        <time>2017-04-16T08:49:22Z</time>
      </trkpt>
      <trkpt lat="44.95953" lon="6.7128">
        <ele>2631.27</ele>
        <time>2017-04-16T08:49:23Z</time>
      </trkpt>
      <trkpt lat="44.95954" lon="6.71281">
        <ele>2631.75</ele>
        <time>2017-04-16T08:49:57Z</time>
      </trkpt>
      <trkpt lat="44.95952" lon="6.71281">
        <ele>2629.34</ele>
        <time>2017-04-16T08:50:01Z</time>
      </trkpt>
      <trkpt lat="44.95952" lon="6.71281">
        <ele>2632.71</ele>
        <time>2017-04-16T08:50:03Z</time>
      </trkpt>
      <trkpt lat="44.95952" lon="6.71281">
        <ele>2632.71</ele>
        <time>2017-04-16T08:50:04Z</time>
      </trkpt>
      <trkpt lat="44.95952" lon="6.71281">
        <ele>2629.34</ele>
        <time>2017-04-16T08:50:17Z</time>
      </trkpt>
      <trkpt lat="44.95952" lon="6.71281">
        <ele>2632.23</ele>
        <time>2017-04-16T08:50:20Z</time>
      </trkpt>
      <trkpt lat="44.95954" lon="6.7128">
        <ele>2633.19</ele>
        <time>2017-04-16T08:50:41Z</time>
      </trkpt>
      <trkpt lat="44.95952" lon="6.71282">
        <ele>2633.67</ele>
        <time>2017-04-16T08:51:09Z</time>
      </trkpt>
      <trkpt lat="44.95952" lon="6.71281">
        <ele>2629.82</ele>
        <time>2017-04-16T08:51:26Z</time>
      </trkpt>
      <trkpt lat="44.95952" lon="6.71281">
        <ele>2632.71</ele>
        <time>2017-04-16T08:51:27Z</time>
      </trkpt>
      <trkpt lat="44.95951" lon="6.7128">
        <ele>2631.75</ele>
        <time>2017-04-16T08:51:42Z</time>
      </trkpt>
      <trkpt lat="44.95951" lon="6.71279">
        <ele>2631.27</ele>
        <time>2017-04-16T08:52:05Z</time>
      </trkpt>
      <trkpt lat="44.95952" lon="6.71279">
        <ele>2632.23</ele>
        <time>2017-04-16T08:52:40Z</time>
      </trkpt>
      <trkpt lat="44.95951" lon="6.71279">
        <ele>2630.3</ele>
        <time>2017-04-16T08:52:43Z</time>
      </trkpt>
      <trkpt lat="44.95952" lon="6.71279">
        <ele>2632.23</ele>
        <time>2017-04-16T08:52:50Z</time>
      </trkpt>
      <trkpt lat="44.95951" lon="6.71278">
        <ele>2636.07</ele>
        <time>2017-04-16T08:53:05Z</time>
      </trkpt>
      <trkpt lat="44.95951" lon="6.71278">
        <ele>2630.79</ele>
        <time>2017-04-16T08:53:07Z</time>
      </trkpt>
      <trkpt lat="44.95951" lon="6.71277">
        <ele>2630.3</ele>
        <time>2017-04-16T08:53:08Z</time>
      </trkpt>
      <trkpt lat="44.95951" lon="6.71279">
        <ele>2632.23</ele>
        <time>2017-04-16T08:53:28Z</time>
      </trkpt>
      <trkpt lat="44.95951" lon="6.71279">
        <ele>2628.38</ele>
        <time>2017-04-16T08:53:33Z</time>
      </trkpt>
      <trkpt lat="44.95951" lon="6.71279">
        <ele>2628.86</ele>
        <time>2017-04-16T08:53:34Z</time>
      </trkpt>
      <trkpt lat="44.95951" lon="6.71281">
        <ele>2632.23</ele>
        <time>2017-04-16T08:53:38Z</time>
      </trkpt>
      <trkpt lat="44.95951" lon="6.71281">
        <ele>2631.75</ele>
        <time>2017-04-16T08:53:45Z</time>
      </trkpt>
      <trkpt lat="44.95951" lon="6.71279">
        <ele>2632.23</ele>
        <time>2017-04-16T08:53:54Z</time>
      </trkpt>
      <trkpt lat="44.9595" lon="6.71277">
        <ele>2630.79</ele>
        <time>2017-04-16T08:53:57Z</time>
      </trkpt>
      <trkpt lat="44.95944" lon="6.71272">
        <ele>2633.19</ele>
        <time>2017-04-16T08:54:10Z</time>
      </trkpt>
      <trkpt lat="44.95938" lon="6.7127">
        <ele>2636.55</ele>
        <time>2017-04-16T08:54:24Z</time>
      </trkpt>
      <trkpt lat="44.95938" lon="6.7127">
        <ele>2637.51</ele>
        <time>2017-04-16T08:54:26Z</time>
      </trkpt>
      <trkpt lat="44.95937" lon="6.71269">
        <ele>2634.63</ele>
        <time>2017-04-16T08:54:28Z</time>
      </trkpt>
      <trkpt lat="44.95933" lon="6.71265">
        <ele>2634.15</ele>
        <time>2017-04-16T08:54:42Z</time>
      </trkpt>
      <trkpt lat="44.95932" lon="6.71266">
        <ele>2639.44</ele>
        <time>2017-04-16T08:54:49Z</time>
      </trkpt>
      <trkpt lat="44.95932" lon="6.71266">
        <ele>2637.99</ele>
        <time>2017-04-16T08:54:50Z</time>
      </trkpt>
      <trkpt lat="44.9593" lon="6.71264">
        <ele>2635.59</ele>
        <time>2017-04-16T08:54:58Z</time>
      </trkpt>
      <trkpt lat="44.95923" lon="6.71259">
        <ele>2637.03</ele>
        <time>2017-04-16T08:55:17Z</time>
      </trkpt>
      <trkpt lat="44.95917" lon="6.71253">
        <ele>2638.48</ele>
        <time>2017-04-16T08:55:33Z</time>
      </trkpt>
      <trkpt lat="44.95913" lon="6.71251">
        <ele>2640.4</ele>
        <time>2017-04-16T08:55:45Z</time>
      </trkpt>
      <trkpt lat="44.95908" lon="6.71247">
        <ele>2640.88</ele>
        <time>2017-04-16T08:56:02Z</time>
      </trkpt>
      <trkpt lat="44.95901" lon="6.71243">
        <ele>2642.8</ele>
        <time>2017-04-16T08:56:19Z</time>
      </trkpt>
      <trkpt lat="44.95898" lon="6.71243">
        <ele>2642.32</ele>
        <time>2017-04-16T08:56:24Z</time>
      </trkpt>
      <trkpt lat="44.95894" lon="6.7124">
        <ele>2645.69</ele>
        <time>2017-04-16T08:56:36Z</time>
      </trkpt>
      <trkpt lat="44.95891" lon="6.71236">
        <ele>2647.13</ele>
        <time>2017-04-16T08:56:57Z</time>
      </trkpt>
      <trkpt lat="44.95887" lon="6.71233">
        <ele>2650.49</ele>
        <time>2017-04-16T08:57:07Z</time>
      </trkpt>
      <trkpt lat="44.95884" lon="6.71237">
        <ele>2650.01</ele>
        <time>2017-04-16T08:57:18Z</time>
      </trkpt>
      <trkpt lat="44.9588" lon="6.71235">
        <ele>2650.01</ele>
        <time>2017-04-16T08:57:32Z</time>
      </trkpt>
      <trkpt lat="44.95876" lon="6.71229">
        <ele>2651.45</ele>
        <time>2017-04-16T08:57:47Z</time>
      </trkpt>
      <trkpt lat="44.95874" lon="6.71232">
        <ele>2655.78</ele>
        <time>2017-04-16T08:57:53Z</time>
      </trkpt>
      <trkpt lat="44.95874" lon="6.71233">
        <ele>2655.78</ele>
        <time>2017-04-16T08:57:54Z</time>
      </trkpt>
      <trkpt lat="44.95868" lon="6.71233">
        <ele>2655.3</ele>
        <time>2017-04-16T08:58:11Z</time>
      </trkpt>
      <trkpt lat="44.95868" lon="6.71232">
        <ele>2659.62</ele>
        <time>2017-04-16T08:58:15Z</time>
      </trkpt>
      <trkpt lat="44.95868" lon="6.71232">
        <ele>2659.14</ele>
        <time>2017-04-16T08:58:16Z</time>
      </trkpt>
      <trkpt lat="44.95867" lon="6.7123">
        <ele>2654.34</ele>
        <time>2017-04-16T08:58:30Z</time>
      </trkpt>
      <trkpt lat="44.95866" lon="6.7123">
        <ele>2654.34</ele>
        <time>2017-04-16T08:58:31Z</time>
      </trkpt>
      <trkpt lat="44.95864" lon="6.71229">
        <ele>2658.18</ele>
        <time>2017-04-16T08:58:39Z</time>
      </trkpt>
      <trkpt lat="44.95864" lon="6.71229">
        <ele>2657.7</ele>
        <time>2017-04-16T08:58:40Z</time>
      </trkpt>
      <trkpt lat="44.95859" lon="6.71231">
        <ele>2657.7</ele>
        <time>2017-04-16T08:58:53Z</time>
      </trkpt>
      <trkpt lat="44.95855" lon="6.7123">
        <ele>2661.55</ele>
        <time>2017-04-16T08:59:05Z</time>
      </trkpt>
      <trkpt lat="44.95855" lon="6.71229">
        <ele>2661.07</ele>
        <time>2017-04-16T08:59:06Z</time>
      </trkpt>
      <trkpt lat="44.95854" lon="6.71222">
        <ele>2660.11</ele>
        <time>2017-04-16T08:59:19Z</time>
      </trkpt>
      <trkpt lat="44.9585" lon="6.71219">
        <ele>2663.47</ele>
        <time>2017-04-16T08:59:27Z</time>
      </trkpt>
      <trkpt lat="44.95847" lon="6.71223">
        <ele>2663.95</ele>
        <time>2017-04-16T08:59:40Z</time>
      </trkpt>
      <trkpt lat="44.9584" lon="6.71221">
        <ele>2664.43</ele>
        <time>2017-04-16T08:59:57Z</time>
      </trkpt>
      <trkpt lat="44.95837" lon="6.71218">
        <ele>2669.24</ele>
        <time>2017-04-16T09:00:08Z</time>
      </trkpt>
      <trkpt lat="44.95837" lon="6.71218">
        <ele>2668.76</ele>
        <time>2017-04-16T09:00:09Z</time>
      </trkpt>
      <trkpt lat="44.95836" lon="6.71215">
        <ele>2665.87</ele>
        <time>2017-04-16T09:00:16Z</time>
      </trkpt>
      <trkpt lat="44.95832" lon="6.71214">
        <ele>2665.87</ele>
        <time>2017-04-16T09:00:28Z</time>
      </trkpt>
      <trkpt lat="44.95826" lon="6.71207">
        <ele>2667.8</ele>
        <time>2017-04-16T09:00:42Z</time>
      </trkpt>
      <trkpt lat="44.95823" lon="6.71204">
        <ele>2671.16</ele>
        <time>2017-04-16T09:00:50Z</time>
      </trkpt>
      <trkpt lat="44.95821" lon="6.71202">
        <ele>2666.83</ele>
        <time>2017-04-16T09:00:54Z</time>
      </trkpt>
      <trkpt lat="44.95816" lon="6.712">
        <ele>2668.76</ele>
        <time>2017-04-16T09:01:04Z</time>
      </trkpt>
      <trkpt lat="44.9581" lon="6.71196">
        <ele>2669.24</ele>
        <time>2017-04-16T09:01:16Z</time>
      </trkpt>
      <trkpt lat="44.95801" lon="6.71191">
        <ele>2669.24</ele>
        <time>2017-04-16T09:01:32Z</time>
      </trkpt>
      <trkpt lat="44.95802" lon="6.71191">
        <ele>2671.16</ele>
        <time>2017-04-16T09:01:42Z</time>
      </trkpt>
      <trkpt lat="44.95801" lon="6.7119">
        <ele>2669.24</ele>
        <time>2017-04-16T09:02:02Z</time>
      </trkpt>
      <trkpt lat="44.95802" lon="6.71189">
        <ele>2670.68</ele>
        <time>2017-04-16T09:02:11Z</time>
      </trkpt>
      <trkpt lat="44.95802" lon="6.71189">
        <ele>2670.2</ele>
        <time>2017-04-16T09:02:32Z</time>
      </trkpt>
      <trkpt lat="44.95802" lon="6.7119">
        <ele>2670.68</ele>
        <time>2017-04-16T09:02:52Z</time>
      </trkpt>
      <trkpt lat="44.95802" lon="6.7119">
        <ele>2670.68</ele>
        <time>2017-04-16T09:03:12Z</time>
      </trkpt>
      <trkpt lat="44.95803" lon="6.7119">
        <ele>2670.68</ele>
        <time>2017-04-16T09:03:35Z</time>
      </trkpt>
      <trkpt lat="44.958" lon="6.71187">
        <ele>2670.2</ele>
        <time>2017-04-16T09:03:49Z</time>
      </trkpt>
      <trkpt lat="44.958" lon="6.71188">
        <ele>2669.24</ele>
        <time>2017-04-16T09:04:08Z</time>
      </trkpt>
      <trkpt lat="44.95799" lon="6.71186">
        <ele>2668.28</ele>
        <time>2017-04-16T09:04:11Z</time>
      </trkpt>
      <trkpt lat="44.95797" lon="6.71184">
        <ele>2669.72</ele>
        <time>2017-04-16T09:04:14Z</time>
      </trkpt>
      <trkpt lat="44.95791" lon="6.71175">
        <ele>2668.76</ele>
        <time>2017-04-16T09:04:26Z</time>
      </trkpt>
      <trkpt lat="44.95782" lon="6.71169">
        <ele>2667.8</ele>
        <time>2017-04-16T09:04:40Z</time>
      </trkpt>
      <trkpt lat="44.95782" lon="6.7117">
        <ele>2667.31</ele>
        <time>2017-04-16T09:04:43Z</time>
      </trkpt>
      <trkpt lat="44.9577" lon="6.71165">
        <ele>2668.28</ele>
        <time>2017-04-16T09:04:59Z</time>
      </trkpt>
      <trkpt lat="44.95762" lon="6.71157">
        <ele>2669.72</ele>
        <time>2017-04-16T09:05:18Z</time>
      </trkpt>
      <trkpt lat="44.95761" lon="6.71156">
        <ele>2670.68</ele>
        <time>2017-04-16T09:05:20Z</time>
      </trkpt>
      <trkpt lat="44.95756" lon="6.71149">
        <ele>2670.68</ele>
        <time>2017-04-16T09:05:34Z</time>
      </trkpt>
      <trkpt lat="44.95753" lon="6.71146">
        <ele>2672.12</ele>
        <time>2017-04-16T09:05:44Z</time>
      </trkpt>
      <trkpt lat="44.95749" lon="6.71143">
        <ele>2675.49</ele>
        <time>2017-04-16T09:05:59Z</time>
      </trkpt>
      <trkpt lat="44.95749" lon="6.71146">
        <ele>2678.85</ele>
        <time>2017-04-16T09:06:03Z</time>
      </trkpt>
      <trkpt lat="44.95747" lon="6.71151">
        <ele>2676.45</ele>
        <time>2017-04-16T09:06:18Z</time>
      </trkpt>
      <trkpt lat="44.95744" lon="6.71144">
        <ele>2676.45</ele>
        <time>2017-04-16T09:06:30Z</time>
      </trkpt>
      <trkpt lat="44.95742" lon="6.71141">
        <ele>2675.97</ele>
        <time>2017-04-16T09:06:36Z</time>
      </trkpt>
      <trkpt lat="44.9574" lon="6.71138">
        <ele>2678.37</ele>
        <time>2017-04-16T09:06:42Z</time>
      </trkpt>
      <trkpt lat="44.95738" lon="6.71133">
        <ele>2679.81</ele>
        <time>2017-04-16T09:06:57Z</time>
      </trkpt>
      <trkpt lat="44.95734" lon="6.71127">
        <ele>2682.22</ele>
        <time>2017-04-16T09:07:12Z</time>
      </trkpt>
      <trkpt lat="44.95731" lon="6.71121">
        <ele>2684.62</ele>
        <time>2017-04-16T09:07:25Z</time>
      </trkpt>
      <trkpt lat="44.95731" lon="6.71122">
        <ele>2687.02</ele>
        <time>2017-04-16T09:07:27Z</time>
      </trkpt>
      <trkpt lat="44.95731" lon="6.71122">
        <ele>2684.14</ele>
        <time>2017-04-16T09:07:35Z</time>
      </trkpt>
      <trkpt lat="44.95727" lon="6.71115">
        <ele>2684.14</ele>
        <time>2017-04-16T09:07:50Z</time>
      </trkpt>
      <trkpt lat="44.95726" lon="6.71113">
        <ele>2687.5</ele>
        <time>2017-04-16T09:07:54Z</time>
      </trkpt>
      <trkpt lat="44.95725" lon="6.71113">
        <ele>2687.02</ele>
        <time>2017-04-16T09:07:55Z</time>
      </trkpt>
      <trkpt lat="44.95724" lon="6.7111">
        <ele>2688.46</ele>
        <time>2017-04-16T09:08:02Z</time>
      </trkpt>
      <trkpt lat="44.95722" lon="6.7111">
        <ele>2690.39</ele>
        <time>2017-04-16T09:08:05Z</time>
      </trkpt>
      <trkpt lat="44.95715" lon="6.71104">
        <ele>2691.35</ele>
        <time>2017-04-16T09:08:18Z</time>
      </trkpt>
      <trkpt lat="44.95707" lon="6.71098">
        <ele>2690.39</ele>
        <time>2017-04-16T09:08:32Z</time>
      </trkpt>
      <trkpt lat="44.95702" lon="6.71094">
        <ele>2692.31</ele>
        <time>2017-04-16T09:08:40Z</time>
      </trkpt>
      <trkpt lat="44.95694" lon="6.71088">
        <ele>2693.27</ele>
        <time>2017-04-16T09:08:55Z</time>
      </trkpt>
      <trkpt lat="44.95689" lon="6.71086">
        <ele>2689.43</ele>
        <time>2017-04-16T09:09:03Z</time>
      </trkpt>
      <trkpt lat="44.95686" lon="6.71084">
        <ele>2689.43</ele>
        <time>2017-04-16T09:09:10Z</time>
      </trkpt>
      <trkpt lat="44.95686" lon="6.71083">
        <ele>2690.87</ele>
        <time>2017-04-16T09:09:12Z</time>
      </trkpt>
      <trkpt lat="44.95677" lon="6.71076">
        <ele>2691.35</ele>
        <time>2017-04-16T09:09:27Z</time>
      </trkpt>
      <trkpt lat="44.95676" lon="6.71077">
        <ele>2692.31</ele>
        <time>2017-04-16T09:09:36Z</time>
      </trkpt>
      <trkpt lat="44.95676" lon="6.71079">
        <ele>2689.91</ele>
        <time>2017-04-16T09:10:01Z</time>
      </trkpt>
      <trkpt lat="44.95677" lon="6.71079">
        <ele>2693.27</ele>
        <time>2017-04-16T09:10:08Z</time>
      </trkpt>
      <trkpt lat="44.95677" lon="6.71079">
        <ele>2691.35</ele>
        <time>2017-04-16T09:10:16Z</time>
      </trkpt>
      <trkpt lat="44.95678" lon="6.71079">
        <ele>2691.83</ele>
        <time>2017-04-16T09:10:51Z</time>
      </trkpt>
      <trkpt lat="44.95679" lon="6.71079">
        <ele>2695.67</ele>
        <time>2017-04-16T09:11:08Z</time>
      </trkpt>
      <trkpt lat="44.95679" lon="6.71079">
        <ele>2695.67</ele>
        <time>2017-04-16T09:11:09Z</time>
      </trkpt>
      <trkpt lat="44.9568" lon="6.71079">
        <ele>2696.15</ele>
        <time>2017-04-16T09:11:33Z</time>
      </trkpt>
      <trkpt lat="44.9568" lon="6.71078">
        <ele>2695.19</ele>
        <time>2017-04-16T09:11:37Z</time>
      </trkpt>
      <trkpt lat="44.9568" lon="6.71078">
        <ele>2691.83</ele>
        <time>2017-04-16T09:11:42Z</time>
      </trkpt>
      <trkpt lat="44.9568" lon="6.71078">
        <ele>2692.79</ele>
        <time>2017-04-16T09:12:20Z</time>
      </trkpt>
      <trkpt lat="44.95683" lon="6.71084">
        <ele>2692.79</ele>
        <time>2017-04-16T09:12:39Z</time>
      </trkpt>
      <trkpt lat="44.95682" lon="6.71086">
        <ele>2693.27</ele>
        <time>2017-04-16T09:13:10Z</time>
      </trkpt>
      <trkpt lat="44.95694" lon="6.71091">
        <ele>2693.75</ele>
        <time>2017-04-16T09:13:26Z</time>
      </trkpt>
      <trkpt lat="44.95694" lon="6.71094">
        <ele>2690.39</ele>
        <time>2017-04-16T09:13:39Z</time>
      </trkpt>
      <trkpt lat="44.95694" lon="6.71094">
        <ele>2695.67</ele>
        <time>2017-04-16T09:13:40Z</time>
      </trkpt>
      <trkpt lat="44.95694" lon="6.71094">
        <ele>2691.83</ele>
        <time>2017-04-16T09:13:43Z</time>
      </trkpt>
      <trkpt lat="44.95694" lon="6.71096">
        <ele>2693.27</ele>
        <time>2017-04-16T09:14:01Z</time>
      </trkpt>
      <trkpt lat="44.95695" lon="6.71092">
        <ele>2691.35</ele>
        <time>2017-04-16T09:14:05Z</time>
      </trkpt>
      <trkpt lat="44.95694" lon="6.71094">
        <ele>2692.31</ele>
        <time>2017-04-16T09:14:49Z</time>
      </trkpt>
      <trkpt lat="44.95694" lon="6.71094">
        <ele>2690.87</ele>
        <time>2017-04-16T09:15:20Z</time>
      </trkpt>
      <trkpt lat="44.95693" lon="6.71096">
        <ele>2690.39</ele>
        <time>2017-04-16T09:15:58Z</time>
      </trkpt>
      <trkpt lat="44.95693" lon="6.71096">
        <ele>2690.39</ele>
        <time>2017-04-16T09:16:36Z</time>
      </trkpt>
      <trkpt lat="44.95693" lon="6.71095">
        <ele>2690.87</ele>
        <time>2017-04-16T09:17:17Z</time>
      </trkpt>
      <trkpt lat="44.95698" lon="6.71093">
        <ele>2691.35</ele>
        <time>2017-04-16T09:17:53Z</time>
      </trkpt>
      <trkpt lat="44.95696" lon="6.71095">
        <ele>2691.35</ele>
        <time>2017-04-16T09:18:36Z</time>
      </trkpt>
      <trkpt lat="44.95695" lon="6.71095">
        <ele>2691.35</ele>
        <time>2017-04-16T09:19:02Z</time>
      </trkpt>
      <trkpt lat="44.95695" lon="6.71095">
        <ele>2691.83</ele>
        <time>2017-04-16T09:19:35Z</time>
      </trkpt>
      <trkpt lat="44.95694" lon="6.71096">
        <ele>2694.71</ele>
        <time>2017-04-16T09:19:51Z</time>
      </trkpt>
      <trkpt lat="44.95691" lon="6.71098">
        <ele>2693.27</ele>
        <time>2017-04-16T09:19:54Z</time>
      </trkpt>
      <trkpt lat="44.9569" lon="6.71098">
        <ele>2694.71</ele>
        <time>2017-04-16T09:20:14Z</time>
      </trkpt>
      <trkpt lat="44.95692" lon="6.71098">
        <ele>2695.19</ele>
        <time>2017-04-16T09:20:28Z</time>
      </trkpt>
      <trkpt lat="44.95692" lon="6.71098">
        <ele>2692.79</ele>
        <time>2017-04-16T09:20:48Z</time>
      </trkpt>
      <trkpt lat="44.95694" lon="6.71097">
        <ele>2694.71</ele>
        <time>2017-04-16T09:21:02Z</time>
      </trkpt>
      <trkpt lat="44.95694" lon="6.71097">
        <ele>2694.71</ele>
        <time>2017-04-16T09:21:20Z</time>
      </trkpt>
      <trkpt lat="44.957" lon="6.71094">
        <ele>2696.15</ele>
        <time>2017-04-16T09:21:40Z</time>
      </trkpt>
      <trkpt lat="44.95703" lon="6.71096">
        <ele>2695.67</ele>
        <time>2017-04-16T09:21:45Z</time>
      </trkpt>
      <trkpt lat="44.95721" lon="6.71109">
        <ele>2693.27</ele>
        <time>2017-04-16T09:21:55Z</time>
      </trkpt>
      <trkpt lat="44.95724" lon="6.71114">
        <ele>2691.83</ele>
        <time>2017-04-16T09:22:01Z</time>
      </trkpt>
      <trkpt lat="44.95731" lon="6.71122">
        <ele>2688.94</ele>
        <time>2017-04-16T09:22:05Z</time>
      </trkpt>
      <trkpt lat="44.95743" lon="6.71134">
        <ele>2683.66</ele>
        <time>2017-04-16T09:22:10Z</time>
      </trkpt>
      <trkpt lat="44.95751" lon="6.71148">
        <ele>2679.81</ele>
        <time>2017-04-16T09:22:14Z</time>
      </trkpt>
      <trkpt lat="44.95756" lon="6.71153">
        <ele>2677.89</ele>
        <time>2017-04-16T09:22:16Z</time>
      </trkpt>
      <trkpt lat="44.95772" lon="6.71169">
        <ele>2675.01</ele>
        <time>2017-04-16T09:22:19Z</time>
      </trkpt>
      <trkpt lat="44.95785" lon="6.71175">
        <ele>2673.08</ele>
        <time>2017-04-16T09:22:21Z</time>
      </trkpt>
      <trkpt lat="44.95795" lon="6.71181">
        <ele>2670.2</ele>
        <time>2017-04-16T09:22:24Z</time>
      </trkpt>
      <trkpt lat="44.95799" lon="6.71192">
        <ele>2672.12</ele>
        <time>2017-04-16T09:22:37Z</time>
      </trkpt>
      <trkpt lat="44.95801" lon="6.71191">
        <ele>2672.12</ele>
        <time>2017-04-16T09:22:53Z</time>
      </trkpt>
      <trkpt lat="44.95801" lon="6.7119">
        <ele>2672.12</ele>
        <time>2017-04-16T09:23:16Z</time>
      </trkpt>
      <trkpt lat="44.95802" lon="6.71188">
        <ele>2671.64</ele>
        <time>2017-04-16T09:23:43Z</time>
      </trkpt>
      <trkpt lat="44.95801" lon="6.71188">
        <ele>2671.16</ele>
        <time>2017-04-16T09:23:44Z</time>
      </trkpt>
      <trkpt lat="44.958" lon="6.71187">
        <ele>2670.68</ele>
        <time>2017-04-16T09:24:04Z</time>
      </trkpt>
      <trkpt lat="44.95801" lon="6.71187">
        <ele>2672.12</ele>
        <time>2017-04-16T09:24:07Z</time>
      </trkpt>
      <trkpt lat="44.95802" lon="6.71187">
        <ele>2672.12</ele>
        <time>2017-04-16T09:24:30Z</time>
      </trkpt>
      <trkpt lat="44.95803" lon="6.71188">
        <ele>2672.12</ele>
        <time>2017-04-16T09:24:44Z</time>
      </trkpt>
      <trkpt lat="44.95802" lon="6.71189">
        <ele>2673.08</ele>
        <time>2017-04-16T09:24:50Z</time>
      </trkpt>
      <trkpt lat="44.95802" lon="6.71188">
        <ele>2672.12</ele>
        <time>2017-04-16T09:25:22Z</time>
      </trkpt>
      <trkpt lat="44.95802" lon="6.71188">
        <ele>2671.16</ele>
        <time>2017-04-16T09:25:40Z</time>
      </trkpt>
      <trkpt lat="44.95801" lon="6.71188">
        <ele>2670.68</ele>
        <time>2017-04-16T09:26:02Z</time>
      </trkpt>
      <trkpt lat="44.95802" lon="6.71188">
        <ele>2671.16</ele>
        <time>2017-04-16T09:26:21Z</time>
      </trkpt>
      <trkpt lat="44.95801" lon="6.71189">
        <ele>2672.12</ele>
        <time>2017-04-16T09:26:43Z</time>
      </trkpt>
      <trkpt lat="44.95802" lon="6.7119">
        <ele>2671.16</ele>
        <time>2017-04-16T09:27:00Z</time>
      </trkpt>
      <trkpt lat="44.95802" lon="6.7119">
        <ele>2671.16</ele>
        <time>2017-04-16T09:27:24Z</time>
      </trkpt>
      <trkpt lat="44.95803" lon="6.71189">
        <ele>2671.64</ele>
        <time>2017-04-16T09:27:44Z</time>
      </trkpt>
      <trkpt lat="44.95802" lon="6.71191">
        <ele>2672.12</ele>
        <time>2017-04-16T09:27:59Z</time>
      </trkpt>
      <trkpt lat="44.95803" lon="6.7119">
        <ele>2671.64</ele>
        <time>2017-04-16T09:28:18Z</time>
      </trkpt>
      <trkpt lat="44.95803" lon="6.7119">
        <ele>2670.2</ele>
        <time>2017-04-16T09:28:23Z</time>
      </trkpt>
      <trkpt lat="44.95802" lon="6.7119">
        <ele>2669.24</ele>
        <time>2017-04-16T09:28:41Z</time>
      </trkpt>
      <trkpt lat="44.95802" lon="6.7119">
        <ele>2668.76</ele>
        <time>2017-04-16T09:29:01Z</time>
      </trkpt>
      <trkpt lat="44.95803" lon="6.71192">
        <ele>2668.76</ele>
        <time>2017-04-16T09:29:26Z</time>
      </trkpt>
      <trkpt lat="44.95804" lon="6.71193">
        <ele>2669.72</ele>
        <time>2017-04-16T09:29:45Z</time>
      </trkpt>
      <trkpt lat="44.95811" lon="6.71196">
        <ele>2671.64</ele>
        <time>2017-04-16T09:29:52Z</time>
      </trkpt>
      <trkpt lat="44.9583" lon="6.71205">
        <ele>2666.35</ele>
        <time>2017-04-16T09:30:00Z</time>
      </trkpt>
      <trkpt lat="44.95832" lon="6.71207">
        <ele>2669.72</ele>
        <time>2017-04-16T09:30:01Z</time>
      </trkpt>
      <trkpt lat="44.95833" lon="6.71214">
        <ele>2669.72</ele>
        <time>2017-04-16T09:30:08Z</time>
      </trkpt>
      <trkpt lat="44.95838" lon="6.71216">
        <ele>2669.24</ele>
        <time>2017-04-16T09:30:12Z</time>
      </trkpt>
      <trkpt lat="44.95842" lon="6.71221">
        <ele>2667.31</ele>
        <time>2017-04-16T09:30:15Z</time>
      </trkpt>
      <trkpt lat="44.9585" lon="6.71222">
        <ele>2671.64</ele>
        <time>2017-04-16T09:30:18Z</time>
      </trkpt>
      <trkpt lat="44.95853" lon="6.71221">
        <ele>2667.8</ele>
        <time>2017-04-16T09:30:19Z</time>
      </trkpt>
      <trkpt lat="44.95856" lon="6.71222">
        <ele>2663.47</ele>
        <time>2017-04-16T09:30:20Z</time>
      </trkpt>
      <trkpt lat="44.9586" lon="6.71227">
        <ele>2659.14</ele>
        <time>2017-04-16T09:30:22Z</time>
      </trkpt>
      <trkpt lat="44.95858" lon="6.71228">
        <ele>2657.22</ele>
        <time>2017-04-16T09:30:26Z</time>
      </trkpt>
      <trkpt lat="44.95858" lon="6.71228">
        <ele>2657.22</ele>
        <time>2017-04-16T09:30:32Z</time>
      </trkpt>
      <trkpt lat="44.95858" lon="6.71228">
        <ele>2658.18</ele>
        <time>2017-04-16T09:30:46Z</time>
      </trkpt>
      <trkpt lat="44.95858" lon="6.71229">
        <ele>2656.26</ele>
        <time>2017-04-16T09:30:52Z</time>
      </trkpt>
      <trkpt lat="44.95858" lon="6.71229">
        <ele>2657.7</ele>
        <time>2017-04-16T09:30:55Z</time>
      </trkpt>
      <trkpt lat="44.95857" lon="6.7123">
        <ele>2654.82</ele>
        <time>2017-04-16T09:31:05Z</time>
      </trkpt>
      <trkpt lat="44.95857" lon="6.71231">
        <ele>2655.3</ele>
        <time>2017-04-16T09:31:06Z</time>
      </trkpt>
      <trkpt lat="44.95857" lon="6.71231">
        <ele>2655.3</ele>
        <time>2017-04-16T09:31:22Z</time>
      </trkpt>
      <trkpt lat="44.95857" lon="6.71231">
        <ele>2658.18</ele>
        <time>2017-04-16T09:31:25Z</time>
      </trkpt>
      <trkpt lat="44.95857" lon="6.71232">
        <ele>2658.66</ele>
        <time>2017-04-16T09:31:26Z</time>
      </trkpt>
      <trkpt lat="44.95856" lon="6.71232">
        <ele>2654.82</ele>
        <time>2017-04-16T09:31:38Z</time>
      </trkpt>
      <trkpt lat="44.95856" lon="6.71232">
        <ele>2658.66</ele>
        <time>2017-04-16T09:31:39Z</time>
      </trkpt>
      <trkpt lat="44.95857" lon="6.71233">
        <ele>2658.66</ele>
        <time>2017-04-16T09:31:42Z</time>
      </trkpt>
      <trkpt lat="44.95867" lon="6.71228">
        <ele>2658.66</ele>
        <time>2017-04-16T09:31:52Z</time>
      </trkpt>
      <trkpt lat="44.9587" lon="6.71228">
        <ele>2659.62</ele>
        <time>2017-04-16T09:31:58Z</time>
      </trkpt>
      <trkpt lat="44.95878" lon="6.71232">
        <ele>2655.3</ele>
        <time>2017-04-16T09:32:01Z</time>
      </trkpt>
      <trkpt lat="44.95882" lon="6.71232">
        <ele>2654.82</ele>
        <time>2017-04-16T09:32:02Z</time>
      </trkpt>
      <trkpt lat="44.9589" lon="6.71233">
        <ele>2650.49</ele>
        <time>2017-04-16T09:32:04Z</time>
      </trkpt>
      <trkpt lat="44.95894" lon="6.71238">
        <ele>2647.61</ele>
        <time>2017-04-16T09:32:06Z</time>
      </trkpt>
      <trkpt lat="44.95894" lon="6.71239">
        <ele>2645.21</ele>
        <time>2017-04-16T09:32:10Z</time>
      </trkpt>
      <trkpt lat="44.95893" lon="6.71239">
        <ele>2646.65</ele>
        <time>2017-04-16T09:32:19Z</time>
      </trkpt>
      <trkpt lat="44.95893" lon="6.7124">
        <ele>2644.72</ele>
        <time>2017-04-16T09:32:41Z</time>
      </trkpt>
      <trkpt lat="44.95893" lon="6.71239">
        <ele>2641.36</ele>
        <time>2017-04-16T09:32:44Z</time>
      </trkpt>
      <trkpt lat="44.95893" lon="6.71239">
        <ele>2641.36</ele>
        <time>2017-04-16T09:32:45Z</time>
      </trkpt>
      <trkpt lat="44.95893" lon="6.7124">
        <ele>2647.61</ele>
        <time>2017-04-16T09:32:50Z</time>
      </trkpt>
      <trkpt lat="44.95893" lon="6.7124">
        <ele>2647.61</ele>
        <time>2017-04-16T09:32:51Z</time>
      </trkpt>
      <trkpt lat="44.95893" lon="6.7124">
        <ele>2643.76</ele>
        <time>2017-04-16T09:33:00Z</time>
      </trkpt>
      <trkpt lat="44.95892" lon="6.71239">
        <ele>2646.65</ele>
        <time>2017-04-16T09:33:04Z</time>
      </trkpt>
      <trkpt lat="44.95893" lon="6.71241">
        <ele>2650.01</ele>
        <time>2017-04-16T09:33:22Z</time>
      </trkpt>
      <trkpt lat="44.95892" lon="6.71241">
        <ele>2650.97</ele>
        <time>2017-04-16T09:33:26Z</time>
      </trkpt>
      <trkpt lat="44.95892" lon="6.71242">
        <ele>2647.61</ele>
        <time>2017-04-16T09:33:38Z</time>
      </trkpt>
      <trkpt lat="44.95891" lon="6.71243">
        <ele>2645.69</ele>
        <time>2017-04-16T09:33:53Z</time>
      </trkpt>
      <trkpt lat="44.9589" lon="6.71244">
        <ele>2649.05</ele>
        <time>2017-04-16T09:34:19Z</time>
      </trkpt>
      <trkpt lat="44.9589" lon="6.71244">
        <ele>2646.17</ele>
        <time>2017-04-16T09:34:22Z</time>
      </trkpt>
      <trkpt lat="44.9589" lon="6.71243">
        <ele>2647.61</ele>
        <time>2017-04-16T09:34:57Z</time>
      </trkpt>
      <trkpt lat="44.95891" lon="6.71243">
        <ele>2649.05</ele>
        <time>2017-04-16T09:35:27Z</time>
      </trkpt>
      <trkpt lat="44.95892" lon="6.71243">
        <ele>2649.53</ele>
        <time>2017-04-16T09:35:39Z</time>
      </trkpt>
      <trkpt lat="44.95893" lon="6.71243">
        <ele>2648.57</ele>
        <time>2017-04-16T09:35:43Z</time>
      </trkpt>
      <trkpt lat="44.95892" lon="6.71242">
        <ele>2646.17</ele>
        <time>2017-04-16T09:36:13Z</time>
      </trkpt>
      <trkpt lat="44.95891" lon="6.71242">
        <ele>2644.24</ele>
        <time>2017-04-16T09:36:18Z</time>
      </trkpt>
      <trkpt lat="44.95891" lon="6.71243">
        <ele>2645.69</ele>
        <time>2017-04-16T09:36:21Z</time>
      </trkpt>
      <trkpt lat="44.95893" lon="6.71242">
        <ele>2647.61</ele>
        <time>2017-04-16T09:36:53Z</time>
      </trkpt>
      <trkpt lat="44.95891" lon="6.71242">
        <ele>2649.05</ele>
        <time>2017-04-16T09:37:06Z</time>
      </trkpt>
      <trkpt lat="44.95892" lon="6.7124">
        <ele>2646.65</ele>
        <time>2017-04-16T09:37:37Z</time>
      </trkpt>
      <trkpt lat="44.95893" lon="6.71241">
        <ele>2646.17</ele>
        <time>2017-04-16T09:37:43Z</time>
      </trkpt>
      <trkpt lat="44.95885" lon="6.71252">
        <ele>2640.88</ele>
        <time>2017-04-16T09:37:48Z</time>
      </trkpt>
      <trkpt lat="44.95886" lon="6.71262">
        <ele>2637.51</ele>
        <time>2017-04-16T09:37:51Z</time>
      </trkpt>
      <trkpt lat="44.95889" lon="6.71266">
        <ele>2635.11</ele>
        <time>2017-04-16T09:37:53Z</time>
      </trkpt>
      <trkpt lat="44.95894" lon="6.71263">
        <ele>2635.59</ele>
        <time>2017-04-16T09:38:10Z</time>
      </trkpt>
      <trkpt lat="44.95891" lon="6.71263">
        <ele>2634.63</ele>
        <time>2017-04-16T09:38:34Z</time>
      </trkpt>
      <trkpt lat="44.95892" lon="6.71264">
        <ele>2635.11</ele>
        <time>2017-04-16T09:38:47Z</time>
      </trkpt>
      <trkpt lat="44.95889" lon="6.71276">
        <ele>2632.71</ele>
        <time>2017-04-16T09:38:51Z</time>
      </trkpt>
      <trkpt lat="44.9589" lon="6.71286">
        <ele>2628.38</ele>
        <time>2017-04-16T09:38:54Z</time>
      </trkpt>
      <trkpt lat="44.9589" lon="6.71293">
        <ele>2624.06</ele>
        <time>2017-04-16T09:38:56Z</time>
      </trkpt>
      <trkpt lat="44.95889" lon="6.71303">
        <ele>2619.73</ele>
        <time>2017-04-16T09:38:59Z</time>
      </trkpt>
      <trkpt lat="44.9589" lon="6.7131">
        <ele>2616.85</ele>
        <time>2017-04-16T09:39:01Z</time>
      </trkpt>
      <trkpt lat="44.95887" lon="6.71319">
        <ele>2611.56</ele>
        <time>2017-04-16T09:39:04Z</time>
      </trkpt>
      <trkpt lat="44.95887" lon="6.71322">
        <ele>2611.56</ele>
        <time>2017-04-16T09:39:05Z</time>
      </trkpt>
      <trkpt lat="44.95887" lon="6.71329">
        <ele>2607.23</ele>
        <time>2017-04-16T09:39:07Z</time>
      </trkpt>
      <trkpt lat="44.95887" lon="6.71332">
        <ele>2606.75</ele>
        <time>2017-04-16T09:39:08Z</time>
      </trkpt>
      <trkpt lat="44.95884" lon="6.71339">
        <ele>2603.87</ele>
        <time>2017-04-16T09:39:10Z</time>
      </trkpt>
      <trkpt lat="44.95884" lon="6.71343">
        <ele>2600.5</ele>
        <time>2017-04-16T09:39:11Z</time>
      </trkpt>
      <trkpt lat="44.95884" lon="6.71347">
        <ele>2600.5</ele>
        <time>2017-04-16T09:39:12Z</time>
      </trkpt>
      <trkpt lat="44.95881" lon="6.71359">
        <ele>2593.77</ele>
        <time>2017-04-16T09:39:15Z</time>
      </trkpt>
      <trkpt lat="44.95879" lon="6.71365">
        <ele>2590.41</ele>
        <time>2017-04-16T09:39:17Z</time>
      </trkpt>
      <trkpt lat="44.95876" lon="6.71371">
        <ele>2586.56</ele>
        <time>2017-04-16T09:39:19Z</time>
      </trkpt>
      <trkpt lat="44.9588" lon="6.71381">
        <ele>2583.2</ele>
        <time>2017-04-16T09:39:23Z</time>
      </trkpt>
      <trkpt lat="44.95882" lon="6.71385">
        <ele>2584.16</ele>
        <time>2017-04-16T09:39:24Z</time>
      </trkpt>
      <trkpt lat="44.95881" lon="6.71389">
        <ele>2581.28</ele>
        <time>2017-04-16T09:39:25Z</time>
      </trkpt>
      <trkpt lat="44.95878" lon="6.71394">
        <ele>2577.43</ele>
        <time>2017-04-16T09:39:27Z</time>
      </trkpt>
      <trkpt lat="44.95879" lon="6.714">
        <ele>2575.03</ele>
        <time>2017-04-16T09:39:29Z</time>
      </trkpt>
      <trkpt lat="44.95876" lon="6.71403">
        <ele>2571.66</ele>
        <time>2017-04-16T09:39:30Z</time>
      </trkpt>
      <trkpt lat="44.95877" lon="6.71407">
        <ele>2565.9</ele>
        <time>2017-04-16T09:39:33Z</time>
      </trkpt>
      <trkpt lat="44.95879" lon="6.71407">
        <ele>2565.9</ele>
        <time>2017-04-16T09:39:34Z</time>
      </trkpt>
      <trkpt lat="44.9588" lon="6.71403">
        <ele>2566.86</ele>
        <time>2017-04-16T09:39:52Z</time>
      </trkpt>
      <trkpt lat="44.95881" lon="6.71405">
        <ele>2566.86</ele>
        <time>2017-04-16T09:39:54Z</time>
      </trkpt>
      <trkpt lat="44.95874" lon="6.71416">
        <ele>2563.49</ele>
        <time>2017-04-16T09:40:00Z</time>
      </trkpt>
      <trkpt lat="44.9587" lon="6.71428">
        <ele>2559.17</ele>
        <time>2017-04-16T09:40:03Z</time>
      </trkpt>
      <trkpt lat="44.95873" lon="6.71438">
        <ele>2554.84</ele>
        <time>2017-04-16T09:40:05Z</time>
      </trkpt>
      <trkpt lat="44.95871" lon="6.7145">
        <ele>2551</ele>
        <time>2017-04-16T09:40:08Z</time>
      </trkpt>
      <trkpt lat="44.95873" lon="6.71454">
        <ele>2546.67</ele>
        <time>2017-04-16T09:40:09Z</time>
      </trkpt>
      <trkpt lat="44.95875" lon="6.71457">
        <ele>2548.59</ele>
        <time>2017-04-16T09:40:10Z</time>
      </trkpt>
      <trkpt lat="44.95875" lon="6.7146">
        <ele>2545.23</ele>
        <time>2017-04-16T09:40:12Z</time>
      </trkpt>
      <trkpt lat="44.95875" lon="6.71458">
        <ele>2545.71</ele>
        <time>2017-04-16T09:40:13Z</time>
      </trkpt>
      <trkpt lat="44.95875" lon="6.71457">
        <ele>2545.71</ele>
        <time>2017-04-16T09:40:30Z</time>
      </trkpt>
      <trkpt lat="44.95882" lon="6.71469">
        <ele>2544.75</ele>
        <time>2017-04-16T09:40:34Z</time>
      </trkpt>
      <trkpt lat="44.95892" lon="6.71474">
        <ele>2541.38</ele>
        <time>2017-04-16T09:40:39Z</time>
      </trkpt>
      <trkpt lat="44.95906" lon="6.71474">
        <ele>2538.5</ele>
        <time>2017-04-16T09:40:44Z</time>
      </trkpt>
      <trkpt lat="44.95916" lon="6.71499">
        <ele>2536.58</ele>
        <time>2017-04-16T09:40:51Z</time>
      </trkpt>
      <trkpt lat="44.95926" lon="6.71508">
        <ele>2536.1</ele>
        <time>2017-04-16T09:41:02Z</time>
      </trkpt>
      <trkpt lat="44.95924" lon="6.71509">
        <ele>2536.58</ele>
        <time>2017-04-16T09:41:25Z</time>
      </trkpt>
      <trkpt lat="44.95922" lon="6.7151">
        <ele>2535.61</ele>
        <time>2017-04-16T09:41:51Z</time>
      </trkpt>
      <trkpt lat="44.95923" lon="6.71511">
        <ele>2537.06</ele>
        <time>2017-04-16T09:42:17Z</time>
      </trkpt>
      <trkpt lat="44.95922" lon="6.7151">
        <ele>2536.58</ele>
        <time>2017-04-16T09:42:35Z</time>
      </trkpt>
      <trkpt lat="44.95924" lon="6.71511">
        <ele>2535.61</ele>
        <time>2017-04-16T09:43:00Z</time>
      </trkpt>
      <trkpt lat="44.95924" lon="6.71513">
        <ele>2535.61</ele>
        <time>2017-04-16T09:43:20Z</time>
      </trkpt>
      <trkpt lat="44.95924" lon="6.71512">
        <ele>2536.1</ele>
        <time>2017-04-16T09:43:36Z</time>
      </trkpt>
      <trkpt lat="44.95919" lon="6.7153">
        <ele>2533.21</ele>
        <time>2017-04-16T09:43:43Z</time>
      </trkpt>
      <trkpt lat="44.95915" lon="6.71537">
        <ele>2529.37</ele>
        <time>2017-04-16T09:43:45Z</time>
      </trkpt>
      <trkpt lat="44.95911" lon="6.71545">
        <ele>2527.44</ele>
        <time>2017-04-16T09:43:47Z</time>
      </trkpt>
      <trkpt lat="44.95903" lon="6.71559">
        <ele>2521.68</ele>
        <time>2017-04-16T09:43:50Z</time>
      </trkpt>
      <trkpt lat="44.95896" lon="6.71566">
        <ele>2518.31</ele>
        <time>2017-04-16T09:43:52Z</time>
      </trkpt>
      <trkpt lat="44.95896" lon="6.71584">
        <ele>2515.43</ele>
        <time>2017-04-16T09:43:55Z</time>
      </trkpt>
      <trkpt lat="44.95901" lon="6.71608">
        <ele>2513.5</ele>
        <time>2017-04-16T09:43:59Z</time>
      </trkpt>
      <trkpt lat="44.95896" lon="6.71621">
        <ele>2509.66</ele>
        <time>2017-04-16T09:44:03Z</time>
      </trkpt>
      <trkpt lat="44.95893" lon="6.71623">
        <ele>2508.7</ele>
        <time>2017-04-16T09:44:04Z</time>
      </trkpt>
      <trkpt lat="44.95888" lon="6.71629">
        <ele>2505.33</ele>
        <time>2017-04-16T09:44:06Z</time>
      </trkpt>
      <trkpt lat="44.95886" lon="6.71631">
        <ele>2504.37</ele>
        <time>2017-04-16T09:44:07Z</time>
      </trkpt>
      <trkpt lat="44.95884" lon="6.71626">
        <ele>2502.45</ele>
        <time>2017-04-16T09:44:09Z</time>
      </trkpt>
      <trkpt lat="44.95883" lon="6.71623">
        <ele>2502.45</ele>
        <time>2017-04-16T09:44:23Z</time>
      </trkpt>
      <trkpt lat="44.95884" lon="6.71621">
        <ele>2502.93</ele>
        <time>2017-04-16T09:44:50Z</time>
      </trkpt>
      <trkpt lat="44.95885" lon="6.71622">
        <ele>2503.41</ele>
        <time>2017-04-16T09:45:16Z</time>
      </trkpt>
      <trkpt lat="44.95887" lon="6.71623">
        <ele>2503.89</ele>
        <time>2017-04-16T09:45:29Z</time>
      </trkpt>
      <trkpt lat="44.95888" lon="6.71635">
        <ele>2501.97</ele>
        <time>2017-04-16T09:45:33Z</time>
      </trkpt>
      <trkpt lat="44.95893" lon="6.71646">
        <ele>2500.05</ele>
        <time>2017-04-16T09:45:36Z</time>
      </trkpt>
      <trkpt lat="44.95899" lon="6.71661">
        <ele>2498.6</ele>
        <time>2017-04-16T09:45:39Z</time>
      </trkpt>
      <trkpt lat="44.95892" lon="6.71677">
        <ele>2494.28</ele>
        <time>2017-04-16T09:45:43Z</time>
      </trkpt>
      <trkpt lat="44.95885" lon="6.71682">
        <ele>2491.87</ele>
        <time>2017-04-16T09:45:45Z</time>
      </trkpt>
      <trkpt lat="44.9587" lon="6.71699">
        <ele>2485.15</ele>
        <time>2017-04-16T09:45:49Z</time>
      </trkpt>
      <trkpt lat="44.95862" lon="6.71706">
        <ele>2481.3</ele>
        <time>2017-04-16T09:45:51Z</time>
      </trkpt>
      <trkpt lat="44.95854" lon="6.71719">
        <ele>2478.42</ele>
        <time>2017-04-16T09:45:53Z</time>
      </trkpt>
      <trkpt lat="44.9585" lon="6.71725">
        <ele>2474.57</ele>
        <time>2017-04-16T09:45:54Z</time>
      </trkpt>
      <trkpt lat="44.95834" lon="6.71752">
        <ele>2467.36</ele>
        <time>2017-04-16T09:45:58Z</time>
      </trkpt>
      <trkpt lat="44.9583" lon="6.71758">
        <ele>2465.44</ele>
        <time>2017-04-16T09:45:59Z</time>
      </trkpt>
      <trkpt lat="44.95817" lon="6.71776">
        <ele>2460.63</ele>
        <time>2017-04-16T09:46:02Z</time>
      </trkpt>
      <trkpt lat="44.95812" lon="6.71782">
        <ele>2460.63</ele>
        <time>2017-04-16T09:46:03Z</time>
      </trkpt>
      <trkpt lat="44.95804" lon="6.71795">
        <ele>2457.27</ele>
        <time>2017-04-16T09:46:05Z</time>
      </trkpt>
      <trkpt lat="44.95791" lon="6.71813">
        <ele>2453.42</ele>
        <time>2017-04-16T09:46:08Z</time>
      </trkpt>
      <trkpt lat="44.95779" lon="6.7183">
        <ele>2449.58</ele>
        <time>2017-04-16T09:46:11Z</time>
      </trkpt>
      <trkpt lat="44.9577" lon="6.7184">
        <ele>2447.17</ele>
        <time>2017-04-16T09:46:15Z</time>
      </trkpt>
      <trkpt lat="44.95773" lon="6.71835">
        <ele>2447.17</ele>
        <time>2017-04-16T09:46:34Z</time>
      </trkpt>
      <trkpt lat="44.95773" lon="6.71835">
        <ele>2447.17</ele>
        <time>2017-04-16T09:46:54Z</time>
      </trkpt>
      <trkpt lat="44.95773" lon="6.71837">
        <ele>2447.17</ele>
        <time>2017-04-16T09:46:59Z</time>
      </trkpt>
      <trkpt lat="44.95761" lon="6.71885">
        <ele>2444.29</ele>
        <time>2017-04-16T09:47:11Z</time>
      </trkpt>
      <trkpt lat="44.95749" lon="6.71884">
        <ele>2442.37</ele>
        <time>2017-04-16T09:47:15Z</time>
      </trkpt>
      <trkpt lat="44.95722" lon="6.71872">
        <ele>2437.56</ele>
        <time>2017-04-16T09:47:21Z</time>
      </trkpt>
      <trkpt lat="44.95717" lon="6.71868">
        <ele>2437.08</ele>
        <time>2017-04-16T09:47:22Z</time>
      </trkpt>
      <trkpt lat="44.957" lon="6.71859">
        <ele>2433.23</ele>
        <time>2017-04-16T09:47:25Z</time>
      </trkpt>
      <trkpt lat="44.95679" lon="6.71852">
        <ele>2430.35</ele>
        <time>2017-04-16T09:47:29Z</time>
      </trkpt>
      <trkpt lat="44.95669" lon="6.71842">
        <ele>2428.43</ele>
        <time>2017-04-16T09:47:37Z</time>
      </trkpt>
      <trkpt lat="44.95671" lon="6.71842">
        <ele>2428.91</ele>
        <time>2017-04-16T09:47:59Z</time>
      </trkpt>
      <trkpt lat="44.95671" lon="6.7184">
        <ele>2428.91</ele>
        <time>2017-04-16T09:48:19Z</time>
      </trkpt>
      <trkpt lat="44.95672" lon="6.71839">
        <ele>2428.43</ele>
        <time>2017-04-16T09:48:49Z</time>
      </trkpt>
      <trkpt lat="44.95672" lon="6.71838">
        <ele>2428.91</ele>
        <time>2017-04-16T09:49:12Z</time>
      </trkpt>
      <trkpt lat="44.95672" lon="6.71838">
        <ele>2428.91</ele>
        <time>2017-04-16T09:49:36Z</time>
      </trkpt>
      <trkpt lat="44.95671" lon="6.71838">
        <ele>2428.91</ele>
        <time>2017-04-16T09:49:58Z</time>
      </trkpt>
      <trkpt lat="44.95666" lon="6.71842">
        <ele>2428.43</ele>
        <time>2017-04-16T09:50:00Z</time>
      </trkpt>
      <trkpt lat="44.95644" lon="6.71841">
        <ele>2423.14</ele>
        <time>2017-04-16T09:50:04Z</time>
      </trkpt>
      <trkpt lat="44.95617" lon="6.71835">
        <ele>2415.45</ele>
        <time>2017-04-16T09:50:08Z</time>
      </trkpt>
      <trkpt lat="44.95596" lon="6.71836">
        <ele>2410.64</ele>
        <time>2017-04-16T09:50:11Z</time>
      </trkpt>
      <trkpt lat="44.95589" lon="6.71838">
        <ele>2410.64</ele>
        <time>2017-04-16T09:50:12Z</time>
      </trkpt>
      <trkpt lat="44.95575" lon="6.7184">
        <ele>2406.32</ele>
        <time>2017-04-16T09:50:14Z</time>
      </trkpt>
      <trkpt lat="44.95552" lon="6.71843">
        <ele>2401.51</ele>
        <time>2017-04-16T09:50:17Z</time>
      </trkpt>
      <trkpt lat="44.95533" lon="6.71848">
        <ele>2398.63</ele>
        <time>2017-04-16T09:50:19Z</time>
      </trkpt>
      <trkpt lat="44.95522" lon="6.71848">
        <ele>2394.78</ele>
        <time>2017-04-16T09:50:20Z</time>
      </trkpt>
      <trkpt lat="44.95511" lon="6.71846">
        <ele>2391.9</ele>
        <time>2017-04-16T09:50:21Z</time>
      </trkpt>
      <trkpt lat="44.95489" lon="6.71844">
        <ele>2387.09</ele>
        <time>2017-04-16T09:50:23Z</time>
      </trkpt>
      <trkpt lat="44.95479" lon="6.71843">
        <ele>2387.09</ele>
        <time>2017-04-16T09:50:24Z</time>
      </trkpt>
      <trkpt lat="44.95439" lon="6.71842">
        <ele>2384.21</ele>
        <time>2017-04-16T09:50:29Z</time>
      </trkpt>
      <trkpt lat="44.95431" lon="6.71842">
        <ele>2385.65</ele>
        <time>2017-04-16T09:50:30Z</time>
      </trkpt>
      <trkpt lat="44.95418" lon="6.71838">
        <ele>2383.25</ele>
        <time>2017-04-16T09:50:32Z</time>
      </trkpt>
      <trkpt lat="44.95391" lon="6.71846">
        <ele>2380.36</ele>
        <time>2017-04-16T09:50:36Z</time>
      </trkpt>
      <trkpt lat="44.95384" lon="6.71845">
        <ele>2377.48</ele>
        <time>2017-04-16T09:50:37Z</time>
      </trkpt>
      <trkpt lat="44.95367" lon="6.71847">
        <ele>2374.11</ele>
        <time>2017-04-16T09:50:39Z</time>
      </trkpt>
      <trkpt lat="44.9535" lon="6.71844">
        <ele>2368.83</ele>
        <time>2017-04-16T09:50:41Z</time>
      </trkpt>
      <trkpt lat="44.95333" lon="6.71848">
        <ele>2363.54</ele>
        <time>2017-04-16T09:50:43Z</time>
      </trkpt>
      <trkpt lat="44.95317" lon="6.71852">
        <ele>2360.17</ele>
        <time>2017-04-16T09:50:45Z</time>
      </trkpt>
      <trkpt lat="44.95302" lon="6.71855">
        <ele>2355.85</ele>
        <time>2017-04-16T09:50:47Z</time>
      </trkpt>
      <trkpt lat="44.95287" lon="6.71859">
        <ele>2352.48</ele>
        <time>2017-04-16T09:50:49Z</time>
      </trkpt>
      <trkpt lat="44.95271" lon="6.71862">
        <ele>2349.12</ele>
        <time>2017-04-16T09:50:51Z</time>
      </trkpt>
      <trkpt lat="44.95249" lon="6.71861">
        <ele>2344.31</ele>
        <time>2017-04-16T09:50:54Z</time>
      </trkpt>
      <trkpt lat="44.95228" lon="6.71862">
        <ele>2340.95</ele>
        <time>2017-04-16T09:50:57Z</time>
      </trkpt>
      <trkpt lat="44.95213" lon="6.7186">
        <ele>2337.58</ele>
        <time>2017-04-16T09:50:59Z</time>
      </trkpt>
      <trkpt lat="44.95173" lon="6.71851">
        <ele>2331.33</ele>
        <time>2017-04-16T09:51:05Z</time>
      </trkpt>
      <trkpt lat="44.95161" lon="6.7185">
        <ele>2330.37</ele>
        <time>2017-04-16T09:51:08Z</time>
      </trkpt>
      <trkpt lat="44.95135" lon="6.71853">
        <ele>2324.61</ele>
        <time>2017-04-16T09:51:14Z</time>
      </trkpt>
      <trkpt lat="44.95116" lon="6.71854">
        <ele>2320.28</ele>
        <time>2017-04-16T09:51:18Z</time>
      </trkpt>
      <trkpt lat="44.95102" lon="6.71848">
        <ele>2317.4</ele>
        <time>2017-04-16T09:51:22Z</time>
      </trkpt>
      <trkpt lat="44.95105" lon="6.71833">
        <ele>2317.4</ele>
        <time>2017-04-16T09:51:29Z</time>
      </trkpt>
      <trkpt lat="44.95106" lon="6.71833">
        <ele>2317.4</ele>
        <time>2017-04-16T09:51:49Z</time>
      </trkpt>
      <trkpt lat="44.95099" lon="6.71832">
        <ele>2316.43</ele>
        <time>2017-04-16T09:51:52Z</time>
      </trkpt>
      <trkpt lat="44.95076" lon="6.71854">
        <ele>2312.11</ele>
        <time>2017-04-16T09:51:58Z</time>
      </trkpt>
      <trkpt lat="44.9506" lon="6.71851">
        <ele>2308.74</ele>
        <time>2017-04-16T09:52:02Z</time>
      </trkpt>
      <trkpt lat="44.95051" lon="6.71864">
        <ele>2304.9</ele>
        <time>2017-04-16T09:52:05Z</time>
      </trkpt>
      <trkpt lat="44.95051" lon="6.71859">
        <ele>2304.9</ele>
        <time>2017-04-16T09:52:16Z</time>
      </trkpt>
      <trkpt lat="44.9505" lon="6.71859">
        <ele>2304.42</ele>
        <time>2017-04-16T09:52:17Z</time>
      </trkpt>
      <trkpt lat="44.95038" lon="6.71864">
        <ele>2302.01</ele>
        <time>2017-04-16T09:52:21Z</time>
      </trkpt>
      <trkpt lat="44.95012" lon="6.71864">
        <ele>2298.17</ele>
        <time>2017-04-16T09:52:25Z</time>
      </trkpt>
      <trkpt lat="44.94991" lon="6.71866">
        <ele>2293.36</ele>
        <time>2017-04-16T09:52:28Z</time>
      </trkpt>
      <trkpt lat="44.94961" lon="6.71874">
        <ele>2288.56</ele>
        <time>2017-04-16T09:52:32Z</time>
      </trkpt>
      <trkpt lat="44.94934" lon="6.71873">
        <ele>2284.71</ele>
        <time>2017-04-16T09:52:36Z</time>
      </trkpt>
      <trkpt lat="44.94929" lon="6.71877">
        <ele>2284.71</ele>
        <time>2017-04-16T09:52:37Z</time>
      </trkpt>
      <trkpt lat="44.94909" lon="6.71881">
        <ele>2281.35</ele>
        <time>2017-04-16T09:52:40Z</time>
      </trkpt>
      <trkpt lat="44.94895" lon="6.71888">
        <ele>2279.9</ele>
        <time>2017-04-16T09:52:42Z</time>
      </trkpt>
      <trkpt lat="44.94863" lon="6.71904">
        <ele>2277.02</ele>
        <time>2017-04-16T09:52:47Z</time>
      </trkpt>
      <trkpt lat="44.9484" lon="6.7192">
        <ele>2274.62</ele>
        <time>2017-04-16T09:52:51Z</time>
      </trkpt>
      <trkpt lat="44.9482" lon="6.71928">
        <ele>2272.69</ele>
        <time>2017-04-16T09:52:55Z</time>
      </trkpt>
      <trkpt lat="44.94795" lon="6.71941">
        <ele>2270.77</ele>
        <time>2017-04-16T09:53:01Z</time>
      </trkpt>
      <trkpt lat="44.94769" lon="6.71953">
        <ele>2267.89</ele>
        <time>2017-04-16T09:53:07Z</time>
      </trkpt>
      <trkpt lat="44.94765" lon="6.71952">
        <ele>2267.89</ele>
        <time>2017-04-16T09:53:08Z</time>
      </trkpt>
      <trkpt lat="44.94755" lon="6.71959">
        <ele>2265.96</ele>
        <time>2017-04-16T09:53:12Z</time>
      </trkpt>
      <trkpt lat="44.94752" lon="6.71962">
        <ele>2265.48</ele>
        <time>2017-04-16T09:53:18Z</time>
      </trkpt>
      <trkpt lat="44.94754" lon="6.71959">
        <ele>2265.48</ele>
        <time>2017-04-16T09:53:39Z</time>
      </trkpt>
      <trkpt lat="44.94756" lon="6.71958">
        <ele>2265.48</ele>
        <time>2017-04-16T09:53:54Z</time>
      </trkpt>
      <trkpt lat="44.94731" lon="6.71965">
        <ele>2261.16</ele>
        <time>2017-04-16T09:54:01Z</time>
      </trkpt>
      <trkpt lat="44.94718" lon="6.71972">
        <ele>2259.24</ele>
        <time>2017-04-16T09:54:04Z</time>
      </trkpt>
      <trkpt lat="44.94692" lon="6.71983">
        <ele>2252.99</ele>
        <time>2017-04-16T09:54:10Z</time>
      </trkpt>
      <trkpt lat="44.94682" lon="6.71976">
        <ele>2250.1</ele>
        <time>2017-04-16T09:54:13Z</time>
      </trkpt>
      <trkpt lat="44.94679" lon="6.71974">
        <ele>2250.1</ele>
        <time>2017-04-16T09:54:14Z</time>
      </trkpt>
      <trkpt lat="44.94678" lon="6.71975">
        <ele>2250.1</ele>
        <time>2017-04-16T09:54:21Z</time>
      </trkpt>
      <trkpt lat="44.94678" lon="6.71976">
        <ele>2250.1</ele>
        <time>2017-04-16T09:54:33Z</time>
      </trkpt>
      <trkpt lat="44.94665" lon="6.71987">
        <ele>2247.22</ele>
        <time>2017-04-16T09:54:38Z</time>
      </trkpt>
      <trkpt lat="44.94648" lon="6.71995">
        <ele>2241.93</ele>
        <time>2017-04-16T09:54:41Z</time>
      </trkpt>
      <trkpt lat="44.94643" lon="6.72">
        <ele>2241.93</ele>
        <time>2017-04-16T09:54:42Z</time>
      </trkpt>
      <trkpt lat="44.94632" lon="6.72005">
        <ele>2238.57</ele>
        <time>2017-04-16T09:54:44Z</time>
      </trkpt>
      <trkpt lat="44.94622" lon="6.7201">
        <ele>2237.13</ele>
        <time>2017-04-16T09:54:46Z</time>
      </trkpt>
      <trkpt lat="44.94609" lon="6.72016">
        <ele>2233.28</ele>
        <time>2017-04-16T09:54:48Z</time>
      </trkpt>
      <trkpt lat="44.94593" lon="6.7202">
        <ele>2229.92</ele>
        <time>2017-04-16T09:54:52Z</time>
      </trkpt>
      <trkpt lat="44.94591" lon="6.72021">
        <ele>2229.92</ele>
        <time>2017-04-16T09:54:53Z</time>
      </trkpt>
      <trkpt lat="44.94578" lon="6.72027">
        <ele>2227.03</ele>
        <time>2017-04-16T09:54:57Z</time>
      </trkpt>
      <trkpt lat="44.94557" lon="6.7203">
        <ele>2223.67</ele>
        <time>2017-04-16T09:55:01Z</time>
      </trkpt>
      <trkpt lat="44.94552" lon="6.7203">
        <ele>2223.19</ele>
        <time>2017-04-16T09:55:02Z</time>
      </trkpt>
      <trkpt lat="44.94538" lon="6.72022">
        <ele>2218.86</ele>
        <time>2017-04-16T09:55:06Z</time>
      </trkpt>
      <trkpt lat="44.94518" lon="6.72019">
        <ele>2215.01</ele>
        <time>2017-04-16T09:55:11Z</time>
      </trkpt>
      <trkpt lat="44.94514" lon="6.7202">
        <ele>2215.01</ele>
        <time>2017-04-16T09:55:12Z</time>
      </trkpt>
      <trkpt lat="44.94499" lon="6.72026">
        <ele>2211.17</ele>
        <time>2017-04-16T09:55:16Z</time>
      </trkpt>
      <trkpt lat="44.94483" lon="6.72029">
        <ele>2207.81</ele>
        <time>2017-04-16T09:55:20Z</time>
      </trkpt>
      <trkpt lat="44.94475" lon="6.72048">
        <ele>2205.88</ele>
        <time>2017-04-16T09:55:24Z</time>
      </trkpt>
      <trkpt lat="44.94454" lon="6.72062">
        <ele>2200.11</ele>
        <time>2017-04-16T09:55:28Z</time>
      </trkpt>
      <trkpt lat="44.94437" lon="6.7207">
        <ele>2195.31</ele>
        <time>2017-04-16T09:55:31Z</time>
      </trkpt>
      <trkpt lat="44.94418" lon="6.72079">
        <ele>2190.5</ele>
        <time>2017-04-16T09:55:34Z</time>
      </trkpt>
      <trkpt lat="44.94407" lon="6.72071">
        <ele>2187.62</ele>
        <time>2017-04-16T09:55:36Z</time>
      </trkpt>
      <trkpt lat="44.94404" lon="6.72067">
        <ele>2187.14</ele>
        <time>2017-04-16T09:55:37Z</time>
      </trkpt>
      <trkpt lat="44.94402" lon="6.72066">
        <ele>2189.06</ele>
        <time>2017-04-16T09:55:39Z</time>
      </trkpt>
      <trkpt lat="44.94407" lon="6.72066">
        <ele>2189.06</ele>
        <time>2017-04-16T09:55:55Z</time>
      </trkpt>
      <trkpt lat="44.94407" lon="6.72067">
        <ele>2189.06</ele>
        <time>2017-04-16T09:56:25Z</time>
      </trkpt>
      <trkpt lat="44.94384" lon="6.7208">
        <ele>2185.69</ele>
        <time>2017-04-16T09:56:32Z</time>
      </trkpt>
      <trkpt lat="44.94371" lon="6.72088">
        <ele>2182.81</ele>
        <time>2017-04-16T09:56:34Z</time>
      </trkpt>
      <trkpt lat="44.9435" lon="6.72099">
        <ele>2178.97</ele>
        <time>2017-04-16T09:56:37Z</time>
      </trkpt>
      <trkpt lat="44.94324" lon="6.72116">
        <ele>2175.6</ele>
        <time>2017-04-16T09:56:41Z</time>
      </trkpt>
      <trkpt lat="44.94293" lon="6.72136">
        <ele>2172.24</ele>
        <time>2017-04-16T09:56:46Z</time>
      </trkpt>
      <trkpt lat="44.94287" lon="6.72134">
        <ele>2172.24</ele>
        <time>2017-04-16T09:56:47Z</time>
      </trkpt>
      <trkpt lat="44.94279" lon="6.72131">
        <ele>2172.72</ele>
        <time>2017-04-16T09:56:49Z</time>
      </trkpt>
      <trkpt lat="44.94278" lon="6.72133">
        <ele>2174.64</ele>
        <time>2017-04-16T09:56:58Z</time>
      </trkpt>
      <trkpt lat="44.9428" lon="6.72132">
        <ele>2175.12</ele>
        <time>2017-04-16T09:57:23Z</time>
      </trkpt>
      <trkpt lat="44.94281" lon="6.72131">
        <ele>2175.12</ele>
        <time>2017-04-16T09:57:41Z</time>
      </trkpt>
      <trkpt lat="44.9428" lon="6.72131">
        <ele>2175.12</ele>
        <time>2017-04-16T09:58:03Z</time>
      </trkpt>
      <trkpt lat="44.94279" lon="6.72133">
        <ele>2175.12</ele>
        <time>2017-04-16T09:58:11Z</time>
      </trkpt>
      <trkpt lat="44.94277" lon="6.72147">
        <ele>2173.2</ele>
        <time>2017-04-16T09:58:15Z</time>
      </trkpt>
      <trkpt lat="44.94276" lon="6.72162">
        <ele>2171.76</ele>
        <time>2017-04-16T09:58:23Z</time>
      </trkpt>
      <trkpt lat="44.94276" lon="6.72164">
        <ele>2171.76</ele>
        <time>2017-04-16T09:58:31Z</time>
      </trkpt>
      <trkpt lat="44.9427" lon="6.72174">
        <ele>2167.91</ele>
        <time>2017-04-16T09:58:35Z</time>
      </trkpt>
      <trkpt lat="44.94261" lon="6.72185">
        <ele>2165.03</ele>
        <time>2017-04-16T09:58:38Z</time>
      </trkpt>
      <trkpt lat="44.94254" lon="6.72194">
        <ele>2161.66</ele>
        <time>2017-04-16T09:58:40Z</time>
      </trkpt>
      <trkpt lat="44.94252" lon="6.72206">
        <ele>2158.3</ele>
        <time>2017-04-16T09:58:43Z</time>
      </trkpt>
      <trkpt lat="44.94242" lon="6.72212">
        <ele>2154.93</ele>
        <time>2017-04-16T09:58:46Z</time>
      </trkpt>
      <trkpt lat="44.94235" lon="6.72218">
        <ele>2151.57</ele>
        <time>2017-04-16T09:58:48Z</time>
      </trkpt>
      <trkpt lat="44.94231" lon="6.72221">
        <ele>2150.61</ele>
        <time>2017-04-16T09:58:49Z</time>
      </trkpt>
      <trkpt lat="44.94213" lon="6.72257">
        <ele>2142.44</ele>
        <time>2017-04-16T09:58:55Z</time>
      </trkpt>
      <trkpt lat="44.94206" lon="6.72258">
        <ele>2141.47</ele>
        <time>2017-04-16T09:58:57Z</time>
      </trkpt>
      <trkpt lat="44.94206" lon="6.72265">
        <ele>2140.03</ele>
        <time>2017-04-16T09:59:03Z</time>
      </trkpt>
      <trkpt lat="44.94205" lon="6.72288">
        <ele>2140.51</ele>
        <time>2017-04-16T09:59:14Z</time>
      </trkpt>
      <trkpt lat="44.94195" lon="6.72301">
        <ele>2135.23</ele>
        <time>2017-04-16T09:59:17Z</time>
      </trkpt>
      <trkpt lat="44.9418" lon="6.72313">
        <ele>2130.9</ele>
        <time>2017-04-16T09:59:20Z</time>
      </trkpt>
      <trkpt lat="44.94176" lon="6.72318">
        <ele>2130.9</ele>
        <time>2017-04-16T09:59:21Z</time>
      </trkpt>
      <trkpt lat="44.94164" lon="6.72327">
        <ele>2127.05</ele>
        <time>2017-04-16T09:59:24Z</time>
      </trkpt>
      <trkpt lat="44.94145" lon="6.72342">
        <ele>2123.21</ele>
        <time>2017-04-16T09:59:28Z</time>
      </trkpt>
      <trkpt lat="44.94125" lon="6.72363">
        <ele>2119.84</ele>
        <time>2017-04-16T09:59:33Z</time>
      </trkpt>
      <trkpt lat="44.94112" lon="6.72374">
        <ele>2117.44</ele>
        <time>2017-04-16T09:59:36Z</time>
      </trkpt>
      <trkpt lat="44.94096" lon="6.72387">
        <ele>2114.56</ele>
        <time>2017-04-16T09:59:40Z</time>
      </trkpt>
      <trkpt lat="44.94082" lon="6.72408">
        <ele>2110.71</ele>
        <time>2017-04-16T09:59:45Z</time>
      </trkpt>
      <trkpt lat="44.94067" lon="6.72424">
        <ele>2108.79</ele>
        <time>2017-04-16T09:59:50Z</time>
      </trkpt>
      <trkpt lat="44.94054" lon="6.7244">
        <ele>2106.39</ele>
        <time>2017-04-16T09:59:54Z</time>
      </trkpt>
      <trkpt lat="44.94053" lon="6.72441">
        <ele>2105.42</ele>
        <time>2017-04-16T10:00:01Z</time>
      </trkpt>
      <trkpt lat="44.94053" lon="6.7244">
        <ele>2104.46</ele>
        <time>2017-04-16T10:00:12Z</time>
      </trkpt>
      <trkpt lat="44.94048" lon="6.72442">
        <ele>2106.87</ele>
        <time>2017-04-16T10:00:30Z</time>
      </trkpt>
      <trkpt lat="44.94031" lon="6.72452">
        <ele>2102.06</ele>
        <time>2017-04-16T10:00:35Z</time>
      </trkpt>
      <trkpt lat="44.9402" lon="6.72461">
        <ele>2098.7</ele>
        <time>2017-04-16T10:00:38Z</time>
      </trkpt>
      <trkpt lat="44.94008" lon="6.72476">
        <ele>2094.37</ele>
        <time>2017-04-16T10:00:42Z</time>
      </trkpt>
      <trkpt lat="44.94005" lon="6.72472">
        <ele>2091.49</ele>
        <time>2017-04-16T10:00:45Z</time>
      </trkpt>
      <trkpt lat="44.94005" lon="6.72469">
        <ele>2091.97</ele>
        <time>2017-04-16T10:00:57Z</time>
      </trkpt>
      <trkpt lat="44.94002" lon="6.72481">
        <ele>2090.52</ele>
        <time>2017-04-16T10:01:01Z</time>
      </trkpt>
      <trkpt lat="44.94004" lon="6.7248">
        <ele>2090.52</ele>
        <time>2017-04-16T10:01:16Z</time>
      </trkpt>
      <trkpt lat="44.94003" lon="6.7248">
        <ele>2090.52</ele>
        <time>2017-04-16T10:01:36Z</time>
      </trkpt>
      <trkpt lat="44.94004" lon="6.7248">
        <ele>2090.04</ele>
        <time>2017-04-16T10:02:04Z</time>
      </trkpt>
      <trkpt lat="44.94004" lon="6.72482">
        <ele>2090.52</ele>
        <time>2017-04-16T10:02:24Z</time>
      </trkpt>
      <trkpt lat="44.9399" lon="6.72497">
        <ele>2087.16</ele>
        <time>2017-04-16T10:02:31Z</time>
      </trkpt>
      <trkpt lat="44.93981" lon="6.72501">
        <ele>2083.31</ele>
        <time>2017-04-16T10:02:33Z</time>
      </trkpt>
      <trkpt lat="44.93971" lon="6.72505">
        <ele>2079.95</ele>
        <time>2017-04-16T10:02:35Z</time>
      </trkpt>
      <trkpt lat="44.93966" lon="6.72507">
        <ele>2078.51</ele>
        <time>2017-04-16T10:02:36Z</time>
      </trkpt>
      <trkpt lat="44.93954" lon="6.72512">
        <ele>2074.18</ele>
        <time>2017-04-16T10:02:39Z</time>
      </trkpt>
      <trkpt lat="44.93943" lon="6.72524">
        <ele>2069.86</ele>
        <time>2017-04-16T10:02:43Z</time>
      </trkpt>
      <trkpt lat="44.93934" lon="6.72529">
        <ele>2066.97</ele>
        <time>2017-04-16T10:02:45Z</time>
      </trkpt>
      <trkpt lat="44.93927" lon="6.72526">
        <ele>2062.65</ele>
        <time>2017-04-16T10:02:47Z</time>
      </trkpt>
      <trkpt lat="44.93925" lon="6.72523">
        <ele>2063.13</ele>
        <time>2017-04-16T10:02:48Z</time>
      </trkpt>
      <trkpt lat="44.93918" lon="6.72527">
        <ele>2062.17</ele>
        <time>2017-04-16T10:02:54Z</time>
      </trkpt>
      <trkpt lat="44.93921" lon="6.72525">
        <ele>2062.65</ele>
        <time>2017-04-16T10:03:19Z</time>
      </trkpt>
      <trkpt lat="44.93923" lon="6.72527">
        <ele>2062.65</ele>
        <time>2017-04-16T10:03:42Z</time>
      </trkpt>
      <trkpt lat="44.9393" lon="6.72541">
        <ele>2060.72</ele>
        <time>2017-04-16T10:03:46Z</time>
      </trkpt>
      <trkpt lat="44.93924" lon="6.72557">
        <ele>2057.36</ele>
        <time>2017-04-16T10:03:50Z</time>
      </trkpt>
      <trkpt lat="44.93918" lon="6.72568">
        <ele>2052.07</ele>
        <time>2017-04-16T10:03:53Z</time>
      </trkpt>
      <trkpt lat="44.93915" lon="6.72569">
        <ele>2052.55</ele>
        <time>2017-04-16T10:03:54Z</time>
      </trkpt>
      <trkpt lat="44.93916" lon="6.72574">
        <ele>2051.11</ele>
        <time>2017-04-16T10:03:58Z</time>
      </trkpt>
      <trkpt lat="44.93919" lon="6.72574">
        <ele>2051.11</ele>
        <time>2017-04-16T10:04:23Z</time>
      </trkpt>
      <trkpt lat="44.9392" lon="6.72593">
        <ele>2046.78</ele>
        <time>2017-04-16T10:04:29Z</time>
      </trkpt>
      <trkpt lat="44.93923" lon="6.7261">
        <ele>2043.42</ele>
        <time>2017-04-16T10:04:34Z</time>
      </trkpt>
      <trkpt lat="44.93924" lon="6.72613">
        <ele>2043.42</ele>
        <time>2017-04-16T10:04:35Z</time>
      </trkpt>
      <trkpt lat="44.93929" lon="6.72631">
        <ele>2040.05</ele>
        <time>2017-04-16T10:04:40Z</time>
      </trkpt>
      <trkpt lat="44.93933" lon="6.72646">
        <ele>2036.69</ele>
        <time>2017-04-16T10:04:44Z</time>
      </trkpt>
      <trkpt lat="44.9394" lon="6.7265">
        <ele>2033.33</ele>
        <time>2017-04-16T10:04:54Z</time>
      </trkpt>
      <trkpt lat="44.93944" lon="6.72647">
        <ele>2033.81</ele>
        <time>2017-04-16T10:05:17Z</time>
      </trkpt>
      <trkpt lat="44.93944" lon="6.72648">
        <ele>2033.33</ele>
        <time>2017-04-16T10:05:29Z</time>
      </trkpt>
      <trkpt lat="44.93941" lon="6.7266">
        <ele>2029.96</ele>
        <time>2017-04-16T10:05:34Z</time>
      </trkpt>
      <trkpt lat="44.9393" lon="6.72672">
        <ele>2024.19</ele>
        <time>2017-04-16T10:05:38Z</time>
      </trkpt>
      <trkpt lat="44.93923" lon="6.72674">
        <ele>2020.83</ele>
        <time>2017-04-16T10:05:40Z</time>
      </trkpt>
      <trkpt lat="44.93919" lon="6.72683">
        <ele>2017.94</ele>
        <time>2017-04-16T10:05:43Z</time>
      </trkpt>
      <trkpt lat="44.93913" lon="6.72682">
        <ele>2014.58</ele>
        <time>2017-04-16T10:05:45Z</time>
      </trkpt>
      <trkpt lat="44.93909" lon="6.7268">
        <ele>2013.62</ele>
        <time>2017-04-16T10:05:47Z</time>
      </trkpt>
      <trkpt lat="44.93899" lon="6.7269">
        <ele>2008.81</ele>
        <time>2017-04-16T10:05:50Z</time>
      </trkpt>
      <trkpt lat="44.93888" lon="6.72699">
        <ele>2004.49</ele>
        <time>2017-04-16T10:05:53Z</time>
      </trkpt>
      <trkpt lat="44.93882" lon="6.72699">
        <ele>2002.56</ele>
        <time>2017-04-16T10:05:56Z</time>
      </trkpt>
      <trkpt lat="44.93889" lon="6.72698">
        <ele>2002.56</ele>
        <time>2017-04-16T10:06:14Z</time>
      </trkpt>
      <trkpt lat="44.9389" lon="6.72702">
        <ele>2003.04</ele>
        <time>2017-04-16T10:06:23Z</time>
      </trkpt>
      <trkpt lat="44.9389" lon="6.72709">
        <ele>2002.56</ele>
        <time>2017-04-16T10:06:26Z</time>
      </trkpt>
      <trkpt lat="44.93882" lon="6.72718">
        <ele>1998.72</ele>
        <time>2017-04-16T10:06:29Z</time>
      </trkpt>
      <trkpt lat="44.93879" lon="6.72721">
        <ele>1998.72</ele>
        <time>2017-04-16T10:06:30Z</time>
      </trkpt>
      <trkpt lat="44.93864" lon="6.72733">
        <ele>1993.43</ele>
        <time>2017-04-16T10:06:34Z</time>
      </trkpt>
      <trkpt lat="44.93854" lon="6.72744">
        <ele>1988.62</ele>
        <time>2017-04-16T10:06:37Z</time>
      </trkpt>
      <trkpt lat="44.93838" lon="6.72749">
        <ele>1984.78</ele>
        <time>2017-04-16T10:06:40Z</time>
      </trkpt>
      <trkpt lat="44.93825" lon="6.7275">
        <ele>1981.41</ele>
        <time>2017-04-16T10:06:42Z</time>
      </trkpt>
      <trkpt lat="44.93811" lon="6.72746">
        <ele>1977.09</ele>
        <time>2017-04-16T10:06:44Z</time>
      </trkpt>
      <trkpt lat="44.93799" lon="6.72751">
        <ele>1972.28</ele>
        <time>2017-04-16T10:06:46Z</time>
      </trkpt>
      <trkpt lat="44.93787" lon="6.7275">
        <ele>1967.96</ele>
        <time>2017-04-16T10:06:48Z</time>
      </trkpt>
      <trkpt lat="44.93782" lon="6.72759">
        <ele>1965.55</ele>
        <time>2017-04-16T10:06:53Z</time>
      </trkpt>
      <trkpt lat="44.93787" lon="6.72757">
        <ele>1966.51</ele>
        <time>2017-04-16T10:07:12Z</time>
      </trkpt>
      <trkpt lat="44.9377" lon="6.72758">
        <ele>1963.15</ele>
        <time>2017-04-16T10:07:18Z</time>
      </trkpt>
      <trkpt lat="44.93755" lon="6.7276">
        <ele>1958.34</ele>
        <time>2017-04-16T10:07:22Z</time>
      </trkpt>
      <trkpt lat="44.93747" lon="6.7276">
        <ele>1956.9</ele>
        <time>2017-04-16T10:07:24Z</time>
      </trkpt>
      <trkpt lat="44.9374" lon="6.72749">
        <ele>1953.06</ele>
        <time>2017-04-16T10:07:27Z</time>
      </trkpt>
      <trkpt lat="44.93724" lon="6.72741">
        <ele>1949.21</ele>
        <time>2017-04-16T10:07:30Z</time>
      </trkpt>
      <trkpt lat="44.93714" lon="6.72739">
        <ele>1945.36</ele>
        <time>2017-04-16T10:07:32Z</time>
      </trkpt>
      <trkpt lat="44.93699" lon="6.72739">
        <ele>1942</ele>
        <time>2017-04-16T10:07:35Z</time>
      </trkpt>
      <trkpt lat="44.9369" lon="6.72746">
        <ele>1938.64</ele>
        <time>2017-04-16T10:07:37Z</time>
      </trkpt>
      <trkpt lat="44.93686" lon="6.72751">
        <ele>1938.64</ele>
        <time>2017-04-16T10:07:38Z</time>
      </trkpt>
      <trkpt lat="44.9368" lon="6.72765">
        <ele>1936.23</ele>
        <time>2017-04-16T10:07:41Z</time>
      </trkpt>
      <trkpt lat="44.93676" lon="6.72774">
        <ele>1933.83</ele>
        <time>2017-04-16T10:07:43Z</time>
      </trkpt>
      <trkpt lat="44.93669" lon="6.72804">
        <ele>1931.43</ele>
        <time>2017-04-16T10:07:49Z</time>
      </trkpt>
      <trkpt lat="44.93662" lon="6.72844">
        <ele>1930.46</ele>
        <time>2017-04-16T10:07:57Z</time>
      </trkpt>
      <trkpt lat="44.93655" lon="6.72855">
        <ele>1928.54</ele>
        <time>2017-04-16T10:07:59Z</time>
      </trkpt>
      <trkpt lat="44.93642" lon="6.72899">
        <ele>1924.7</ele>
        <time>2017-04-16T10:08:05Z</time>
      </trkpt>
      <trkpt lat="44.93635" lon="6.72923">
        <ele>1921.81</ele>
        <time>2017-04-16T10:08:08Z</time>
      </trkpt>
      <trkpt lat="44.93632" lon="6.7293">
        <ele>1921.81</ele>
        <time>2017-04-16T10:08:09Z</time>
      </trkpt>
      <trkpt lat="44.93619" lon="6.72954">
        <ele>1918.93</ele>
        <time>2017-04-16T10:08:14Z</time>
      </trkpt>
      <trkpt lat="44.93624" lon="6.72949">
        <ele>1919.41</ele>
        <time>2017-04-16T10:08:39Z</time>
      </trkpt>
      <trkpt lat="44.93624" lon="6.72952">
        <ele>1919.41</ele>
        <time>2017-04-16T10:08:42Z</time>
      </trkpt>
      <trkpt lat="44.93624" lon="6.72964">
        <ele>1918.45</ele>
        <time>2017-04-16T10:08:46Z</time>
      </trkpt>
      <trkpt lat="44.9362" lon="6.72975">
        <ele>1917.49</ele>
        <time>2017-04-16T10:08:48Z</time>
      </trkpt>
      <trkpt lat="44.93614" lon="6.72989">
        <ele>1917.01</ele>
        <time>2017-04-16T10:08:50Z</time>
      </trkpt>
      <trkpt lat="44.93607" lon="6.73012">
        <ele>1912.2</ele>
        <time>2017-04-16T10:08:53Z</time>
      </trkpt>
      <trkpt lat="44.93605" lon="6.7302">
        <ele>1912.68</ele>
        <time>2017-04-16T10:08:54Z</time>
      </trkpt>
      <trkpt lat="44.93603" lon="6.73027">
        <ele>1911.24</ele>
        <time>2017-04-16T10:08:55Z</time>
      </trkpt>
      <trkpt lat="44.93599" lon="6.73043">
        <ele>1909.8</ele>
        <time>2017-04-16T10:08:57Z</time>
      </trkpt>
      <trkpt lat="44.93589" lon="6.7308">
        <ele>1904.99</ele>
        <time>2017-04-16T10:09:02Z</time>
      </trkpt>
      <trkpt lat="44.93578" lon="6.73098">
        <ele>1901.63</ele>
        <time>2017-04-16T10:09:06Z</time>
      </trkpt>
      <trkpt lat="44.93574" lon="6.73097">
        <ele>1901.14</ele>
        <time>2017-04-16T10:09:11Z</time>
      </trkpt>
      <trkpt lat="44.9357" lon="6.73106">
        <ele>1900.18</ele>
        <time>2017-04-16T10:09:14Z</time>
      </trkpt>
      <trkpt lat="44.93559" lon="6.73117">
        <ele>1898.26</ele>
        <time>2017-04-16T10:09:17Z</time>
      </trkpt>
      <trkpt lat="44.93554" lon="6.7312">
        <ele>1895.38</ele>
        <time>2017-04-16T10:09:18Z</time>
      </trkpt>
      <trkpt lat="44.93552" lon="6.73125">
        <ele>1894.9</ele>
        <time>2017-04-16T10:09:19Z</time>
      </trkpt>
      <trkpt lat="44.9355" lon="6.73136">
        <ele>1893.45</ele>
        <time>2017-04-16T10:09:24Z</time>
      </trkpt>
      <trkpt lat="44.9355" lon="6.73137">
        <ele>1893.45</ele>
        <time>2017-04-16T10:09:47Z</time>
      </trkpt>
      <trkpt lat="44.9355" lon="6.73137">
        <ele>1892.49</ele>
        <time>2017-04-16T10:10:13Z</time>
      </trkpt>
      <trkpt lat="44.9355" lon="6.73136">
        <ele>1893.45</ele>
        <time>2017-04-16T10:10:40Z</time>
      </trkpt>
      <trkpt lat="44.9355" lon="6.73137">
        <ele>1892.49</ele>
        <time>2017-04-16T10:11:06Z</time>
      </trkpt>
      <trkpt lat="44.93533" lon="6.73143">
        <ele>1889.13</ele>
        <time>2017-04-16T10:11:13Z</time>
      </trkpt>
      <trkpt lat="44.93519" lon="6.7315">
        <ele>1885.76</ele>
        <time>2017-04-16T10:11:19Z</time>
      </trkpt>
      <trkpt lat="44.93517" lon="6.73159">
        <ele>1884.32</ele>
        <time>2017-04-16T10:11:22Z</time>
      </trkpt>
      <trkpt lat="44.93501" lon="6.73155">
        <ele>1879.51</ele>
        <time>2017-04-16T10:11:26Z</time>
      </trkpt>
      <trkpt lat="44.93483" lon="6.73151">
        <ele>1875.19</ele>
        <time>2017-04-16T10:11:29Z</time>
      </trkpt>
      <trkpt lat="44.93477" lon="6.7315">
        <ele>1875.19</ele>
        <time>2017-04-16T10:11:30Z</time>
      </trkpt>
      <trkpt lat="44.93465" lon="6.73147">
        <ele>1872.3</ele>
        <time>2017-04-16T10:11:32Z</time>
      </trkpt>
      <trkpt lat="44.93459" lon="6.73145">
        <ele>1871.82</ele>
        <time>2017-04-16T10:11:33Z</time>
      </trkpt>
      <trkpt lat="44.93432" lon="6.73141">
        <ele>1863.65</ele>
        <time>2017-04-16T10:11:37Z</time>
      </trkpt>
      <trkpt lat="44.93418" lon="6.73145">
        <ele>1862.21</ele>
        <time>2017-04-16T10:11:39Z</time>
      </trkpt>
      <trkpt lat="44.93405" lon="6.73152">
        <ele>1864.13</ele>
        <time>2017-04-16T10:11:41Z</time>
      </trkpt>
      <trkpt lat="44.93383" lon="6.73177">
        <ele>1861.73</ele>
        <time>2017-04-16T10:11:46Z</time>
      </trkpt>
      <trkpt lat="44.93377" lon="6.73193">
        <ele>1859.33</ele>
        <time>2017-04-16T10:11:49Z</time>
      </trkpt>
      <trkpt lat="44.93374" lon="6.73205">
        <ele>1857.89</ele>
        <time>2017-04-16T10:11:51Z</time>
      </trkpt>
      <trkpt lat="44.9336" lon="6.73265">
        <ele>1855</ele>
        <time>2017-04-16T10:12:02Z</time>
      </trkpt>
      <trkpt lat="44.93364" lon="6.73277">
        <ele>1854.52</ele>
        <time>2017-04-16T10:12:06Z</time>
      </trkpt>
      <trkpt lat="44.9337" lon="6.73278">
        <ele>1854.52</ele>
        <time>2017-04-16T10:12:18Z</time>
      </trkpt>
      <trkpt lat="44.93371" lon="6.73277">
        <ele>1854.52</ele>
        <time>2017-04-16T10:12:35Z</time>
      </trkpt>
      <trkpt lat="44.93371" lon="6.73279">
        <ele>1853.56</ele>
        <time>2017-04-16T10:12:49Z</time>
      </trkpt>
      <trkpt lat="44.93371" lon="6.73279">
        <ele>1853.56</ele>
        <time>2017-04-16T10:13:09Z</time>
      </trkpt>
      <trkpt lat="44.93372" lon="6.73278">
        <ele>1854.04</ele>
        <time>2017-04-16T10:13:31Z</time>
      </trkpt>
      <trkpt lat="44.93381" lon="6.73276">
        <ele>1854.04</ele>
        <time>2017-04-16T10:13:45Z</time>
      </trkpt>
      <trkpt lat="44.93381" lon="6.73285">
        <ele>1853.56</ele>
        <time>2017-04-16T10:13:58Z</time>
      </trkpt>
      <trkpt lat="44.93378" lon="6.73284">
        <ele>1854.04</ele>
        <time>2017-04-16T10:14:12Z</time>
      </trkpt>
      <trkpt lat="44.9338" lon="6.73284">
        <ele>1852.6</ele>
        <time>2017-04-16T10:14:30Z</time>
      </trkpt>
      <trkpt lat="44.93381" lon="6.73286">
        <ele>1852.6</ele>
        <time>2017-04-16T10:15:05Z</time>
      </trkpt>
      <trkpt lat="44.93382" lon="6.73285">
        <ele>1851.64</ele>
        <time>2017-04-16T10:15:40Z</time>
      </trkpt>
      <trkpt lat="44.93381" lon="6.73284">
        <ele>1851.64</ele>
        <time>2017-04-16T10:16:07Z</time>
      </trkpt>
      <trkpt lat="44.9338" lon="6.73284">
        <ele>1852.12</ele>
        <time>2017-04-16T10:16:32Z</time>
      </trkpt>
      <trkpt lat="44.93379" lon="6.73284">
        <ele>1851.16</ele>
        <time>2017-04-16T10:16:59Z</time>
      </trkpt>
    </trkseg>
  </trk>
</gpx>